<?xml version="1.0" encoding="UTF-8" standalone="no" ?>
<gpx xmlns="http://www.topografix.com/GPX/1/1" xmlns:xsi="http://www.w3.org/2001/XMLSchema-instance" xsi:schemaLocation="http://www.topografix.com/GPX/1/1 http://www.topografix.com/GPX/1/1/gpx.xsd" version="1.1" creator="VisuGPX - https://www.visugpx.com">
  <metadata>
    <name>83-cd-2011-18-12-Villecroze-La Tour Grimaldi</name>
    <desc><![CDATA[Villecroze-La Tour Grimaldi]]></desc>
  </metadata>
  <trk>
    <name><![CDATA[2011-12-18-Villecroze à pied modif tout]]></name>
    <trkseg>
      <trkpt lat="43.58362" lon="6.27541">
        <ele>357.49881</ele>
        <time>2011-12-18T07:51:59Z</time>
      </trkpt>
      <trkpt lat="43.58362" lon="6.27541">
        <ele>357.42981</ele>
        <time>2011-12-18T07:52:00Z</time>
      </trkpt>
      <trkpt lat="43.58361" lon="6.27541">
        <ele>357.100006</ele>
        <time>2011-12-18T07:52:47Z</time>
      </trkpt>
      <trkpt lat="43.58363" lon="6.2753">
        <ele>357.100006</ele>
        <time>2011-12-18T07:52:55Z</time>
      </trkpt>
      <trkpt lat="43.5836" lon="6.27519">
        <ele>357.600006</ele>
        <time>2011-12-18T07:53:04Z</time>
      </trkpt>
      <trkpt lat="43.5836" lon="6.27518">
        <ele>357.5</ele>
        <time>2011-12-18T07:53:05Z</time>
      </trkpt>
      <trkpt lat="43.58348" lon="6.27502">
        <ele>356.700012</ele>
        <time>2011-12-18T07:53:46Z</time>
      </trkpt>
      <trkpt lat="43.58341" lon="6.27509">
        <ele>359.700012</ele>
        <time>2011-12-18T07:56:38Z</time>
      </trkpt>
      <trkpt lat="43.5834" lon="6.2751">
        <ele>359.799988</ele>
        <time>2011-12-18T07:56:39Z</time>
      </trkpt>
      <trkpt lat="43.58332" lon="6.27499">
        <ele>360.899994</ele>
        <time>2011-12-18T07:57:07Z</time>
      </trkpt>
      <trkpt lat="43.58337" lon="6.27489">
        <ele>360.899994</ele>
        <time>2011-12-18T07:57:20Z</time>
      </trkpt>
      <trkpt lat="43.58335" lon="6.27477">
        <ele>361.100006</ele>
        <time>2011-12-18T07:57:30Z</time>
      </trkpt>
      <trkpt lat="43.58328" lon="6.2747">
        <ele>360.899994</ele>
        <time>2011-12-18T07:57:36Z</time>
      </trkpt>
      <trkpt lat="43.5832" lon="6.27468">
        <ele>360.799988</ele>
        <time>2011-12-18T07:57:41Z</time>
      </trkpt>
      <trkpt lat="43.58319" lon="6.27469">
        <ele>360.899994</ele>
        <time>2011-12-18T07:57:42Z</time>
      </trkpt>
      <trkpt lat="43.58306" lon="6.27479">
        <ele>360</ele>
        <time>2011-12-18T07:57:54Z</time>
      </trkpt>
      <trkpt lat="43.58299" lon="6.27488">
        <ele>359.200012</ele>
        <time>2011-12-18T07:58:01Z</time>
      </trkpt>
      <trkpt lat="43.58292" lon="6.27491">
        <ele>358.899994</ele>
        <time>2011-12-18T07:58:07Z</time>
      </trkpt>
      <trkpt lat="43.58285" lon="6.27497">
        <ele>358.5</ele>
        <time>2011-12-18T07:58:14Z</time>
      </trkpt>
      <trkpt lat="43.58277" lon="6.27502">
        <ele>357.799988</ele>
        <time>2011-12-18T07:58:20Z</time>
      </trkpt>
      <trkpt lat="43.58269" lon="6.27507">
        <ele>357.100006</ele>
        <time>2011-12-18T07:58:26Z</time>
      </trkpt>
      <trkpt lat="43.58261" lon="6.27512">
        <ele>356.100006</ele>
        <time>2011-12-18T07:58:33Z</time>
      </trkpt>
      <trkpt lat="43.58253" lon="6.27516">
        <ele>354.700012</ele>
        <time>2011-12-18T07:58:44Z</time>
      </trkpt>
      <trkpt lat="43.58252" lon="6.27516">
        <ele>354.5</ele>
        <time>2011-12-18T07:58:45Z</time>
      </trkpt>
      <trkpt lat="43.58239" lon="6.27513">
        <ele>353.600006</ele>
        <time>2011-12-18T07:58:51Z</time>
      </trkpt>
      <trkpt lat="43.58231" lon="6.27519">
        <ele>350.399994</ele>
        <time>2011-12-18T07:59:04Z</time>
      </trkpt>
      <trkpt lat="43.58227" lon="6.27508">
        <ele>348.700012</ele>
        <time>2011-12-18T07:59:25Z</time>
      </trkpt>
      <trkpt lat="43.58231" lon="6.27497">
        <ele>347.899994</ele>
        <time>2011-12-18T07:59:33Z</time>
      </trkpt>
      <trkpt lat="43.5823" lon="6.27486">
        <ele>347.600006</ele>
        <time>2011-12-18T07:59:39Z</time>
      </trkpt>
      <trkpt lat="43.58223" lon="6.27479">
        <ele>346.5</ele>
        <time>2011-12-18T07:59:44Z</time>
      </trkpt>
      <trkpt lat="43.58224" lon="6.27468">
        <ele>345.600006</ele>
        <time>2011-12-18T07:59:49Z</time>
      </trkpt>
      <trkpt lat="43.58223" lon="6.27466">
        <ele>345.5</ele>
        <time>2011-12-18T07:59:50Z</time>
      </trkpt>
      <trkpt lat="43.58222" lon="6.27445">
        <ele>344.299988</ele>
        <time>2011-12-18T08:00:01Z</time>
      </trkpt>
      <trkpt lat="43.58219" lon="6.27435">
        <ele>343.799988</ele>
        <time>2011-12-18T08:00:07Z</time>
      </trkpt>
      <trkpt lat="43.58218" lon="6.27422">
        <ele>343.600006</ele>
        <time>2011-12-18T08:00:13Z</time>
      </trkpt>
      <trkpt lat="43.58218" lon="6.2741">
        <ele>343.200012</ele>
        <time>2011-12-18T08:00:20Z</time>
      </trkpt>
      <trkpt lat="43.58216" lon="6.27398">
        <ele>342.299988</ele>
        <time>2011-12-18T08:00:27Z</time>
      </trkpt>
      <trkpt lat="43.58214" lon="6.27387">
        <ele>342.600006</ele>
        <time>2011-12-18T08:00:32Z</time>
      </trkpt>
      <trkpt lat="43.58213" lon="6.27376">
        <ele>342.100006</ele>
        <time>2011-12-18T08:00:37Z</time>
      </trkpt>
      <trkpt lat="43.5821" lon="6.27366">
        <ele>341.200012</ele>
        <time>2011-12-18T08:00:45Z</time>
      </trkpt>
      <trkpt lat="43.5821" lon="6.27356">
        <ele>341.399994</ele>
        <time>2011-12-18T08:00:50Z</time>
      </trkpt>
      <trkpt lat="43.5821" lon="6.27354">
        <ele>341.299988</ele>
        <time>2011-12-18T08:00:51Z</time>
      </trkpt>
      <trkpt lat="43.58204" lon="6.27336">
        <ele>341</ele>
        <time>2011-12-18T08:01:02Z</time>
      </trkpt>
      <trkpt lat="43.58197" lon="6.27327">
        <ele>340.399994</ele>
        <time>2011-12-18T08:01:09Z</time>
      </trkpt>
      <trkpt lat="43.58191" lon="6.2732">
        <ele>340</ele>
        <time>2011-12-18T08:01:14Z</time>
      </trkpt>
      <trkpt lat="43.58186" lon="6.2731">
        <ele>340.399994</ele>
        <time>2011-12-18T08:01:20Z</time>
      </trkpt>
      <trkpt lat="43.58181" lon="6.27301">
        <ele>339.200012</ele>
        <time>2011-12-18T08:01:27Z</time>
      </trkpt>
      <trkpt lat="43.58177" lon="6.27291">
        <ele>339</ele>
        <time>2011-12-18T08:01:33Z</time>
      </trkpt>
      <trkpt lat="43.58174" lon="6.27281">
        <ele>339.200012</ele>
        <time>2011-12-18T08:01:39Z</time>
      </trkpt>
      <trkpt lat="43.58171" lon="6.2727">
        <ele>339.700012</ele>
        <time>2011-12-18T08:01:46Z</time>
      </trkpt>
      <trkpt lat="43.5817" lon="6.27259">
        <ele>339.600006</ele>
        <time>2011-12-18T08:01:51Z</time>
      </trkpt>
      <trkpt lat="43.5817" lon="6.27257">
        <ele>339.700012</ele>
        <time>2011-12-18T08:01:52Z</time>
      </trkpt>
      <trkpt lat="43.58166" lon="6.27236">
        <ele>339.5</ele>
        <time>2011-12-18T08:02:03Z</time>
      </trkpt>
      <trkpt lat="43.58167" lon="6.27225">
        <ele>340.100006</ele>
        <time>2011-12-18T08:02:09Z</time>
      </trkpt>
      <trkpt lat="43.58166" lon="6.27214">
        <ele>339.799988</ele>
        <time>2011-12-18T08:02:14Z</time>
      </trkpt>
      <trkpt lat="43.58165" lon="6.27203">
        <ele>340.399994</ele>
        <time>2011-12-18T08:02:21Z</time>
      </trkpt>
      <trkpt lat="43.58165" lon="6.27192">
        <ele>340.600006</ele>
        <time>2011-12-18T08:02:28Z</time>
      </trkpt>
      <trkpt lat="43.58162" lon="6.27182">
        <ele>340.899994</ele>
        <time>2011-12-18T08:02:33Z</time>
      </trkpt>
      <trkpt lat="43.58158" lon="6.27172">
        <ele>341.100006</ele>
        <time>2011-12-18T08:02:41Z</time>
      </trkpt>
      <trkpt lat="43.58154" lon="6.27163">
        <ele>341.200012</ele>
        <time>2011-12-18T08:02:46Z</time>
      </trkpt>
      <trkpt lat="43.5815" lon="6.27153">
        <ele>341.200012</ele>
        <time>2011-12-18T08:02:52Z</time>
      </trkpt>
      <trkpt lat="43.5815" lon="6.27151">
        <ele>341.299988</ele>
        <time>2011-12-18T08:02:53Z</time>
      </trkpt>
      <trkpt lat="43.58143" lon="6.27134">
        <ele>340.899994</ele>
        <time>2011-12-18T08:03:02Z</time>
      </trkpt>
      <trkpt lat="43.58139" lon="6.27123">
        <ele>341.799988</ele>
        <time>2011-12-18T08:03:09Z</time>
      </trkpt>
      <trkpt lat="43.58136" lon="6.27112">
        <ele>340.700012</ele>
        <time>2011-12-18T08:03:17Z</time>
      </trkpt>
      <trkpt lat="43.58132" lon="6.27102">
        <ele>341.5</ele>
        <time>2011-12-18T08:03:23Z</time>
      </trkpt>
      <trkpt lat="43.58129" lon="6.27091">
        <ele>342.399994</ele>
        <time>2011-12-18T08:03:31Z</time>
      </trkpt>
      <trkpt lat="43.58125" lon="6.27081">
        <ele>341.899994</ele>
        <time>2011-12-18T08:03:39Z</time>
      </trkpt>
      <trkpt lat="43.58122" lon="6.27069">
        <ele>342.399994</ele>
        <time>2011-12-18T08:03:49Z</time>
      </trkpt>
      <trkpt lat="43.58118" lon="6.27059">
        <ele>343.799988</ele>
        <time>2011-12-18T08:03:57Z</time>
      </trkpt>
      <trkpt lat="43.58118" lon="6.27057">
        <ele>343.799988</ele>
        <time>2011-12-18T08:03:58Z</time>
      </trkpt>
      <trkpt lat="43.58115" lon="6.27036">
        <ele>344.200012</ele>
        <time>2011-12-18T08:04:13Z</time>
      </trkpt>
      <trkpt lat="43.58113" lon="6.27025">
        <ele>346.299988</ele>
        <time>2011-12-18T08:04:25Z</time>
      </trkpt>
      <trkpt lat="43.58105" lon="6.27019">
        <ele>345.700012</ele>
        <time>2011-12-18T08:04:32Z</time>
      </trkpt>
      <trkpt lat="43.58097" lon="6.27013">
        <ele>346.700012</ele>
        <time>2011-12-18T08:04:43Z</time>
      </trkpt>
      <trkpt lat="43.58098" lon="6.27002">
        <ele>346.700012</ele>
        <time>2011-12-18T08:04:51Z</time>
      </trkpt>
      <trkpt lat="43.58093" lon="6.26992">
        <ele>344.299988</ele>
        <time>2011-12-18T08:06:24Z</time>
      </trkpt>
      <trkpt lat="43.58092" lon="6.26992">
        <ele>344.5</ele>
        <time>2011-12-18T08:06:25Z</time>
      </trkpt>
      <trkpt lat="43.58088" lon="6.26969">
        <ele>340.899994</ele>
        <time>2011-12-18T08:06:55Z</time>
      </trkpt>
      <trkpt lat="43.58086" lon="6.26958">
        <ele>339.899994</ele>
        <time>2011-12-18T08:07:07Z</time>
      </trkpt>
      <trkpt lat="43.58086" lon="6.26946">
        <ele>337.899994</ele>
        <time>2011-12-18T08:07:16Z</time>
      </trkpt>
      <trkpt lat="43.58083" lon="6.26936">
        <ele>337.200012</ele>
        <time>2011-12-18T08:07:23Z</time>
      </trkpt>
      <trkpt lat="43.58079" lon="6.26925">
        <ele>335.399994</ele>
        <time>2011-12-18T08:07:30Z</time>
      </trkpt>
      <trkpt lat="43.58079" lon="6.26923">
        <ele>335.100006</ele>
        <time>2011-12-18T08:07:31Z</time>
      </trkpt>
      <trkpt lat="43.58075" lon="6.26902">
        <ele>333.5</ele>
        <time>2011-12-18T08:07:46Z</time>
      </trkpt>
      <trkpt lat="43.58072" lon="6.26891">
        <ele>333.200012</ele>
        <time>2011-12-18T08:07:52Z</time>
      </trkpt>
      <trkpt lat="43.58068" lon="6.2688">
        <ele>332.399994</ele>
        <time>2011-12-18T08:07:59Z</time>
      </trkpt>
      <trkpt lat="43.58065" lon="6.26869">
        <ele>331.299988</ele>
        <time>2011-12-18T08:08:07Z</time>
      </trkpt>
      <trkpt lat="43.58061" lon="6.26859">
        <ele>330.600006</ele>
        <time>2011-12-18T08:08:16Z</time>
      </trkpt>
      <trkpt lat="43.58057" lon="6.26848">
        <ele>330</ele>
        <time>2011-12-18T08:08:23Z</time>
      </trkpt>
      <trkpt lat="43.58052" lon="6.2684">
        <ele>328.799988</ele>
        <time>2011-12-18T08:08:30Z</time>
      </trkpt>
      <trkpt lat="43.58047" lon="6.26831">
        <ele>327.700012</ele>
        <time>2011-12-18T08:08:36Z</time>
      </trkpt>
      <trkpt lat="43.58047" lon="6.26829">
        <ele>327.799988</ele>
        <time>2011-12-18T08:08:37Z</time>
      </trkpt>
      <trkpt lat="43.58043" lon="6.26809">
        <ele>326</ele>
        <time>2011-12-18T08:08:50Z</time>
      </trkpt>
      <trkpt lat="43.58044" lon="6.26798">
        <ele>324.5</ele>
        <time>2011-12-18T08:08:57Z</time>
      </trkpt>
      <trkpt lat="43.5804" lon="6.26787">
        <ele>323.5</ele>
        <time>2011-12-18T08:09:03Z</time>
      </trkpt>
      <trkpt lat="43.58039" lon="6.26776">
        <ele>322.799988</ele>
        <time>2011-12-18T08:09:11Z</time>
      </trkpt>
      <trkpt lat="43.58036" lon="6.26764">
        <ele>322.700012</ele>
        <time>2011-12-18T08:09:17Z</time>
      </trkpt>
      <trkpt lat="43.58039" lon="6.26755">
        <ele>322</ele>
        <time>2011-12-18T08:09:24Z</time>
      </trkpt>
      <trkpt lat="43.5804" lon="6.26744">
        <ele>321.399994</ele>
        <time>2011-12-18T08:09:30Z</time>
      </trkpt>
      <trkpt lat="43.58043" lon="6.26733">
        <ele>321.5</ele>
        <time>2011-12-18T08:09:36Z</time>
      </trkpt>
      <trkpt lat="43.58046" lon="6.26722">
        <ele>321.100006</ele>
        <time>2011-12-18T08:09:41Z</time>
      </trkpt>
      <trkpt lat="43.58047" lon="6.2672">
        <ele>321.100006</ele>
        <time>2011-12-18T08:09:42Z</time>
      </trkpt>
      <trkpt lat="43.58053" lon="6.26701">
        <ele>320.100006</ele>
        <time>2011-12-18T08:09:57Z</time>
      </trkpt>
      <trkpt lat="43.58054" lon="6.26689">
        <ele>320.600006</ele>
        <time>2011-12-18T08:10:03Z</time>
      </trkpt>
      <trkpt lat="43.58052" lon="6.26678">
        <ele>321.399994</ele>
        <time>2011-12-18T08:10:10Z</time>
      </trkpt>
      <trkpt lat="43.58051" lon="6.26667">
        <ele>321.5</ele>
        <time>2011-12-18T08:10:15Z</time>
      </trkpt>
      <trkpt lat="43.5805" lon="6.26657">
        <ele>321.899994</ele>
        <time>2011-12-18T08:10:21Z</time>
      </trkpt>
      <trkpt lat="43.58048" lon="6.26647">
        <ele>322.5</ele>
        <time>2011-12-18T08:10:27Z</time>
      </trkpt>
      <trkpt lat="43.58048" lon="6.26636">
        <ele>323</ele>
        <time>2011-12-18T08:10:34Z</time>
      </trkpt>
      <trkpt lat="43.5805" lon="6.26624">
        <ele>323.299988</ele>
        <time>2011-12-18T08:10:41Z</time>
      </trkpt>
      <trkpt lat="43.58049" lon="6.26612">
        <ele>323.200012</ele>
        <time>2011-12-18T08:10:49Z</time>
      </trkpt>
      <trkpt lat="43.58049" lon="6.2661">
        <ele>323.299988</ele>
        <time>2011-12-18T08:10:50Z</time>
      </trkpt>
      <trkpt lat="43.58046" lon="6.26589">
        <ele>323.600006</ele>
        <time>2011-12-18T08:11:22Z</time>
      </trkpt>
      <trkpt lat="43.58051" lon="6.26579">
        <ele>324</ele>
        <time>2011-12-18T08:11:30Z</time>
      </trkpt>
      <trkpt lat="43.58058" lon="6.26571">
        <ele>324.700012</ele>
        <time>2011-12-18T08:11:39Z</time>
      </trkpt>
      <trkpt lat="43.58066" lon="6.2657">
        <ele>326.799988</ele>
        <time>2011-12-18T08:11:56Z</time>
      </trkpt>
      <trkpt lat="43.58067" lon="6.2657">
        <ele>327</ele>
        <time>2011-12-18T08:11:57Z</time>
      </trkpt>
      <trkpt lat="43.58081" lon="6.26567">
        <ele>328.600006</ele>
        <time>2011-12-18T08:12:17Z</time>
      </trkpt>
      <trkpt lat="43.58089" lon="6.26561">
        <ele>329.5</ele>
        <time>2011-12-18T08:12:23Z</time>
      </trkpt>
      <trkpt lat="43.58097" lon="6.26559">
        <ele>331.5</ele>
        <time>2011-12-18T08:12:33Z</time>
      </trkpt>
      <trkpt lat="43.58106" lon="6.26559">
        <ele>333.700012</ele>
        <time>2011-12-18T08:12:47Z</time>
      </trkpt>
      <trkpt lat="43.58115" lon="6.26557">
        <ele>335.100006</ele>
        <time>2011-12-18T08:13:00Z</time>
      </trkpt>
      <trkpt lat="43.58116" lon="6.26557">
        <ele>335.299988</ele>
        <time>2011-12-18T08:13:01Z</time>
      </trkpt>
      <trkpt lat="43.58131" lon="6.2656">
        <ele>339.700012</ele>
        <time>2011-12-18T08:13:28Z</time>
      </trkpt>
      <trkpt lat="43.58137" lon="6.26567">
        <ele>342.100006</ele>
        <time>2011-12-18T08:13:40Z</time>
      </trkpt>
      <trkpt lat="43.58143" lon="6.26575">
        <ele>343.899994</ele>
        <time>2011-12-18T08:13:53Z</time>
      </trkpt>
      <trkpt lat="43.58151" lon="6.26579">
        <ele>344.299988</ele>
        <time>2011-12-18T08:14:02Z</time>
      </trkpt>
      <trkpt lat="43.58152" lon="6.2658">
        <ele>344.399994</ele>
        <time>2011-12-18T08:14:03Z</time>
      </trkpt>
      <trkpt lat="43.58168" lon="6.26585">
        <ele>346.899994</ele>
        <time>2011-12-18T08:14:26Z</time>
      </trkpt>
      <trkpt lat="43.58176" lon="6.26586">
        <ele>349.299988</ele>
        <time>2011-12-18T08:14:41Z</time>
      </trkpt>
      <trkpt lat="43.58184" lon="6.26582">
        <ele>350.100006</ele>
        <time>2011-12-18T08:14:51Z</time>
      </trkpt>
      <trkpt lat="43.5819" lon="6.26573">
        <ele>349.5</ele>
        <time>2011-12-18T08:15:01Z</time>
      </trkpt>
      <trkpt lat="43.58196" lon="6.26565">
        <ele>350.899994</ele>
        <time>2011-12-18T08:15:14Z</time>
      </trkpt>
      <trkpt lat="43.58197" lon="6.26565">
        <ele>351.200012</ele>
        <time>2011-12-18T08:15:15Z</time>
      </trkpt>
      <trkpt lat="43.58208" lon="6.26549">
        <ele>355</ele>
        <time>2011-12-18T08:15:43Z</time>
      </trkpt>
      <trkpt lat="43.58214" lon="6.26541">
        <ele>355.5</ele>
        <time>2011-12-18T08:15:51Z</time>
      </trkpt>
      <trkpt lat="43.58217" lon="6.26529">
        <ele>355.799988</ele>
        <time>2011-12-18T08:16:03Z</time>
      </trkpt>
      <trkpt lat="43.5822" lon="6.26519">
        <ele>357.299988</ele>
        <time>2011-12-18T08:16:14Z</time>
      </trkpt>
      <trkpt lat="43.58224" lon="6.26509">
        <ele>358.299988</ele>
        <time>2011-12-18T08:16:22Z</time>
      </trkpt>
      <trkpt lat="43.58224" lon="6.26508">
        <ele>358.200012</ele>
        <time>2011-12-18T08:16:23Z</time>
      </trkpt>
      <trkpt lat="43.58227" lon="6.26486">
        <ele>360.299988</ele>
        <time>2011-12-18T08:16:46Z</time>
      </trkpt>
      <trkpt lat="43.58226" lon="6.26474">
        <ele>363.5</ele>
        <time>2011-12-18T08:17:01Z</time>
      </trkpt>
      <trkpt lat="43.58222" lon="6.26463">
        <ele>364.100006</ele>
        <time>2011-12-18T08:17:13Z</time>
      </trkpt>
      <trkpt lat="43.58218" lon="6.26453">
        <ele>364</ele>
        <time>2011-12-18T08:17:24Z</time>
      </trkpt>
      <trkpt lat="43.58218" lon="6.26451">
        <ele>364</ele>
        <time>2011-12-18T08:17:25Z</time>
      </trkpt>
      <trkpt lat="43.58222" lon="6.26432">
        <ele>365.899994</ele>
        <time>2011-12-18T08:17:57Z</time>
      </trkpt>
      <trkpt lat="43.58225" lon="6.26422">
        <ele>366.299988</ele>
        <time>2011-12-18T08:18:07Z</time>
      </trkpt>
      <trkpt lat="43.58225" lon="6.26409">
        <ele>366.600006</ele>
        <time>2011-12-18T08:18:15Z</time>
      </trkpt>
      <trkpt lat="43.58221" lon="6.26398">
        <ele>367.100006</ele>
        <time>2011-12-18T08:18:23Z</time>
      </trkpt>
      <trkpt lat="43.58221" lon="6.26386">
        <ele>368.100006</ele>
        <time>2011-12-18T08:18:35Z</time>
      </trkpt>
      <trkpt lat="43.58221" lon="6.26385">
        <ele>368.200012</ele>
        <time>2011-12-18T08:18:36Z</time>
      </trkpt>
      <trkpt lat="43.58224" lon="6.26363">
        <ele>368.799988</ele>
        <time>2011-12-18T08:18:52Z</time>
      </trkpt>
      <trkpt lat="43.58225" lon="6.26352">
        <ele>370.399994</ele>
        <time>2011-12-18T08:19:01Z</time>
      </trkpt>
      <trkpt lat="43.58228" lon="6.26341">
        <ele>370.100006</ele>
        <time>2011-12-18T08:19:11Z</time>
      </trkpt>
      <trkpt lat="43.58234" lon="6.26331">
        <ele>370.700012</ele>
        <time>2011-12-18T08:19:23Z</time>
      </trkpt>
      <trkpt lat="43.58233" lon="6.26319">
        <ele>373.5</ele>
        <time>2011-12-18T08:19:35Z</time>
      </trkpt>
      <trkpt lat="43.58227" lon="6.26311">
        <ele>375</ele>
        <time>2011-12-18T08:19:47Z</time>
      </trkpt>
      <trkpt lat="43.58226" lon="6.2631">
        <ele>375.299988</ele>
        <time>2011-12-18T08:19:48Z</time>
      </trkpt>
      <trkpt lat="43.58227" lon="6.26287">
        <ele>377.200012</ele>
        <time>2011-12-18T08:20:17Z</time>
      </trkpt>
      <trkpt lat="43.58229" lon="6.26275">
        <ele>380.299988</ele>
        <time>2011-12-18T08:20:36Z</time>
      </trkpt>
      <trkpt lat="43.58232" lon="6.26264">
        <ele>380.799988</ele>
        <time>2011-12-18T08:20:45Z</time>
      </trkpt>
      <trkpt lat="43.58234" lon="6.26252">
        <ele>382.200012</ele>
        <time>2011-12-18T08:20:55Z</time>
      </trkpt>
      <trkpt lat="43.58234" lon="6.26251">
        <ele>382</ele>
        <time>2011-12-18T08:20:56Z</time>
      </trkpt>
      <trkpt lat="43.58229" lon="6.26229">
        <ele>382.100006</ele>
        <time>2011-12-18T08:21:14Z</time>
      </trkpt>
      <trkpt lat="43.58228" lon="6.26217">
        <ele>381.100006</ele>
        <time>2011-12-18T08:21:27Z</time>
      </trkpt>
      <trkpt lat="43.58226" lon="6.26206">
        <ele>379.799988</ele>
        <time>2011-12-18T08:21:36Z</time>
      </trkpt>
      <trkpt lat="43.58224" lon="6.26194">
        <ele>379</ele>
        <time>2011-12-18T08:21:45Z</time>
      </trkpt>
      <trkpt lat="43.5822" lon="6.26183">
        <ele>378.600006</ele>
        <time>2011-12-18T08:21:56Z</time>
      </trkpt>
      <trkpt lat="43.5822" lon="6.26181">
        <ele>378.600006</ele>
        <time>2011-12-18T08:21:57Z</time>
      </trkpt>
      <trkpt lat="43.58212" lon="6.26162">
        <ele>376.5</ele>
        <time>2011-12-18T08:22:15Z</time>
      </trkpt>
      <trkpt lat="43.5821" lon="6.2615">
        <ele>376.5</ele>
        <time>2011-12-18T08:22:25Z</time>
      </trkpt>
      <trkpt lat="43.58209" lon="6.26139">
        <ele>376.299988</ele>
        <time>2011-12-18T08:22:34Z</time>
      </trkpt>
      <trkpt lat="43.58214" lon="6.26128">
        <ele>375.399994</ele>
        <time>2011-12-18T08:22:46Z</time>
      </trkpt>
      <trkpt lat="43.58213" lon="6.26116">
        <ele>375.600006</ele>
        <time>2011-12-18T08:22:56Z</time>
      </trkpt>
      <trkpt lat="43.58212" lon="6.26104">
        <ele>374.5</ele>
        <time>2011-12-18T08:23:06Z</time>
      </trkpt>
      <trkpt lat="43.58211" lon="6.26103">
        <ele>374.399994</ele>
        <time>2011-12-18T08:23:07Z</time>
      </trkpt>
      <trkpt lat="43.58205" lon="6.26084">
        <ele>376</ele>
        <time>2011-12-18T08:23:23Z</time>
      </trkpt>
      <trkpt lat="43.58202" lon="6.26073">
        <ele>375.200012</ele>
        <time>2011-12-18T08:23:32Z</time>
      </trkpt>
      <trkpt lat="43.58197" lon="6.26062">
        <ele>374.600006</ele>
        <time>2011-12-18T08:23:40Z</time>
      </trkpt>
      <trkpt lat="43.58195" lon="6.26051">
        <ele>373.100006</ele>
        <time>2011-12-18T08:23:49Z</time>
      </trkpt>
      <trkpt lat="43.58193" lon="6.2604">
        <ele>373</ele>
        <time>2011-12-18T08:23:57Z</time>
      </trkpt>
      <trkpt lat="43.58192" lon="6.26028">
        <ele>373.100006</ele>
        <time>2011-12-18T08:24:06Z</time>
      </trkpt>
      <trkpt lat="43.58194" lon="6.26016">
        <ele>372.5</ele>
        <time>2011-12-18T08:24:14Z</time>
      </trkpt>
      <trkpt lat="43.58194" lon="6.26015">
        <ele>372.5</ele>
        <time>2011-12-18T08:24:15Z</time>
      </trkpt>
      <trkpt lat="43.58197" lon="6.25993">
        <ele>371.700012</ele>
        <time>2011-12-18T08:24:31Z</time>
      </trkpt>
      <trkpt lat="43.58201" lon="6.25983">
        <ele>371.600006</ele>
        <time>2011-12-18T08:24:39Z</time>
      </trkpt>
      <trkpt lat="43.58202" lon="6.25971">
        <ele>372.700012</ele>
        <time>2011-12-18T08:24:51Z</time>
      </trkpt>
      <trkpt lat="43.58201" lon="6.25959">
        <ele>371.600006</ele>
        <time>2011-12-18T08:25:00Z</time>
      </trkpt>
      <trkpt lat="43.58201" lon="6.25947">
        <ele>371.600006</ele>
        <time>2011-12-18T08:25:11Z</time>
      </trkpt>
      <trkpt lat="43.58202" lon="6.25936">
        <ele>370.899994</ele>
        <time>2011-12-18T08:25:21Z</time>
      </trkpt>
      <trkpt lat="43.58201" lon="6.25934">
        <ele>370.899994</ele>
        <time>2011-12-18T08:25:22Z</time>
      </trkpt>
      <trkpt lat="43.58206" lon="6.25913">
        <ele>371.200012</ele>
        <time>2011-12-18T08:25:37Z</time>
      </trkpt>
      <trkpt lat="43.58207" lon="6.25902">
        <ele>370.600006</ele>
        <time>2011-12-18T08:25:44Z</time>
      </trkpt>
      <trkpt lat="43.58206" lon="6.2589">
        <ele>368.899994</ele>
        <time>2011-12-18T08:25:52Z</time>
      </trkpt>
      <trkpt lat="43.58205" lon="6.25879">
        <ele>368.100006</ele>
        <time>2011-12-18T08:26:01Z</time>
      </trkpt>
      <trkpt lat="43.58201" lon="6.25868">
        <ele>368</ele>
        <time>2011-12-18T08:26:10Z</time>
      </trkpt>
      <trkpt lat="43.58199" lon="6.25857">
        <ele>368.899994</ele>
        <time>2011-12-18T08:26:16Z</time>
      </trkpt>
      <trkpt lat="43.58194" lon="6.25848">
        <ele>369.600006</ele>
        <time>2011-12-18T08:26:23Z</time>
      </trkpt>
      <trkpt lat="43.58193" lon="6.25846">
        <ele>369.5</ele>
        <time>2011-12-18T08:26:24Z</time>
      </trkpt>
      <trkpt lat="43.58181" lon="6.25833">
        <ele>371</ele>
        <time>2011-12-18T08:26:44Z</time>
      </trkpt>
      <trkpt lat="43.58177" lon="6.25822">
        <ele>372</ele>
        <time>2011-12-18T08:26:55Z</time>
      </trkpt>
      <trkpt lat="43.58174" lon="6.25811">
        <ele>372.200012</ele>
        <time>2011-12-18T08:27:06Z</time>
      </trkpt>
      <trkpt lat="43.58177" lon="6.258">
        <ele>374.399994</ele>
        <time>2011-12-18T08:27:18Z</time>
      </trkpt>
      <trkpt lat="43.58184" lon="6.25797">
        <ele>375.200012</ele>
        <time>2011-12-18T08:27:37Z</time>
      </trkpt>
      <trkpt lat="43.58185" lon="6.25796">
        <ele>375.299988</ele>
        <time>2011-12-18T08:27:38Z</time>
      </trkpt>
      <trkpt lat="43.58198" lon="6.25785">
        <ele>378.5</ele>
        <time>2011-12-18T08:28:01Z</time>
      </trkpt>
      <trkpt lat="43.58202" lon="6.25774">
        <ele>379.299988</ele>
        <time>2011-12-18T08:28:09Z</time>
      </trkpt>
      <trkpt lat="43.58208" lon="6.25765">
        <ele>380.100006</ele>
        <time>2011-12-18T08:28:20Z</time>
      </trkpt>
      <trkpt lat="43.58211" lon="6.25754">
        <ele>380.700012</ele>
        <time>2011-12-18T08:28:31Z</time>
      </trkpt>
      <trkpt lat="43.58213" lon="6.25743">
        <ele>381.600006</ele>
        <time>2011-12-18T08:28:39Z</time>
      </trkpt>
      <trkpt lat="43.58213" lon="6.25742">
        <ele>381.799988</ele>
        <time>2011-12-18T08:28:40Z</time>
      </trkpt>
      <trkpt lat="43.58205" lon="6.25723">
        <ele>384.200012</ele>
        <time>2011-12-18T08:29:00Z</time>
      </trkpt>
      <trkpt lat="43.58201" lon="6.25713">
        <ele>383.700012</ele>
        <time>2011-12-18T08:29:06Z</time>
      </trkpt>
      <trkpt lat="43.582" lon="6.25701">
        <ele>383</ele>
        <time>2011-12-18T08:29:15Z</time>
      </trkpt>
      <trkpt lat="43.58195" lon="6.25691">
        <ele>382.799988</ele>
        <time>2011-12-18T08:29:22Z</time>
      </trkpt>
      <trkpt lat="43.58194" lon="6.25679">
        <ele>381.799988</ele>
        <time>2011-12-18T08:29:31Z</time>
      </trkpt>
      <trkpt lat="43.58194" lon="6.25667">
        <ele>382</ele>
        <time>2011-12-18T08:29:40Z</time>
      </trkpt>
      <trkpt lat="43.58193" lon="6.25666">
        <ele>382.100006</ele>
        <time>2011-12-18T08:29:41Z</time>
      </trkpt>
      <trkpt lat="43.58199" lon="6.25645">
        <ele>381.399994</ele>
        <time>2011-12-18T08:30:02Z</time>
      </trkpt>
      <trkpt lat="43.58203" lon="6.25634">
        <ele>381.899994</ele>
        <time>2011-12-18T08:30:11Z</time>
      </trkpt>
      <trkpt lat="43.58205" lon="6.25623">
        <ele>383.100006</ele>
        <time>2011-12-18T08:30:21Z</time>
      </trkpt>
      <trkpt lat="43.5821" lon="6.25613">
        <ele>384.299988</ele>
        <time>2011-12-18T08:30:29Z</time>
      </trkpt>
      <trkpt lat="43.58216" lon="6.25605">
        <ele>385</ele>
        <time>2011-12-18T08:30:42Z</time>
      </trkpt>
      <trkpt lat="43.58217" lon="6.25605">
        <ele>385</ele>
        <time>2011-12-18T08:30:43Z</time>
      </trkpt>
      <trkpt lat="43.58227" lon="6.25587">
        <ele>389.799988</ele>
        <time>2011-12-18T08:31:14Z</time>
      </trkpt>
      <trkpt lat="43.5823" lon="6.25577">
        <ele>391.5</ele>
        <time>2011-12-18T08:31:29Z</time>
      </trkpt>
      <trkpt lat="43.58233" lon="6.25565">
        <ele>392.700012</ele>
        <time>2011-12-18T08:31:37Z</time>
      </trkpt>
      <trkpt lat="43.58235" lon="6.25553">
        <ele>394.200012</ele>
        <time>2011-12-18T08:31:47Z</time>
      </trkpt>
      <trkpt lat="43.58235" lon="6.25552">
        <ele>394.299988</ele>
        <time>2011-12-18T08:31:48Z</time>
      </trkpt>
      <trkpt lat="43.58231" lon="6.25531">
        <ele>395.5</ele>
        <time>2011-12-18T08:32:07Z</time>
      </trkpt>
      <trkpt lat="43.58231" lon="6.2552">
        <ele>395.5</ele>
        <time>2011-12-18T08:32:15Z</time>
      </trkpt>
      <trkpt lat="43.58229" lon="6.25508">
        <ele>395.100006</ele>
        <time>2011-12-18T08:32:23Z</time>
      </trkpt>
      <trkpt lat="43.58225" lon="6.25498">
        <ele>393.899994</ele>
        <time>2011-12-18T08:32:32Z</time>
      </trkpt>
      <trkpt lat="43.58225" lon="6.25486">
        <ele>394.799988</ele>
        <time>2011-12-18T08:32:40Z</time>
      </trkpt>
      <trkpt lat="43.5822" lon="6.25476">
        <ele>395.700012</ele>
        <time>2011-12-18T08:32:50Z</time>
      </trkpt>
      <trkpt lat="43.58219" lon="6.25475">
        <ele>395.700012</ele>
        <time>2011-12-18T08:32:51Z</time>
      </trkpt>
      <trkpt lat="43.58206" lon="6.25465">
        <ele>394.799988</ele>
        <time>2011-12-18T08:33:05Z</time>
      </trkpt>
      <trkpt lat="43.58206" lon="6.25452">
        <ele>394.899994</ele>
        <time>2011-12-18T08:33:27Z</time>
      </trkpt>
      <trkpt lat="43.58203" lon="6.25442">
        <ele>396.200012</ele>
        <time>2011-12-18T08:36:56Z</time>
      </trkpt>
      <trkpt lat="43.58202" lon="6.25441">
        <ele>396.200012</ele>
        <time>2011-12-18T08:36:57Z</time>
      </trkpt>
      <trkpt lat="43.58201" lon="6.25424">
        <ele>398</ele>
        <time>2011-12-18T08:37:30Z</time>
      </trkpt>
      <trkpt lat="43.58206" lon="6.25414">
        <ele>399.399994</ele>
        <time>2011-12-18T08:37:50Z</time>
      </trkpt>
      <trkpt lat="43.58214" lon="6.25408">
        <ele>402</ele>
        <time>2011-12-18T08:38:09Z</time>
      </trkpt>
      <trkpt lat="43.58214" lon="6.25407">
        <ele>402.100006</ele>
        <time>2011-12-18T08:38:10Z</time>
      </trkpt>
      <trkpt lat="43.58219" lon="6.25385">
        <ele>407.600006</ele>
        <time>2011-12-18T08:38:50Z</time>
      </trkpt>
      <trkpt lat="43.58222" lon="6.25374">
        <ele>409.200012</ele>
        <time>2011-12-18T08:39:04Z</time>
      </trkpt>
      <trkpt lat="43.58226" lon="6.25364">
        <ele>410.799988</ele>
        <time>2011-12-18T08:39:18Z</time>
      </trkpt>
      <trkpt lat="43.58227" lon="6.25363">
        <ele>411.100006</ele>
        <time>2011-12-18T08:39:19Z</time>
      </trkpt>
      <trkpt lat="43.5824" lon="6.25348">
        <ele>415.299988</ele>
        <time>2011-12-18T08:39:46Z</time>
      </trkpt>
      <trkpt lat="43.58244" lon="6.25337">
        <ele>416.5</ele>
        <time>2011-12-18T08:40:01Z</time>
      </trkpt>
      <trkpt lat="43.5825" lon="6.25329">
        <ele>417.799988</ele>
        <time>2011-12-18T08:40:16Z</time>
      </trkpt>
      <trkpt lat="43.58255" lon="6.25318">
        <ele>419.200012</ele>
        <time>2011-12-18T08:40:29Z</time>
      </trkpt>
      <trkpt lat="43.58255" lon="6.25317">
        <ele>419.200012</ele>
        <time>2011-12-18T08:40:30Z</time>
      </trkpt>
      <trkpt lat="43.58266" lon="6.253">
        <ele>422.299988</ele>
        <time>2011-12-18T08:41:01Z</time>
      </trkpt>
      <trkpt lat="43.58269" lon="6.2529">
        <ele>423.700012</ele>
        <time>2011-12-18T08:41:14Z</time>
      </trkpt>
      <trkpt lat="43.58275" lon="6.25281">
        <ele>426.799988</ele>
        <time>2011-12-18T08:41:27Z</time>
      </trkpt>
      <trkpt lat="43.5828" lon="6.25272">
        <ele>428</ele>
        <time>2011-12-18T08:41:45Z</time>
      </trkpt>
      <trkpt lat="43.58281" lon="6.25272">
        <ele>428.200012</ele>
        <time>2011-12-18T08:41:46Z</time>
      </trkpt>
      <trkpt lat="43.58296" lon="6.25264">
        <ele>433.200012</ele>
        <time>2011-12-18T08:42:18Z</time>
      </trkpt>
      <trkpt lat="43.58304" lon="6.25257">
        <ele>436.100006</ele>
        <time>2011-12-18T08:42:34Z</time>
      </trkpt>
      <trkpt lat="43.58312" lon="6.2526">
        <ele>439.600006</ele>
        <time>2011-12-18T08:42:57Z</time>
      </trkpt>
      <trkpt lat="43.58312" lon="6.25261">
        <ele>439.700012</ele>
        <time>2011-12-18T08:42:58Z</time>
      </trkpt>
      <trkpt lat="43.58328" lon="6.25256">
        <ele>441.200012</ele>
        <time>2011-12-18T08:43:18Z</time>
      </trkpt>
      <trkpt lat="43.58336" lon="6.2525">
        <ele>442.5</ele>
        <time>2011-12-18T08:43:30Z</time>
      </trkpt>
      <trkpt lat="43.58345" lon="6.25247">
        <ele>444.200012</ele>
        <time>2011-12-18T08:43:48Z</time>
      </trkpt>
      <trkpt lat="43.58353" lon="6.25244">
        <ele>445.100006</ele>
        <time>2011-12-18T08:44:02Z</time>
      </trkpt>
      <trkpt lat="43.58353" lon="6.25244">
        <ele>445.299988</ele>
        <time>2011-12-18T08:44:03Z</time>
      </trkpt>
      <trkpt lat="43.58369" lon="6.25237">
        <ele>448.399994</ele>
        <time>2011-12-18T08:44:22Z</time>
      </trkpt>
      <trkpt lat="43.58377" lon="6.25232">
        <ele>450.899994</ele>
        <time>2011-12-18T08:44:36Z</time>
      </trkpt>
      <trkpt lat="43.58386" lon="6.25234">
        <ele>451.899994</ele>
        <time>2011-12-18T08:44:47Z</time>
      </trkpt>
      <trkpt lat="43.58394" lon="6.25237">
        <ele>454.299988</ele>
        <time>2011-12-18T08:45:00Z</time>
      </trkpt>
      <trkpt lat="43.58401" lon="6.25244">
        <ele>455.100006</ele>
        <time>2011-12-18T08:45:11Z</time>
      </trkpt>
      <trkpt lat="43.58402" lon="6.25244">
        <ele>455.299988</ele>
        <time>2011-12-18T08:45:12Z</time>
      </trkpt>
      <trkpt lat="43.58417" lon="6.25245">
        <ele>458.799988</ele>
        <time>2011-12-18T08:45:37Z</time>
      </trkpt>
      <trkpt lat="43.58425" lon="6.2525">
        <ele>460.299988</ele>
        <time>2011-12-18T08:45:46Z</time>
      </trkpt>
      <trkpt lat="43.58434" lon="6.25249">
        <ele>460.799988</ele>
        <time>2011-12-18T08:45:59Z</time>
      </trkpt>
      <trkpt lat="43.58442" lon="6.25247">
        <ele>462.5</ele>
        <time>2011-12-18T08:46:11Z</time>
      </trkpt>
      <trkpt lat="43.58451" lon="6.25244">
        <ele>463.899994</ele>
        <time>2011-12-18T08:46:22Z</time>
      </trkpt>
      <trkpt lat="43.58451" lon="6.25244">
        <ele>464.100006</ele>
        <time>2011-12-18T08:46:23Z</time>
      </trkpt>
      <trkpt lat="43.58468" lon="6.25242">
        <ele>466.5</ele>
        <time>2011-12-18T08:46:45Z</time>
      </trkpt>
      <trkpt lat="43.58474" lon="6.25234">
        <ele>466.700012</ele>
        <time>2011-12-18T08:46:54Z</time>
      </trkpt>
      <trkpt lat="43.58481" lon="6.25227">
        <ele>466.100006</ele>
        <time>2011-12-18T08:47:01Z</time>
      </trkpt>
      <trkpt lat="43.58489" lon="6.25226">
        <ele>466.799988</ele>
        <time>2011-12-18T08:47:12Z</time>
      </trkpt>
      <trkpt lat="43.58498" lon="6.25228">
        <ele>466.399994</ele>
        <time>2011-12-18T08:47:24Z</time>
      </trkpt>
      <trkpt lat="43.58499" lon="6.25228">
        <ele>466.600006</ele>
        <time>2011-12-18T08:47:25Z</time>
      </trkpt>
      <trkpt lat="43.58514" lon="6.2523">
        <ele>464.799988</ele>
        <time>2011-12-18T08:47:52Z</time>
      </trkpt>
      <trkpt lat="43.5852" lon="6.25239">
        <ele>462.799988</ele>
        <time>2011-12-18T08:49:21Z</time>
      </trkpt>
      <trkpt lat="43.58521" lon="6.2524">
        <ele>462.799988</ele>
        <time>2011-12-18T08:49:22Z</time>
      </trkpt>
      <trkpt lat="43.58527" lon="6.25261">
        <ele>460.600006</ele>
        <time>2011-12-18T08:49:40Z</time>
      </trkpt>
      <trkpt lat="43.58528" lon="6.25273">
        <ele>459.299988</ele>
        <time>2011-12-18T08:49:49Z</time>
      </trkpt>
      <trkpt lat="43.58528" lon="6.25284">
        <ele>458.700012</ele>
        <time>2011-12-18T08:49:57Z</time>
      </trkpt>
      <trkpt lat="43.5853" lon="6.25295">
        <ele>458.5</ele>
        <time>2011-12-18T08:50:05Z</time>
      </trkpt>
      <trkpt lat="43.58533" lon="6.25305">
        <ele>458.299988</ele>
        <time>2011-12-18T08:50:11Z</time>
      </trkpt>
      <trkpt lat="43.58536" lon="6.25316">
        <ele>458.5</ele>
        <time>2011-12-18T08:50:21Z</time>
      </trkpt>
      <trkpt lat="43.5854" lon="6.25326">
        <ele>459.700012</ele>
        <time>2011-12-18T08:50:31Z</time>
      </trkpt>
      <trkpt lat="43.58541" lon="6.25327">
        <ele>459.899994</ele>
        <time>2011-12-18T08:50:32Z</time>
      </trkpt>
      <trkpt lat="43.58557" lon="6.25333">
        <ele>458.5</ele>
        <time>2011-12-18T08:50:45Z</time>
      </trkpt>
      <trkpt lat="43.58565" lon="6.25337">
        <ele>458.799988</ele>
        <time>2011-12-18T08:50:54Z</time>
      </trkpt>
      <trkpt lat="43.58573" lon="6.25342">
        <ele>458.799988</ele>
        <time>2011-12-18T08:51:02Z</time>
      </trkpt>
      <trkpt lat="43.5858" lon="6.25348">
        <ele>459.799988</ele>
        <time>2011-12-18T08:51:10Z</time>
      </trkpt>
      <trkpt lat="43.58588" lon="6.25354">
        <ele>459.399994</ele>
        <time>2011-12-18T08:51:19Z</time>
      </trkpt>
      <trkpt lat="43.58594" lon="6.25363">
        <ele>460.100006</ele>
        <time>2011-12-18T08:51:28Z</time>
      </trkpt>
      <trkpt lat="43.586" lon="6.2537">
        <ele>460.899994</ele>
        <time>2011-12-18T08:51:34Z</time>
      </trkpt>
      <trkpt lat="43.58601" lon="6.25371">
        <ele>460.799988</ele>
        <time>2011-12-18T08:51:35Z</time>
      </trkpt>
      <trkpt lat="43.58611" lon="6.25388">
        <ele>462.100006</ele>
        <time>2011-12-18T08:51:46Z</time>
      </trkpt>
      <trkpt lat="43.58616" lon="6.25396">
        <ele>461.899994</ele>
        <time>2011-12-18T08:51:54Z</time>
      </trkpt>
      <trkpt lat="43.58611" lon="6.25407">
        <ele>461.700012</ele>
        <time>2011-12-18T08:52:06Z</time>
      </trkpt>
      <trkpt lat="43.58605" lon="6.25415">
        <ele>462.899994</ele>
        <time>2011-12-18T08:52:15Z</time>
      </trkpt>
      <trkpt lat="43.58603" lon="6.25426">
        <ele>463.100006</ele>
        <time>2011-12-18T08:52:24Z</time>
      </trkpt>
      <trkpt lat="43.58604" lon="6.25437">
        <ele>463.100006</ele>
        <time>2011-12-18T08:52:30Z</time>
      </trkpt>
      <trkpt lat="43.58608" lon="6.25448">
        <ele>463.600006</ele>
        <time>2011-12-18T08:52:36Z</time>
      </trkpt>
      <trkpt lat="43.58609" lon="6.2545">
        <ele>463.899994</ele>
        <time>2011-12-18T08:52:37Z</time>
      </trkpt>
      <trkpt lat="43.58616" lon="6.25467">
        <ele>462.5</ele>
        <time>2011-12-18T08:52:48Z</time>
      </trkpt>
      <trkpt lat="43.58619" lon="6.25478">
        <ele>462.700012</ele>
        <time>2011-12-18T08:52:56Z</time>
      </trkpt>
      <trkpt lat="43.58622" lon="6.25489">
        <ele>463.100006</ele>
        <time>2011-12-18T08:53:03Z</time>
      </trkpt>
      <trkpt lat="43.58623" lon="6.255">
        <ele>463.200012</ele>
        <time>2011-12-18T08:53:09Z</time>
      </trkpt>
      <trkpt lat="43.58624" lon="6.25511">
        <ele>463.5</ele>
        <time>2011-12-18T08:53:17Z</time>
      </trkpt>
      <trkpt lat="43.58623" lon="6.25522">
        <ele>462.299988</ele>
        <time>2011-12-18T08:53:24Z</time>
      </trkpt>
      <trkpt lat="43.58626" lon="6.25533">
        <ele>462.399994</ele>
        <time>2011-12-18T08:53:30Z</time>
      </trkpt>
      <trkpt lat="43.58627" lon="6.25546">
        <ele>461</ele>
        <time>2011-12-18T08:53:38Z</time>
      </trkpt>
      <trkpt lat="43.58627" lon="6.25548">
        <ele>460.899994</ele>
        <time>2011-12-18T08:53:39Z</time>
      </trkpt>
      <trkpt lat="43.58625" lon="6.25568">
        <ele>461.899994</ele>
        <time>2011-12-18T08:53:54Z</time>
      </trkpt>
      <trkpt lat="43.58619" lon="6.25578">
        <ele>460.899994</ele>
        <time>2011-12-18T08:54:03Z</time>
      </trkpt>
      <trkpt lat="43.58612" lon="6.25583">
        <ele>461.200012</ele>
        <time>2011-12-18T08:54:10Z</time>
      </trkpt>
      <trkpt lat="43.58604" lon="6.25589">
        <ele>460.600006</ele>
        <time>2011-12-18T08:54:17Z</time>
      </trkpt>
      <trkpt lat="43.58601" lon="6.25599">
        <ele>461.799988</ele>
        <time>2011-12-18T08:54:24Z</time>
      </trkpt>
      <trkpt lat="43.58602" lon="6.25611">
        <ele>462</ele>
        <time>2011-12-18T08:54:30Z</time>
      </trkpt>
      <trkpt lat="43.58603" lon="6.25623">
        <ele>462.299988</ele>
        <time>2011-12-18T08:54:35Z</time>
      </trkpt>
      <trkpt lat="43.58601" lon="6.25634">
        <ele>462.299988</ele>
        <time>2011-12-18T08:54:43Z</time>
      </trkpt>
      <trkpt lat="43.58601" lon="6.25636">
        <ele>462.200012</ele>
        <time>2011-12-18T08:54:44Z</time>
      </trkpt>
      <trkpt lat="43.586" lon="6.25658">
        <ele>463</ele>
        <time>2011-12-18T08:54:56Z</time>
      </trkpt>
      <trkpt lat="43.586" lon="6.25669">
        <ele>462.700012</ele>
        <time>2011-12-18T08:55:03Z</time>
      </trkpt>
      <trkpt lat="43.58601" lon="6.25681">
        <ele>463</ele>
        <time>2011-12-18T08:55:10Z</time>
      </trkpt>
      <trkpt lat="43.58606" lon="6.25691">
        <ele>462.200012</ele>
        <time>2011-12-18T08:55:15Z</time>
      </trkpt>
      <trkpt lat="43.58611" lon="6.257">
        <ele>463.299988</ele>
        <time>2011-12-18T08:55:22Z</time>
      </trkpt>
      <trkpt lat="43.58617" lon="6.25708">
        <ele>463.600006</ele>
        <time>2011-12-18T08:55:28Z</time>
      </trkpt>
      <trkpt lat="43.58623" lon="6.25716">
        <ele>463.700012</ele>
        <time>2011-12-18T08:55:34Z</time>
      </trkpt>
      <trkpt lat="43.58627" lon="6.25725">
        <ele>463.5</ele>
        <time>2011-12-18T08:55:41Z</time>
      </trkpt>
      <trkpt lat="43.58632" lon="6.25734">
        <ele>464.100006</ele>
        <time>2011-12-18T08:55:47Z</time>
      </trkpt>
      <trkpt lat="43.58633" lon="6.25735">
        <ele>463.899994</ele>
        <time>2011-12-18T08:55:48Z</time>
      </trkpt>
      <trkpt lat="43.58646" lon="6.25746">
        <ele>464.200012</ele>
        <time>2011-12-18T08:56:02Z</time>
      </trkpt>
      <trkpt lat="43.58652" lon="6.25752">
        <ele>464.399994</ele>
        <time>2011-12-18T08:56:09Z</time>
      </trkpt>
      <trkpt lat="43.58658" lon="6.2576">
        <ele>464.700012</ele>
        <time>2011-12-18T08:56:17Z</time>
      </trkpt>
      <trkpt lat="43.58662" lon="6.2577">
        <ele>464.799988</ele>
        <time>2011-12-18T08:56:23Z</time>
      </trkpt>
      <trkpt lat="43.58668" lon="6.25778">
        <ele>464.799988</ele>
        <time>2011-12-18T08:56:30Z</time>
      </trkpt>
      <trkpt lat="43.58673" lon="6.25787">
        <ele>464.399994</ele>
        <time>2011-12-18T08:56:37Z</time>
      </trkpt>
      <trkpt lat="43.58678" lon="6.25797">
        <ele>465</ele>
        <time>2011-12-18T08:56:45Z</time>
      </trkpt>
      <trkpt lat="43.5868" lon="6.25808">
        <ele>464</ele>
        <time>2011-12-18T08:56:54Z</time>
      </trkpt>
      <trkpt lat="43.5868" lon="6.2581">
        <ele>464.200012</ele>
        <time>2011-12-18T08:56:55Z</time>
      </trkpt>
      <trkpt lat="43.58684" lon="6.25828">
        <ele>463.799988</ele>
        <time>2011-12-18T08:57:05Z</time>
      </trkpt>
      <trkpt lat="43.58688" lon="6.25838">
        <ele>463.799988</ele>
        <time>2011-12-18T08:57:10Z</time>
      </trkpt>
      <trkpt lat="43.58694" lon="6.25844">
        <ele>463.5</ele>
        <time>2011-12-18T08:57:16Z</time>
      </trkpt>
      <trkpt lat="43.58698" lon="6.25853">
        <ele>464.799988</ele>
        <time>2011-12-18T08:57:23Z</time>
      </trkpt>
      <trkpt lat="43.58698" lon="6.25864">
        <ele>464.700012</ele>
        <time>2011-12-18T08:57:31Z</time>
      </trkpt>
      <trkpt lat="43.58694" lon="6.25875">
        <ele>464.600006</ele>
        <time>2011-12-18T08:57:39Z</time>
      </trkpt>
      <trkpt lat="43.58697" lon="6.25885">
        <ele>465.700012</ele>
        <time>2011-12-18T08:57:46Z</time>
      </trkpt>
      <trkpt lat="43.58703" lon="6.25892">
        <ele>465.700012</ele>
        <time>2011-12-18T08:57:50Z</time>
      </trkpt>
      <trkpt lat="43.58711" lon="6.25899">
        <ele>465.799988</ele>
        <time>2011-12-18T08:57:57Z</time>
      </trkpt>
      <trkpt lat="43.58712" lon="6.259">
        <ele>465.899994</ele>
        <time>2011-12-18T08:57:58Z</time>
      </trkpt>
      <trkpt lat="43.58725" lon="6.25911">
        <ele>466.200012</ele>
        <time>2011-12-18T08:58:12Z</time>
      </trkpt>
      <trkpt lat="43.58731" lon="6.25918">
        <ele>465.899994</ele>
        <time>2011-12-18T08:58:19Z</time>
      </trkpt>
      <trkpt lat="43.58737" lon="6.25927">
        <ele>466.399994</ele>
        <time>2011-12-18T08:58:26Z</time>
      </trkpt>
      <trkpt lat="43.58743" lon="6.25935">
        <ele>465.5</ele>
        <time>2011-12-18T08:58:33Z</time>
      </trkpt>
      <trkpt lat="43.58749" lon="6.25944">
        <ele>464.700012</ele>
        <time>2011-12-18T08:58:40Z</time>
      </trkpt>
      <trkpt lat="43.58755" lon="6.25952">
        <ele>464.399994</ele>
        <time>2011-12-18T08:58:49Z</time>
      </trkpt>
      <trkpt lat="43.58762" lon="6.25957">
        <ele>464.600006</ele>
        <time>2011-12-18T08:58:58Z</time>
      </trkpt>
      <trkpt lat="43.58763" lon="6.25958">
        <ele>464.5</ele>
        <time>2011-12-18T08:58:59Z</time>
      </trkpt>
      <trkpt lat="43.58778" lon="6.25968">
        <ele>464.299988</ele>
        <time>2011-12-18T08:59:10Z</time>
      </trkpt>
      <trkpt lat="43.58785" lon="6.25975">
        <ele>464.600006</ele>
        <time>2011-12-18T08:59:18Z</time>
      </trkpt>
      <trkpt lat="43.58793" lon="6.25974">
        <ele>465.299988</ele>
        <time>2011-12-18T09:00:28Z</time>
      </trkpt>
      <trkpt lat="43.58794" lon="6.25975">
        <ele>465.100006</ele>
        <time>2011-12-18T09:00:29Z</time>
      </trkpt>
      <trkpt lat="43.58808" lon="6.25975">
        <ele>465.899994</ele>
        <time>2011-12-18T09:00:42Z</time>
      </trkpt>
      <trkpt lat="43.58816" lon="6.25971">
        <ele>466</ele>
        <time>2011-12-18T09:00:49Z</time>
      </trkpt>
      <trkpt lat="43.58824" lon="6.25975">
        <ele>465.600006</ele>
        <time>2011-12-18T09:00:59Z</time>
      </trkpt>
      <trkpt lat="43.5883" lon="6.25983">
        <ele>466.200012</ele>
        <time>2011-12-18T09:02:05Z</time>
      </trkpt>
      <trkpt lat="43.58831" lon="6.25984">
        <ele>466.299988</ele>
        <time>2011-12-18T09:02:06Z</time>
      </trkpt>
      <trkpt lat="43.58844" lon="6.25996">
        <ele>467.100006</ele>
        <time>2011-12-18T09:02:19Z</time>
      </trkpt>
      <trkpt lat="43.58852" lon="6.25995">
        <ele>467.200012</ele>
        <time>2011-12-18T09:02:26Z</time>
      </trkpt>
      <trkpt lat="43.5886" lon="6.2599">
        <ele>467.299988</ele>
        <time>2011-12-18T09:02:33Z</time>
      </trkpt>
      <trkpt lat="43.58869" lon="6.25988">
        <ele>468.600006</ele>
        <time>2011-12-18T09:02:43Z</time>
      </trkpt>
      <trkpt lat="43.58877" lon="6.25994">
        <ele>468</ele>
        <time>2011-12-18T09:03:03Z</time>
      </trkpt>
      <trkpt lat="43.58881" lon="6.26004">
        <ele>469.100006</ele>
        <time>2011-12-18T09:03:14Z</time>
      </trkpt>
      <trkpt lat="43.58881" lon="6.26006">
        <ele>469.200012</ele>
        <time>2011-12-18T09:03:15Z</time>
      </trkpt>
      <trkpt lat="43.58893" lon="6.26019">
        <ele>469.899994</ele>
        <time>2011-12-18T09:03:29Z</time>
      </trkpt>
      <trkpt lat="43.58901" lon="6.26022">
        <ele>470.299988</ele>
        <time>2011-12-18T09:03:35Z</time>
      </trkpt>
      <trkpt lat="43.58909" lon="6.26027">
        <ele>471</ele>
        <time>2011-12-18T09:03:44Z</time>
      </trkpt>
      <trkpt lat="43.58917" lon="6.26032">
        <ele>471</ele>
        <time>2011-12-18T09:03:53Z</time>
      </trkpt>
      <trkpt lat="43.58924" lon="6.26037">
        <ele>471.799988</ele>
        <time>2011-12-18T09:03:59Z</time>
      </trkpt>
      <trkpt lat="43.58931" lon="6.2604">
        <ele>472.399994</ele>
        <time>2011-12-18T09:04:06Z</time>
      </trkpt>
      <trkpt lat="43.58938" lon="6.26044">
        <ele>473.299988</ele>
        <time>2011-12-18T09:04:12Z</time>
      </trkpt>
      <trkpt lat="43.58946" lon="6.2605">
        <ele>472.600006</ele>
        <time>2011-12-18T09:04:23Z</time>
      </trkpt>
      <trkpt lat="43.58946" lon="6.26051">
        <ele>472.299988</ele>
        <time>2011-12-18T09:04:24Z</time>
      </trkpt>
      <trkpt lat="43.58951" lon="6.26072">
        <ele>473.100006</ele>
        <time>2011-12-18T09:04:41Z</time>
      </trkpt>
      <trkpt lat="43.58954" lon="6.26083">
        <ele>473.299988</ele>
        <time>2011-12-18T09:04:48Z</time>
      </trkpt>
      <trkpt lat="43.58959" lon="6.26092">
        <ele>473.299988</ele>
        <time>2011-12-18T09:04:53Z</time>
      </trkpt>
      <trkpt lat="43.58966" lon="6.26098">
        <ele>473.700012</ele>
        <time>2011-12-18T09:04:59Z</time>
      </trkpt>
      <trkpt lat="43.58972" lon="6.26107">
        <ele>473.600006</ele>
        <time>2011-12-18T09:05:04Z</time>
      </trkpt>
      <trkpt lat="43.58978" lon="6.26114">
        <ele>474.100006</ele>
        <time>2011-12-18T09:05:10Z</time>
      </trkpt>
      <trkpt lat="43.58985" lon="6.26119">
        <ele>473.899994</ele>
        <time>2011-12-18T09:05:17Z</time>
      </trkpt>
      <trkpt lat="43.58993" lon="6.26125">
        <ele>474.299988</ele>
        <time>2011-12-18T09:05:24Z</time>
      </trkpt>
      <trkpt lat="43.59" lon="6.26129">
        <ele>474.100006</ele>
        <time>2011-12-18T09:05:31Z</time>
      </trkpt>
      <trkpt lat="43.59001" lon="6.2613">
        <ele>474</ele>
        <time>2011-12-18T09:05:32Z</time>
      </trkpt>
      <trkpt lat="43.59006" lon="6.26146">
        <ele>473.700012</ele>
        <time>2011-12-18T09:05:49Z</time>
      </trkpt>
      <trkpt lat="43.58998" lon="6.26153">
        <ele>474</ele>
        <time>2011-12-18T09:05:57Z</time>
      </trkpt>
      <trkpt lat="43.58994" lon="6.26163">
        <ele>474.200012</ele>
        <time>2011-12-18T09:06:04Z</time>
      </trkpt>
      <trkpt lat="43.58989" lon="6.26171">
        <ele>473.600006</ele>
        <time>2011-12-18T09:06:12Z</time>
      </trkpt>
      <trkpt lat="43.58984" lon="6.26182">
        <ele>472.700012</ele>
        <time>2011-12-18T09:06:22Z</time>
      </trkpt>
      <trkpt lat="43.58979" lon="6.26192">
        <ele>472.899994</ele>
        <time>2011-12-18T09:06:31Z</time>
      </trkpt>
      <trkpt lat="43.58974" lon="6.262">
        <ele>471</ele>
        <time>2011-12-18T09:06:39Z</time>
      </trkpt>
      <trkpt lat="43.58973" lon="6.26201">
        <ele>471</ele>
        <time>2011-12-18T09:06:40Z</time>
      </trkpt>
      <trkpt lat="43.58963" lon="6.26219">
        <ele>470.100006</ele>
        <time>2011-12-18T09:06:55Z</time>
      </trkpt>
      <trkpt lat="43.58959" lon="6.26229">
        <ele>468.700012</ele>
        <time>2011-12-18T09:07:03Z</time>
      </trkpt>
      <trkpt lat="43.58956" lon="6.26241">
        <ele>468.799988</ele>
        <time>2011-12-18T09:07:10Z</time>
      </trkpt>
      <trkpt lat="43.5896" lon="6.26252">
        <ele>468.299988</ele>
        <time>2011-12-18T09:07:33Z</time>
      </trkpt>
      <trkpt lat="43.58967" lon="6.26258">
        <ele>469.700012</ele>
        <time>2011-12-18T09:07:44Z</time>
      </trkpt>
      <trkpt lat="43.58968" lon="6.26258">
        <ele>469.700012</ele>
        <time>2011-12-18T09:07:45Z</time>
      </trkpt>
      <trkpt lat="43.58983" lon="6.26258">
        <ele>470.600006</ele>
        <time>2011-12-18T09:07:59Z</time>
      </trkpt>
      <trkpt lat="43.58991" lon="6.26259">
        <ele>470.600006</ele>
        <time>2011-12-18T09:08:07Z</time>
      </trkpt>
      <trkpt lat="43.58996" lon="6.2627">
        <ele>470.700012</ele>
        <time>2011-12-18T09:08:16Z</time>
      </trkpt>
      <trkpt lat="43.58997" lon="6.26281">
        <ele>470.700012</ele>
        <time>2011-12-18T09:08:28Z</time>
      </trkpt>
      <trkpt lat="43.58996" lon="6.26293">
        <ele>470.100006</ele>
        <time>2011-12-18T09:08:35Z</time>
      </trkpt>
      <trkpt lat="43.58998" lon="6.26305">
        <ele>469.600006</ele>
        <time>2011-12-18T09:08:43Z</time>
      </trkpt>
      <trkpt lat="43.59003" lon="6.26313">
        <ele>469.600006</ele>
        <time>2011-12-18T09:08:51Z</time>
      </trkpt>
      <trkpt lat="43.59004" lon="6.26315">
        <ele>469.600006</ele>
        <time>2011-12-18T09:08:52Z</time>
      </trkpt>
      <trkpt lat="43.59016" lon="6.26328">
        <ele>469.299988</ele>
        <time>2011-12-18T09:09:05Z</time>
      </trkpt>
      <trkpt lat="43.59023" lon="6.26333">
        <ele>469.200012</ele>
        <time>2011-12-18T09:09:12Z</time>
      </trkpt>
      <trkpt lat="43.59031" lon="6.26338">
        <ele>469.899994</ele>
        <time>2011-12-18T09:09:19Z</time>
      </trkpt>
      <trkpt lat="43.5904" lon="6.26338">
        <ele>470.399994</ele>
        <time>2011-12-18T09:09:27Z</time>
      </trkpt>
      <trkpt lat="43.59048" lon="6.26341">
        <ele>470.799988</ele>
        <time>2011-12-18T09:09:35Z</time>
      </trkpt>
      <trkpt lat="43.59048" lon="6.26353">
        <ele>471.100006</ele>
        <time>2011-12-18T09:09:46Z</time>
      </trkpt>
      <trkpt lat="43.59043" lon="6.26362">
        <ele>470.200012</ele>
        <time>2011-12-18T09:09:53Z</time>
      </trkpt>
      <trkpt lat="43.59042" lon="6.26363">
        <ele>470.200012</ele>
        <time>2011-12-18T09:09:54Z</time>
      </trkpt>
      <trkpt lat="43.5904" lon="6.26385">
        <ele>470.799988</ele>
        <time>2011-12-18T09:10:11Z</time>
      </trkpt>
      <trkpt lat="43.5904" lon="6.26395">
        <ele>471.399994</ele>
        <time>2011-12-18T09:10:18Z</time>
      </trkpt>
      <trkpt lat="43.5904" lon="6.26408">
        <ele>472.700012</ele>
        <time>2011-12-18T09:10:25Z</time>
      </trkpt>
      <trkpt lat="43.5904" lon="6.26419">
        <ele>472.399994</ele>
        <time>2011-12-18T09:10:33Z</time>
      </trkpt>
      <trkpt lat="43.59041" lon="6.26429">
        <ele>472.299988</ele>
        <time>2011-12-18T09:10:41Z</time>
      </trkpt>
      <trkpt lat="43.59044" lon="6.26441">
        <ele>473.399994</ele>
        <time>2011-12-18T09:10:48Z</time>
      </trkpt>
      <trkpt lat="43.59049" lon="6.26451">
        <ele>474.799988</ele>
        <time>2011-12-18T09:10:56Z</time>
      </trkpt>
      <trkpt lat="43.5905" lon="6.26452">
        <ele>475</ele>
        <time>2011-12-18T09:10:57Z</time>
      </trkpt>
      <trkpt lat="43.59063" lon="6.26465">
        <ele>474.600006</ele>
        <time>2011-12-18T09:11:14Z</time>
      </trkpt>
      <trkpt lat="43.59067" lon="6.26474">
        <ele>475.799988</ele>
        <time>2011-12-18T09:11:21Z</time>
      </trkpt>
      <trkpt lat="43.5907" lon="6.26485">
        <ele>476.100006</ele>
        <time>2011-12-18T09:11:29Z</time>
      </trkpt>
      <trkpt lat="43.59073" lon="6.26496">
        <ele>476.5</ele>
        <time>2011-12-18T09:11:38Z</time>
      </trkpt>
      <trkpt lat="43.59079" lon="6.26504">
        <ele>478.100006</ele>
        <time>2011-12-18T09:11:47Z</time>
      </trkpt>
      <trkpt lat="43.59085" lon="6.26512">
        <ele>477.5</ele>
        <time>2011-12-18T09:11:55Z</time>
      </trkpt>
      <trkpt lat="43.59092" lon="6.26518">
        <ele>478.299988</ele>
        <time>2011-12-18T09:12:03Z</time>
      </trkpt>
      <trkpt lat="43.59092" lon="6.2652">
        <ele>478.5</ele>
        <time>2011-12-18T09:12:04Z</time>
      </trkpt>
      <trkpt lat="43.591" lon="6.26537">
        <ele>480.399994</ele>
        <time>2011-12-18T09:12:17Z</time>
      </trkpt>
      <trkpt lat="43.59102" lon="6.26548">
        <ele>480.5</ele>
        <time>2011-12-18T09:12:24Z</time>
      </trkpt>
      <trkpt lat="43.59106" lon="6.26559">
        <ele>480.799988</ele>
        <time>2011-12-18T09:12:32Z</time>
      </trkpt>
      <trkpt lat="43.59112" lon="6.26568">
        <ele>481.100006</ele>
        <time>2011-12-18T09:12:40Z</time>
      </trkpt>
      <trkpt lat="43.59116" lon="6.26578">
        <ele>482.5</ele>
        <time>2011-12-18T09:12:47Z</time>
      </trkpt>
      <trkpt lat="43.59119" lon="6.2659">
        <ele>482.100006</ele>
        <time>2011-12-18T09:12:55Z</time>
      </trkpt>
      <trkpt lat="43.59118" lon="6.26602">
        <ele>482.399994</ele>
        <time>2011-12-18T09:13:02Z</time>
      </trkpt>
      <trkpt lat="43.59118" lon="6.26613">
        <ele>482.700012</ele>
        <time>2011-12-18T09:13:09Z</time>
      </trkpt>
      <trkpt lat="43.59118" lon="6.26615">
        <ele>482.799988</ele>
        <time>2011-12-18T09:13:10Z</time>
      </trkpt>
      <trkpt lat="43.59119" lon="6.26636">
        <ele>483.299988</ele>
        <time>2011-12-18T09:13:22Z</time>
      </trkpt>
      <trkpt lat="43.5912" lon="6.26647">
        <ele>483.799988</ele>
        <time>2011-12-18T09:13:29Z</time>
      </trkpt>
      <trkpt lat="43.59122" lon="6.26659">
        <ele>484.299988</ele>
        <time>2011-12-18T09:13:36Z</time>
      </trkpt>
      <trkpt lat="43.59124" lon="6.26669">
        <ele>485.5</ele>
        <time>2011-12-18T09:13:43Z</time>
      </trkpt>
      <trkpt lat="43.59122" lon="6.26681">
        <ele>486.100006</ele>
        <time>2011-12-18T09:13:50Z</time>
      </trkpt>
      <trkpt lat="43.59126" lon="6.26691">
        <ele>486.899994</ele>
        <time>2011-12-18T09:13:59Z</time>
      </trkpt>
      <trkpt lat="43.59133" lon="6.26699">
        <ele>487.899994</ele>
        <time>2011-12-18T09:14:08Z</time>
      </trkpt>
      <trkpt lat="43.59139" lon="6.26706">
        <ele>489.600006</ele>
        <time>2011-12-18T09:14:16Z</time>
      </trkpt>
      <trkpt lat="43.5914" lon="6.26707">
        <ele>489.5</ele>
        <time>2011-12-18T09:14:17Z</time>
      </trkpt>
      <trkpt lat="43.59149" lon="6.26725">
        <ele>490.700012</ele>
        <time>2011-12-18T09:14:35Z</time>
      </trkpt>
      <trkpt lat="43.59147" lon="6.26737">
        <ele>491.700012</ele>
        <time>2011-12-18T09:14:46Z</time>
      </trkpt>
      <trkpt lat="43.59151" lon="6.26748">
        <ele>492.600006</ele>
        <time>2011-12-18T09:14:55Z</time>
      </trkpt>
      <trkpt lat="43.59156" lon="6.26757">
        <ele>493.299988</ele>
        <time>2011-12-18T09:15:04Z</time>
      </trkpt>
      <trkpt lat="43.59161" lon="6.26767">
        <ele>494.700012</ele>
        <time>2011-12-18T09:15:15Z</time>
      </trkpt>
      <trkpt lat="43.59165" lon="6.26777">
        <ele>496.200012</ele>
        <time>2011-12-18T09:15:26Z</time>
      </trkpt>
      <trkpt lat="43.59165" lon="6.26778">
        <ele>496.600006</ele>
        <time>2011-12-18T09:15:27Z</time>
      </trkpt>
      <trkpt lat="43.59172" lon="6.26798">
        <ele>498.5</ele>
        <time>2011-12-18T09:15:44Z</time>
      </trkpt>
      <trkpt lat="43.59176" lon="6.26808">
        <ele>499.100006</ele>
        <time>2011-12-18T09:15:52Z</time>
      </trkpt>
      <trkpt lat="43.5918" lon="6.26819">
        <ele>499.899994</ele>
        <time>2011-12-18T09:16:00Z</time>
      </trkpt>
      <trkpt lat="43.59183" lon="6.26829">
        <ele>499.700012</ele>
        <time>2011-12-18T09:16:08Z</time>
      </trkpt>
      <trkpt lat="43.59188" lon="6.26839">
        <ele>499.700012</ele>
        <time>2011-12-18T09:16:16Z</time>
      </trkpt>
      <trkpt lat="43.59194" lon="6.26846">
        <ele>499.600006</ele>
        <time>2011-12-18T09:16:22Z</time>
      </trkpt>
      <trkpt lat="43.59202" lon="6.2685">
        <ele>499.200012</ele>
        <time>2011-12-18T09:16:29Z</time>
      </trkpt>
      <trkpt lat="43.59204" lon="6.26851">
        <ele>499.200012</ele>
        <time>2011-12-18T09:16:30Z</time>
      </trkpt>
      <trkpt lat="43.59218" lon="6.26858">
        <ele>499</ele>
        <time>2011-12-18T09:16:43Z</time>
      </trkpt>
      <trkpt lat="43.59225" lon="6.26862">
        <ele>498.299988</ele>
        <time>2011-12-18T09:16:50Z</time>
      </trkpt>
      <trkpt lat="43.59233" lon="6.26867">
        <ele>497.799988</ele>
        <time>2011-12-18T09:16:58Z</time>
      </trkpt>
      <trkpt lat="43.59239" lon="6.26876">
        <ele>498.399994</ele>
        <time>2011-12-18T09:17:07Z</time>
      </trkpt>
      <trkpt lat="43.59235" lon="6.26887">
        <ele>499.700012</ele>
        <time>2011-12-18T09:17:21Z</time>
      </trkpt>
      <trkpt lat="43.59232" lon="6.26897">
        <ele>501</ele>
        <time>2011-12-18T09:17:29Z</time>
      </trkpt>
      <trkpt lat="43.59228" lon="6.26908">
        <ele>500.899994</ele>
        <time>2011-12-18T09:17:36Z</time>
      </trkpt>
      <trkpt lat="43.59228" lon="6.2691">
        <ele>500.600006</ele>
        <time>2011-12-18T09:17:37Z</time>
      </trkpt>
      <trkpt lat="43.59221" lon="6.26929">
        <ele>500.899994</ele>
        <time>2011-12-18T09:17:49Z</time>
      </trkpt>
      <trkpt lat="43.59213" lon="6.2693">
        <ele>500.799988</ele>
        <time>2011-12-18T09:17:56Z</time>
      </trkpt>
      <trkpt lat="43.59205" lon="6.26934">
        <ele>501.899994</ele>
        <time>2011-12-18T09:18:06Z</time>
      </trkpt>
      <trkpt lat="43.59197" lon="6.26941">
        <ele>503</ele>
        <time>2011-12-18T09:18:15Z</time>
      </trkpt>
      <trkpt lat="43.5919" lon="6.26945">
        <ele>503.700012</ele>
        <time>2011-12-18T09:18:24Z</time>
      </trkpt>
      <trkpt lat="43.59183" lon="6.26952">
        <ele>504.5</ele>
        <time>2011-12-18T09:18:32Z</time>
      </trkpt>
      <trkpt lat="43.59179" lon="6.26962">
        <ele>505.200012</ele>
        <time>2011-12-18T09:18:40Z</time>
      </trkpt>
      <trkpt lat="43.59179" lon="6.26963">
        <ele>505.299988</ele>
        <time>2011-12-18T09:18:41Z</time>
      </trkpt>
      <trkpt lat="43.59175" lon="6.26985">
        <ele>507.600006</ele>
        <time>2011-12-18T09:18:58Z</time>
      </trkpt>
      <trkpt lat="43.59174" lon="6.26996">
        <ele>507.899994</ele>
        <time>2011-12-18T09:19:05Z</time>
      </trkpt>
      <trkpt lat="43.59176" lon="6.27007">
        <ele>508.5</ele>
        <time>2011-12-18T09:19:14Z</time>
      </trkpt>
      <trkpt lat="43.59176" lon="6.2702">
        <ele>509.100006</ele>
        <time>2011-12-18T09:19:24Z</time>
      </trkpt>
      <trkpt lat="43.59177" lon="6.27032">
        <ele>510.399994</ele>
        <time>2011-12-18T09:19:33Z</time>
      </trkpt>
      <trkpt lat="43.59179" lon="6.27043">
        <ele>511.700012</ele>
        <time>2011-12-18T09:19:41Z</time>
      </trkpt>
      <trkpt lat="43.59179" lon="6.27045">
        <ele>511.799988</ele>
        <time>2011-12-18T09:19:42Z</time>
      </trkpt>
      <trkpt lat="43.59181" lon="6.27067">
        <ele>513</ele>
        <time>2011-12-18T09:24:26Z</time>
      </trkpt>
      <trkpt lat="43.59181" lon="6.27068">
        <ele>513.099976</ele>
        <time>2011-12-18T09:24:27Z</time>
      </trkpt>
      <trkpt lat="43.59195" lon="6.27081">
        <ele>516.099976</ele>
        <time>2011-12-18T09:25:02Z</time>
      </trkpt>
      <trkpt lat="43.592" lon="6.27091">
        <ele>518.200012</ele>
        <time>2011-12-18T09:25:17Z</time>
      </trkpt>
      <trkpt lat="43.59204" lon="6.27101">
        <ele>518.799988</ele>
        <time>2011-12-18T09:25:27Z</time>
      </trkpt>
      <trkpt lat="43.59204" lon="6.27102">
        <ele>518.900024</ele>
        <time>2011-12-18T09:25:28Z</time>
      </trkpt>
      <trkpt lat="43.59217" lon="6.27117">
        <ele>520.299988</ele>
        <time>2011-12-18T09:25:50Z</time>
      </trkpt>
      <trkpt lat="43.59225" lon="6.27123">
        <ele>523.099976</ele>
        <time>2011-12-18T09:26:06Z</time>
      </trkpt>
      <trkpt lat="43.59233" lon="6.27128">
        <ele>525.200012</ele>
        <time>2011-12-18T09:26:23Z</time>
      </trkpt>
      <trkpt lat="43.59241" lon="6.27132">
        <ele>525.799988</ele>
        <time>2011-12-18T09:26:44Z</time>
      </trkpt>
      <trkpt lat="43.59241" lon="6.27133">
        <ele>526.099976</ele>
        <time>2011-12-18T09:26:45Z</time>
      </trkpt>
      <trkpt lat="43.59253" lon="6.2715">
        <ele>529.5</ele>
        <time>2011-12-18T09:27:10Z</time>
      </trkpt>
      <trkpt lat="43.5926" lon="6.27156">
        <ele>531</ele>
        <time>2011-12-18T09:27:20Z</time>
      </trkpt>
      <trkpt lat="43.59268" lon="6.27162">
        <ele>532.299988</ele>
        <time>2011-12-18T09:27:31Z</time>
      </trkpt>
      <trkpt lat="43.59275" lon="6.27167">
        <ele>533.400024</ele>
        <time>2011-12-18T09:27:43Z</time>
      </trkpt>
      <trkpt lat="43.5928" lon="6.27178">
        <ele>534.099976</ele>
        <time>2011-12-18T09:28:18Z</time>
      </trkpt>
      <trkpt lat="43.5928" lon="6.27179">
        <ele>533.599976</ele>
        <time>2011-12-18T09:28:19Z</time>
      </trkpt>
      <trkpt lat="43.59296" lon="6.27185">
        <ele>530.099976</ele>
        <time>2011-12-18T09:28:38Z</time>
      </trkpt>
      <trkpt lat="43.59304" lon="6.27188">
        <ele>529.599976</ele>
        <time>2011-12-18T09:28:51Z</time>
      </trkpt>
      <trkpt lat="43.59313" lon="6.27191">
        <ele>527.400024</ele>
        <time>2011-12-18T09:29:09Z</time>
      </trkpt>
      <trkpt lat="43.5932" lon="6.27194">
        <ele>528.099976</ele>
        <time>2011-12-18T09:29:33Z</time>
      </trkpt>
      <trkpt lat="43.59321" lon="6.27194">
        <ele>528.200012</ele>
        <time>2011-12-18T09:29:34Z</time>
      </trkpt>
      <trkpt lat="43.59336" lon="6.27198">
        <ele>526.599976</ele>
        <time>2011-12-18T09:29:47Z</time>
      </trkpt>
      <trkpt lat="43.59344" lon="6.272">
        <ele>527.299988</ele>
        <time>2011-12-18T09:29:54Z</time>
      </trkpt>
      <trkpt lat="43.59352" lon="6.27205">
        <ele>528</ele>
        <time>2011-12-18T09:30:03Z</time>
      </trkpt>
      <trkpt lat="43.59359" lon="6.27211">
        <ele>527</ele>
        <time>2011-12-18T09:30:11Z</time>
      </trkpt>
      <trkpt lat="43.59366" lon="6.27217">
        <ele>526.799988</ele>
        <time>2011-12-18T09:30:21Z</time>
      </trkpt>
      <trkpt lat="43.59373" lon="6.27223">
        <ele>526.900024</ele>
        <time>2011-12-18T09:30:30Z</time>
      </trkpt>
      <trkpt lat="43.59381" lon="6.27228">
        <ele>525.700012</ele>
        <time>2011-12-18T09:30:39Z</time>
      </trkpt>
      <trkpt lat="43.59381" lon="6.2723">
        <ele>524.799988</ele>
        <time>2011-12-18T09:30:40Z</time>
      </trkpt>
      <trkpt lat="43.59394" lon="6.27242">
        <ele>525.900024</ele>
        <time>2011-12-18T09:30:54Z</time>
      </trkpt>
      <trkpt lat="43.59399" lon="6.27251">
        <ele>525.400024</ele>
        <time>2011-12-18T09:31:02Z</time>
      </trkpt>
      <trkpt lat="43.59403" lon="6.27262">
        <ele>523.5</ele>
        <time>2011-12-18T09:31:15Z</time>
      </trkpt>
      <trkpt lat="43.59408" lon="6.27271">
        <ele>522.599976</ele>
        <time>2011-12-18T09:34:44Z</time>
      </trkpt>
      <trkpt lat="43.59408" lon="6.27272">
        <ele>522.400024</ele>
        <time>2011-12-18T09:34:45Z</time>
      </trkpt>
      <trkpt lat="43.59417" lon="6.2727">
        <ele>522.599976</ele>
        <time>2011-12-18T09:38:25Z</time>
      </trkpt>
      <trkpt lat="43.59429" lon="6.27256">
        <ele>524.799988</ele>
        <time>2011-12-18T09:39:01Z</time>
      </trkpt>
      <trkpt lat="43.59436" lon="6.27247">
        <ele>525.200012</ele>
        <time>2011-12-18T09:39:10Z</time>
      </trkpt>
      <trkpt lat="43.59444" lon="6.27243">
        <ele>526.799988</ele>
        <time>2011-12-18T09:39:16Z</time>
      </trkpt>
      <trkpt lat="43.59451" lon="6.27236">
        <ele>527.099976</ele>
        <time>2011-12-18T09:39:25Z</time>
      </trkpt>
      <trkpt lat="43.59453" lon="6.27235">
        <ele>527.200012</ele>
        <time>2011-12-18T09:39:26Z</time>
      </trkpt>
      <trkpt lat="43.59462" lon="6.27219">
        <ele>526.799988</ele>
        <time>2011-12-18T09:39:40Z</time>
      </trkpt>
      <trkpt lat="43.59466" lon="6.27209">
        <ele>528.599976</ele>
        <time>2011-12-18T09:39:48Z</time>
      </trkpt>
      <trkpt lat="43.59472" lon="6.27201">
        <ele>528.799988</ele>
        <time>2011-12-18T09:39:58Z</time>
      </trkpt>
      <trkpt lat="43.59477" lon="6.27193">
        <ele>528.900024</ele>
        <time>2011-12-18T09:40:07Z</time>
      </trkpt>
      <trkpt lat="43.59482" lon="6.27183">
        <ele>529</ele>
        <time>2011-12-18T09:40:15Z</time>
      </trkpt>
      <trkpt lat="43.59487" lon="6.27174">
        <ele>529.799988</ele>
        <time>2011-12-18T09:40:24Z</time>
      </trkpt>
      <trkpt lat="43.59493" lon="6.27165">
        <ele>529.799988</ele>
        <time>2011-12-18T09:40:31Z</time>
      </trkpt>
      <trkpt lat="43.59493" lon="6.27164">
        <ele>530</ele>
        <time>2011-12-18T09:40:32Z</time>
      </trkpt>
      <trkpt lat="43.59503" lon="6.27147">
        <ele>530.5</ele>
        <time>2011-12-18T09:40:47Z</time>
      </trkpt>
      <trkpt lat="43.59507" lon="6.27137">
        <ele>530.599976</ele>
        <time>2011-12-18T09:40:54Z</time>
      </trkpt>
      <trkpt lat="43.59511" lon="6.27128">
        <ele>531.5</ele>
        <time>2011-12-18T09:41:03Z</time>
      </trkpt>
      <trkpt lat="43.59516" lon="6.27119">
        <ele>531.700012</ele>
        <time>2011-12-18T09:41:10Z</time>
      </trkpt>
      <trkpt lat="43.5952" lon="6.27108">
        <ele>532.799988</ele>
        <time>2011-12-18T09:41:19Z</time>
      </trkpt>
      <trkpt lat="43.59525" lon="6.27098">
        <ele>533.5</ele>
        <time>2011-12-18T09:41:30Z</time>
      </trkpt>
      <trkpt lat="43.59527" lon="6.27087">
        <ele>534.5</ele>
        <time>2011-12-18T09:41:40Z</time>
      </trkpt>
      <trkpt lat="43.59528" lon="6.27086">
        <ele>534.5</ele>
        <time>2011-12-18T09:41:41Z</time>
      </trkpt>
      <trkpt lat="43.59539" lon="6.2707">
        <ele>535.5</ele>
        <time>2011-12-18T09:41:56Z</time>
      </trkpt>
      <trkpt lat="43.59545" lon="6.27061">
        <ele>536.200012</ele>
        <time>2011-12-18T09:42:34Z</time>
      </trkpt>
      <trkpt lat="43.5955" lon="6.27071">
        <ele>534.700012</ele>
        <time>2011-12-18T09:42:52Z</time>
      </trkpt>
      <trkpt lat="43.5955" lon="6.27072">
        <ele>534.700012</ele>
        <time>2011-12-18T09:42:53Z</time>
      </trkpt>
      <trkpt lat="43.59561" lon="6.27088">
        <ele>535.400024</ele>
        <time>2011-12-18T09:43:12Z</time>
      </trkpt>
      <trkpt lat="43.59566" lon="6.27097">
        <ele>533.599976</ele>
        <time>2011-12-18T09:43:20Z</time>
      </trkpt>
      <trkpt lat="43.59572" lon="6.27106">
        <ele>534.599976</ele>
        <time>2011-12-18T09:43:28Z</time>
      </trkpt>
      <trkpt lat="43.59578" lon="6.27114">
        <ele>535.299988</ele>
        <time>2011-12-18T09:43:39Z</time>
      </trkpt>
      <trkpt lat="43.59583" lon="6.27123">
        <ele>535</ele>
        <time>2011-12-18T09:43:48Z</time>
      </trkpt>
      <trkpt lat="43.59589" lon="6.27132">
        <ele>536</ele>
        <time>2011-12-18T09:43:57Z</time>
      </trkpt>
      <trkpt lat="43.59589" lon="6.27133">
        <ele>536.200012</ele>
        <time>2011-12-18T09:43:58Z</time>
      </trkpt>
      <trkpt lat="43.59591" lon="6.27155">
        <ele>537.5</ele>
        <time>2011-12-18T09:44:16Z</time>
      </trkpt>
      <trkpt lat="43.59594" lon="6.27167">
        <ele>538.099976</ele>
        <time>2011-12-18T09:44:26Z</time>
      </trkpt>
      <trkpt lat="43.59598" lon="6.27177">
        <ele>538.700012</ele>
        <time>2011-12-18T09:44:37Z</time>
      </trkpt>
      <trkpt lat="43.59602" lon="6.27187">
        <ele>538.200012</ele>
        <time>2011-12-18T09:44:54Z</time>
      </trkpt>
      <trkpt lat="43.59609" lon="6.27195">
        <ele>538.299988</ele>
        <time>2011-12-18T09:45:02Z</time>
      </trkpt>
      <trkpt lat="43.5961" lon="6.27195">
        <ele>538.200012</ele>
        <time>2011-12-18T09:45:03Z</time>
      </trkpt>
      <trkpt lat="43.59624" lon="6.27204">
        <ele>537.799988</ele>
        <time>2011-12-18T09:45:20Z</time>
      </trkpt>
      <trkpt lat="43.59629" lon="6.27212">
        <ele>537.700012</ele>
        <time>2011-12-18T09:45:30Z</time>
      </trkpt>
      <trkpt lat="43.59636" lon="6.2722">
        <ele>537</ele>
        <time>2011-12-18T09:45:39Z</time>
      </trkpt>
      <trkpt lat="43.59643" lon="6.27228">
        <ele>536.599976</ele>
        <time>2011-12-18T09:46:06Z</time>
      </trkpt>
      <trkpt lat="43.59643" lon="6.27228">
        <ele>536.599976</ele>
        <time>2011-12-18T09:46:07Z</time>
      </trkpt>
      <trkpt lat="43.59654" lon="6.27246">
        <ele>536.099976</ele>
        <time>2011-12-18T09:46:27Z</time>
      </trkpt>
      <trkpt lat="43.59661" lon="6.27252">
        <ele>535.5</ele>
        <time>2011-12-18T09:46:34Z</time>
      </trkpt>
      <trkpt lat="43.59668" lon="6.27259">
        <ele>535.700012</ele>
        <time>2011-12-18T09:46:41Z</time>
      </trkpt>
      <trkpt lat="43.59676" lon="6.27265">
        <ele>535</ele>
        <time>2011-12-18T09:46:48Z</time>
      </trkpt>
      <trkpt lat="43.59682" lon="6.27273">
        <ele>533.900024</ele>
        <time>2011-12-18T09:46:56Z</time>
      </trkpt>
      <trkpt lat="43.59684" lon="6.27284">
        <ele>533.400024</ele>
        <time>2011-12-18T09:47:03Z</time>
      </trkpt>
      <trkpt lat="43.59686" lon="6.27296">
        <ele>533.5</ele>
        <time>2011-12-18T09:47:12Z</time>
      </trkpt>
      <trkpt lat="43.59686" lon="6.27297">
        <ele>533.700012</ele>
        <time>2011-12-18T09:47:13Z</time>
      </trkpt>
      <trkpt lat="43.59689" lon="6.27318">
        <ele>532.400024</ele>
        <time>2011-12-18T09:47:31Z</time>
      </trkpt>
      <trkpt lat="43.59693" lon="6.27329">
        <ele>532.400024</ele>
        <time>2011-12-18T09:47:38Z</time>
      </trkpt>
      <trkpt lat="43.59692" lon="6.27341">
        <ele>532.5</ele>
        <time>2011-12-18T09:47:45Z</time>
      </trkpt>
      <trkpt lat="43.59689" lon="6.27352">
        <ele>532.599976</ele>
        <time>2011-12-18T09:47:52Z</time>
      </trkpt>
      <trkpt lat="43.59687" lon="6.27363">
        <ele>532.299988</ele>
        <time>2011-12-18T09:48:00Z</time>
      </trkpt>
      <trkpt lat="43.59687" lon="6.27374">
        <ele>533.200012</ele>
        <time>2011-12-18T09:48:07Z</time>
      </trkpt>
      <trkpt lat="43.59685" lon="6.27385">
        <ele>533.099976</ele>
        <time>2011-12-18T09:48:15Z</time>
      </trkpt>
      <trkpt lat="43.59685" lon="6.27386">
        <ele>533.299988</ele>
        <time>2011-12-18T09:48:16Z</time>
      </trkpt>
      <trkpt lat="43.5968" lon="6.27408">
        <ele>533.799988</ele>
        <time>2011-12-18T09:48:33Z</time>
      </trkpt>
      <trkpt lat="43.59678" lon="6.2742">
        <ele>533.5</ele>
        <time>2011-12-18T09:48:42Z</time>
      </trkpt>
      <trkpt lat="43.59674" lon="6.2743">
        <ele>533.400024</ele>
        <time>2011-12-18T09:48:53Z</time>
      </trkpt>
      <trkpt lat="43.59672" lon="6.27441">
        <ele>533.900024</ele>
        <time>2011-12-18T09:49:01Z</time>
      </trkpt>
      <trkpt lat="43.59672" lon="6.27452">
        <ele>533.799988</ele>
        <time>2011-12-18T09:49:08Z</time>
      </trkpt>
      <trkpt lat="43.59672" lon="6.27464">
        <ele>534.5</ele>
        <time>2011-12-18T09:49:16Z</time>
      </trkpt>
      <trkpt lat="43.59672" lon="6.27465">
        <ele>534.200012</ele>
        <time>2011-12-18T09:49:17Z</time>
      </trkpt>
      <trkpt lat="43.5967" lon="6.27486">
        <ele>535</ele>
        <time>2011-12-18T09:49:33Z</time>
      </trkpt>
      <trkpt lat="43.59669" lon="6.27497">
        <ele>535.099976</ele>
        <time>2011-12-18T09:49:42Z</time>
      </trkpt>
      <trkpt lat="43.59667" lon="6.27509">
        <ele>535.299988</ele>
        <time>2011-12-18T09:49:49Z</time>
      </trkpt>
      <trkpt lat="43.59664" lon="6.27519">
        <ele>534.799988</ele>
        <time>2011-12-18T09:49:55Z</time>
      </trkpt>
      <trkpt lat="43.59661" lon="6.2753">
        <ele>535.099976</ele>
        <time>2011-12-18T09:50:03Z</time>
      </trkpt>
      <trkpt lat="43.59658" lon="6.27541">
        <ele>535.599976</ele>
        <time>2011-12-18T09:50:11Z</time>
      </trkpt>
      <trkpt lat="43.59655" lon="6.27551">
        <ele>535.700012</ele>
        <time>2011-12-18T09:50:18Z</time>
      </trkpt>
      <trkpt lat="43.59654" lon="6.27553">
        <ele>535.700012</ele>
        <time>2011-12-18T09:50:19Z</time>
      </trkpt>
      <trkpt lat="43.59648" lon="6.27572">
        <ele>535.400024</ele>
        <time>2011-12-18T09:50:33Z</time>
      </trkpt>
      <trkpt lat="43.59642" lon="6.2758">
        <ele>535.099976</ele>
        <time>2011-12-18T09:50:40Z</time>
      </trkpt>
      <trkpt lat="43.59636" lon="6.27588">
        <ele>535.5</ele>
        <time>2011-12-18T09:50:47Z</time>
      </trkpt>
      <trkpt lat="43.59633" lon="6.27598">
        <ele>535.900024</ele>
        <time>2011-12-18T09:50:54Z</time>
      </trkpt>
      <trkpt lat="43.59629" lon="6.27608">
        <ele>536.599976</ele>
        <time>2011-12-18T09:51:01Z</time>
      </trkpt>
      <trkpt lat="43.59624" lon="6.27618">
        <ele>535.599976</ele>
        <time>2011-12-18T09:51:09Z</time>
      </trkpt>
      <trkpt lat="43.5962" lon="6.27629">
        <ele>536.200012</ele>
        <time>2011-12-18T09:51:17Z</time>
      </trkpt>
      <trkpt lat="43.59614" lon="6.27638">
        <ele>536.900024</ele>
        <time>2011-12-18T09:51:26Z</time>
      </trkpt>
      <trkpt lat="43.59614" lon="6.2764">
        <ele>537</ele>
        <time>2011-12-18T09:51:27Z</time>
      </trkpt>
      <trkpt lat="43.59614" lon="6.2766">
        <ele>536.900024</ele>
        <time>2011-12-18T09:51:40Z</time>
      </trkpt>
      <trkpt lat="43.59615" lon="6.27671">
        <ele>537.5</ele>
        <time>2011-12-18T09:51:47Z</time>
      </trkpt>
      <trkpt lat="43.59615" lon="6.27683">
        <ele>536.5</ele>
        <time>2011-12-18T09:51:56Z</time>
      </trkpt>
      <trkpt lat="43.59615" lon="6.27695">
        <ele>537.099976</ele>
        <time>2011-12-18T09:52:04Z</time>
      </trkpt>
      <trkpt lat="43.59613" lon="6.27705">
        <ele>537.200012</ele>
        <time>2011-12-18T09:52:08Z</time>
      </trkpt>
      <trkpt lat="43.59613" lon="6.27717">
        <ele>537.900024</ele>
        <time>2011-12-18T09:52:16Z</time>
      </trkpt>
      <trkpt lat="43.59615" lon="6.27728">
        <ele>538.299988</ele>
        <time>2011-12-18T09:52:24Z</time>
      </trkpt>
      <trkpt lat="43.59617" lon="6.27739">
        <ele>538.200012</ele>
        <time>2011-12-18T09:52:31Z</time>
      </trkpt>
      <trkpt lat="43.59618" lon="6.27741">
        <ele>538.400024</ele>
        <time>2011-12-18T09:52:32Z</time>
      </trkpt>
      <trkpt lat="43.59624" lon="6.27761">
        <ele>538.5</ele>
        <time>2011-12-18T09:52:49Z</time>
      </trkpt>
      <trkpt lat="43.59625" lon="6.27772">
        <ele>538</ele>
        <time>2011-12-18T09:52:59Z</time>
      </trkpt>
      <trkpt lat="43.59626" lon="6.27784">
        <ele>538.5</ele>
        <time>2011-12-18T09:53:10Z</time>
      </trkpt>
      <trkpt lat="43.59635" lon="6.27782">
        <ele>520.599976</ele>
        <time>2011-12-18T09:56:32Z</time>
      </trkpt>
      <trkpt lat="43.59636" lon="6.27782">
        <ele>520.400024</ele>
        <time>2011-12-18T09:56:33Z</time>
      </trkpt>
      <trkpt lat="43.59649" lon="6.27767">
        <ele>520</ele>
        <time>2011-12-18T09:57:00Z</time>
      </trkpt>
      <trkpt lat="43.59657" lon="6.27761">
        <ele>520.599976</ele>
        <time>2011-12-18T09:57:08Z</time>
      </trkpt>
      <trkpt lat="43.59665" lon="6.27756">
        <ele>519.799988</ele>
        <time>2011-12-18T09:57:15Z</time>
      </trkpt>
      <trkpt lat="43.59672" lon="6.27751">
        <ele>520.700012</ele>
        <time>2011-12-18T09:57:23Z</time>
      </trkpt>
      <trkpt lat="43.59681" lon="6.27747">
        <ele>520</ele>
        <time>2011-12-18T09:57:32Z</time>
      </trkpt>
      <trkpt lat="43.59688" lon="6.2774">
        <ele>520</ele>
        <time>2011-12-18T09:57:43Z</time>
      </trkpt>
      <trkpt lat="43.59689" lon="6.2774">
        <ele>519.799988</ele>
        <time>2011-12-18T09:57:44Z</time>
      </trkpt>
      <trkpt lat="43.59701" lon="6.27726">
        <ele>519.700012</ele>
        <time>2011-12-18T09:58:00Z</time>
      </trkpt>
      <trkpt lat="43.59708" lon="6.2772">
        <ele>519.799988</ele>
        <time>2011-12-18T09:58:07Z</time>
      </trkpt>
      <trkpt lat="43.59715" lon="6.27712">
        <ele>520.200012</ele>
        <time>2011-12-18T09:58:15Z</time>
      </trkpt>
      <trkpt lat="43.59721" lon="6.27705">
        <ele>519.5</ele>
        <time>2011-12-18T09:58:23Z</time>
      </trkpt>
      <trkpt lat="43.59727" lon="6.27697">
        <ele>519.299988</ele>
        <time>2011-12-18T09:58:37Z</time>
      </trkpt>
      <trkpt lat="43.59736" lon="6.27693">
        <ele>520.200012</ele>
        <time>2011-12-18T09:58:48Z</time>
      </trkpt>
      <trkpt lat="43.59737" lon="6.27693">
        <ele>520.400024</ele>
        <time>2011-12-18T09:58:49Z</time>
      </trkpt>
      <trkpt lat="43.59753" lon="6.27696">
        <ele>520.5</ele>
        <time>2011-12-18T09:59:06Z</time>
      </trkpt>
      <trkpt lat="43.59761" lon="6.27699">
        <ele>520.700012</ele>
        <time>2011-12-18T09:59:15Z</time>
      </trkpt>
      <trkpt lat="43.5977" lon="6.27702">
        <ele>520.700012</ele>
        <time>2011-12-18T09:59:23Z</time>
      </trkpt>
      <trkpt lat="43.59776" lon="6.2771">
        <ele>522.099976</ele>
        <time>2011-12-18T09:59:34Z</time>
      </trkpt>
      <trkpt lat="43.5978" lon="6.27721">
        <ele>523.299988</ele>
        <time>2011-12-18T09:59:58Z</time>
      </trkpt>
      <trkpt lat="43.59781" lon="6.27723">
        <ele>523.299988</ele>
        <time>2011-12-18T09:59:59Z</time>
      </trkpt>
      <trkpt lat="43.59784" lon="6.27744">
        <ele>523.299988</ele>
        <time>2011-12-18T10:00:14Z</time>
      </trkpt>
      <trkpt lat="43.59788" lon="6.27754">
        <ele>523.799988</ele>
        <time>2011-12-18T10:00:23Z</time>
      </trkpt>
      <trkpt lat="43.59791" lon="6.27766">
        <ele>525.099976</ele>
        <time>2011-12-18T10:00:46Z</time>
      </trkpt>
      <trkpt lat="43.59799" lon="6.27771">
        <ele>527.200012</ele>
        <time>2011-12-18T10:01:43Z</time>
      </trkpt>
      <trkpt lat="43.598" lon="6.27771">
        <ele>527.200012</ele>
        <time>2011-12-18T10:01:44Z</time>
      </trkpt>
      <trkpt lat="43.59813" lon="6.27757">
        <ele>527.799988</ele>
        <time>2011-12-18T10:02:30Z</time>
      </trkpt>
      <trkpt lat="43.59822" lon="6.27757">
        <ele>529.700012</ele>
        <time>2011-12-18T10:02:47Z</time>
      </trkpt>
      <trkpt lat="43.59822" lon="6.27758">
        <ele>530</ele>
        <time>2011-12-18T10:02:48Z</time>
      </trkpt>
      <trkpt lat="43.59838" lon="6.27763">
        <ele>531.700012</ele>
        <time>2011-12-18T10:03:11Z</time>
      </trkpt>
      <trkpt lat="43.59845" lon="6.27771">
        <ele>532.299988</ele>
        <time>2011-12-18T10:03:24Z</time>
      </trkpt>
      <trkpt lat="43.59853" lon="6.27777">
        <ele>533</ele>
        <time>2011-12-18T10:03:36Z</time>
      </trkpt>
      <trkpt lat="43.5986" lon="6.27782">
        <ele>533.5</ele>
        <time>2011-12-18T10:03:50Z</time>
      </trkpt>
      <trkpt lat="43.59861" lon="6.27783">
        <ele>533.400024</ele>
        <time>2011-12-18T10:03:51Z</time>
      </trkpt>
      <trkpt lat="43.59866" lon="6.278">
        <ele>535.200012</ele>
        <time>2011-12-18T10:04:21Z</time>
      </trkpt>
      <trkpt lat="43.59862" lon="6.27811">
        <ele>535.400024</ele>
        <time>2011-12-18T10:04:34Z</time>
      </trkpt>
      <trkpt lat="43.59864" lon="6.27823">
        <ele>535.599976</ele>
        <time>2011-12-18T10:04:44Z</time>
      </trkpt>
      <trkpt lat="43.59871" lon="6.27831">
        <ele>535.400024</ele>
        <time>2011-12-18T10:04:53Z</time>
      </trkpt>
      <trkpt lat="43.59872" lon="6.27831">
        <ele>535.700012</ele>
        <time>2011-12-18T10:04:54Z</time>
      </trkpt>
      <trkpt lat="43.59885" lon="6.27844">
        <ele>539.700012</ele>
        <time>2011-12-18T10:05:22Z</time>
      </trkpt>
      <trkpt lat="43.59893" lon="6.27847">
        <ele>540.799988</ele>
        <time>2011-12-18T10:05:33Z</time>
      </trkpt>
      <trkpt lat="43.59901" lon="6.27853">
        <ele>541.099976</ele>
        <time>2011-12-18T10:05:48Z</time>
      </trkpt>
      <trkpt lat="43.5991" lon="6.27856">
        <ele>541.5</ele>
        <time>2011-12-18T10:06:00Z</time>
      </trkpt>
      <trkpt lat="43.5991" lon="6.27856">
        <ele>541.700012</ele>
        <time>2011-12-18T10:06:01Z</time>
      </trkpt>
      <trkpt lat="43.59926" lon="6.27862">
        <ele>544.200012</ele>
        <time>2011-12-18T10:06:26Z</time>
      </trkpt>
      <trkpt lat="43.59931" lon="6.27871">
        <ele>545</ele>
        <time>2011-12-18T10:06:43Z</time>
      </trkpt>
      <trkpt lat="43.59933" lon="6.27883">
        <ele>547.099976</ele>
        <time>2011-12-18T10:06:56Z</time>
      </trkpt>
      <trkpt lat="43.59933" lon="6.27895">
        <ele>547.700012</ele>
        <time>2011-12-18T10:07:13Z</time>
      </trkpt>
      <trkpt lat="43.59933" lon="6.27895">
        <ele>547.700012</ele>
        <time>2011-12-18T10:07:14Z</time>
      </trkpt>
      <trkpt lat="43.59932" lon="6.27919">
        <ele>548.400024</ele>
        <time>2011-12-18T10:07:36Z</time>
      </trkpt>
      <trkpt lat="43.59932" lon="6.27931">
        <ele>550.400024</ele>
        <time>2011-12-18T10:07:50Z</time>
      </trkpt>
      <trkpt lat="43.59934" lon="6.27943">
        <ele>551.200012</ele>
        <time>2011-12-18T10:08:05Z</time>
      </trkpt>
      <trkpt lat="43.59935" lon="6.27955">
        <ele>552.599976</ele>
        <time>2011-12-18T10:08:23Z</time>
      </trkpt>
      <trkpt lat="43.59935" lon="6.27955">
        <ele>552.299988</ele>
        <time>2011-12-18T10:08:24Z</time>
      </trkpt>
      <trkpt lat="43.59937" lon="6.27979">
        <ele>553.900024</ele>
        <time>2011-12-18T10:09:08Z</time>
      </trkpt>
      <trkpt lat="43.59944" lon="6.27986">
        <ele>554.400024</ele>
        <time>2011-12-18T10:10:04Z</time>
      </trkpt>
      <trkpt lat="43.59945" lon="6.27986">
        <ele>554.299988</ele>
        <time>2011-12-18T10:10:05Z</time>
      </trkpt>
      <trkpt lat="43.5996" lon="6.2798">
        <ele>557.5</ele>
        <time>2011-12-18T10:10:29Z</time>
      </trkpt>
      <trkpt lat="43.59969" lon="6.27978">
        <ele>558.599976</ele>
        <time>2011-12-18T10:10:40Z</time>
      </trkpt>
      <trkpt lat="43.59977" lon="6.27984">
        <ele>559.400024</ele>
        <time>2011-12-18T10:10:51Z</time>
      </trkpt>
      <trkpt lat="43.59975" lon="6.27996">
        <ele>560.799988</ele>
        <time>2011-12-18T10:11:12Z</time>
      </trkpt>
      <trkpt lat="43.59974" lon="6.27996">
        <ele>560.900024</ele>
        <time>2011-12-18T10:11:13Z</time>
      </trkpt>
      <trkpt lat="43.59962" lon="6.28012">
        <ele>561.200012</ele>
        <time>2011-12-18T10:11:37Z</time>
      </trkpt>
      <trkpt lat="43.59957" lon="6.2802">
        <ele>562.700012</ele>
        <time>2011-12-18T10:11:48Z</time>
      </trkpt>
      <trkpt lat="43.59954" lon="6.28031">
        <ele>563.400024</ele>
        <time>2011-12-18T10:11:57Z</time>
      </trkpt>
      <trkpt lat="43.59955" lon="6.28042">
        <ele>562.200012</ele>
        <time>2011-12-18T10:12:09Z</time>
      </trkpt>
      <trkpt lat="43.59963" lon="6.28038">
        <ele>564.799988</ele>
        <time>2011-12-18T10:12:55Z</time>
      </trkpt>
      <trkpt lat="43.59963" lon="6.28037">
        <ele>564.5</ele>
        <time>2011-12-18T10:12:56Z</time>
      </trkpt>
      <trkpt lat="43.59968" lon="6.28059">
        <ele>565.700012</ele>
        <time>2011-12-18T10:13:44Z</time>
      </trkpt>
      <trkpt lat="43.59976" lon="6.28064">
        <ele>566.299988</ele>
        <time>2011-12-18T10:13:54Z</time>
      </trkpt>
      <trkpt lat="43.59984" lon="6.28066">
        <ele>568.299988</ele>
        <time>2011-12-18T10:14:08Z</time>
      </trkpt>
      <trkpt lat="43.59985" lon="6.28067">
        <ele>568.400024</ele>
        <time>2011-12-18T10:14:09Z</time>
      </trkpt>
      <trkpt lat="43.60002" lon="6.28068">
        <ele>573.299988</ele>
        <time>2011-12-18T10:16:29Z</time>
      </trkpt>
      <trkpt lat="43.60002" lon="6.28068">
        <ele>573.299988</ele>
        <time>2011-12-18T10:16:30Z</time>
      </trkpt>
      <trkpt lat="43.60011" lon="6.28073">
        <ele>575</ele>
        <time>2011-12-18T10:17:39Z</time>
      </trkpt>
      <trkpt lat="43.60028" lon="6.2807">
        <ele>580.400024</ele>
        <time>2011-12-18T10:18:09Z</time>
      </trkpt>
      <trkpt lat="43.60036" lon="6.28065">
        <ele>581.5</ele>
        <time>2011-12-18T10:18:21Z</time>
      </trkpt>
      <trkpt lat="43.60043" lon="6.28058">
        <ele>583.900024</ele>
        <time>2011-12-18T10:18:38Z</time>
      </trkpt>
      <trkpt lat="43.6005" lon="6.28052">
        <ele>583.599976</ele>
        <time>2011-12-18T10:18:47Z</time>
      </trkpt>
      <trkpt lat="43.60051" lon="6.28051">
        <ele>583.799988</ele>
        <time>2011-12-18T10:18:48Z</time>
      </trkpt>
      <trkpt lat="43.60067" lon="6.28045">
        <ele>586.5</ele>
        <time>2011-12-18T10:19:26Z</time>
      </trkpt>
      <trkpt lat="43.6007" lon="6.28057">
        <ele>590.099976</ele>
        <time>2011-12-18T10:20:08Z</time>
      </trkpt>
      <trkpt lat="43.6007" lon="6.28058">
        <ele>590.400024</ele>
        <time>2011-12-18T10:20:09Z</time>
      </trkpt>
      <trkpt lat="43.60087" lon="6.28062">
        <ele>590.900024</ele>
        <time>2011-12-18T10:21:40Z</time>
      </trkpt>
      <trkpt lat="43.60087" lon="6.28061">
        <ele>591.299988</ele>
        <time>2011-12-18T10:21:41Z</time>
      </trkpt>
      <trkpt lat="43.60104" lon="6.28059">
        <ele>591.700012</ele>
        <time>2011-12-18T10:22:03Z</time>
      </trkpt>
      <trkpt lat="43.60112" lon="6.28056">
        <ele>593.700012</ele>
        <time>2011-12-18T10:22:16Z</time>
      </trkpt>
      <trkpt lat="43.60121" lon="6.28058">
        <ele>595.400024</ele>
        <time>2011-12-18T10:22:46Z</time>
      </trkpt>
      <trkpt lat="43.60121" lon="6.28057">
        <ele>595.400024</ele>
        <time>2011-12-18T10:22:47Z</time>
      </trkpt>
      <trkpt lat="43.60137" lon="6.28049">
        <ele>594.200012</ele>
        <time>2011-12-18T10:23:15Z</time>
      </trkpt>
      <trkpt lat="43.60144" lon="6.28041">
        <ele>596.5</ele>
        <time>2011-12-18T10:23:30Z</time>
      </trkpt>
      <trkpt lat="43.60151" lon="6.28035">
        <ele>597.299988</ele>
        <time>2011-12-18T10:23:42Z</time>
      </trkpt>
      <trkpt lat="43.60158" lon="6.28029">
        <ele>597.599976</ele>
        <time>2011-12-18T10:23:55Z</time>
      </trkpt>
      <trkpt lat="43.60159" lon="6.28029">
        <ele>597.5</ele>
        <time>2011-12-18T10:23:56Z</time>
      </trkpt>
      <trkpt lat="43.60172" lon="6.28013">
        <ele>600.599976</ele>
        <time>2011-12-18T10:24:15Z</time>
      </trkpt>
      <trkpt lat="43.60177" lon="6.28004">
        <ele>602.5</ele>
        <time>2011-12-18T10:24:25Z</time>
      </trkpt>
      <trkpt lat="43.60182" lon="6.27994">
        <ele>602.799988</ele>
        <time>2011-12-18T10:24:34Z</time>
      </trkpt>
      <trkpt lat="43.60185" lon="6.27983">
        <ele>604.5</ele>
        <time>2011-12-18T10:24:44Z</time>
      </trkpt>
      <trkpt lat="43.60189" lon="6.27972">
        <ele>605.599976</ele>
        <time>2011-12-18T10:24:55Z</time>
      </trkpt>
      <trkpt lat="43.60191" lon="6.27961">
        <ele>606.299988</ele>
        <time>2011-12-18T10:25:03Z</time>
      </trkpt>
      <trkpt lat="43.60191" lon="6.27959">
        <ele>606.299988</ele>
        <time>2011-12-18T10:25:04Z</time>
      </trkpt>
      <trkpt lat="43.60196" lon="6.27939">
        <ele>605.799988</ele>
        <time>2011-12-18T10:25:20Z</time>
      </trkpt>
      <trkpt lat="43.602" lon="6.27929">
        <ele>604.400024</ele>
        <time>2011-12-18T10:25:28Z</time>
      </trkpt>
      <trkpt lat="43.60206" lon="6.2792">
        <ele>604.099976</ele>
        <time>2011-12-18T10:25:36Z</time>
      </trkpt>
      <trkpt lat="43.60212" lon="6.27911">
        <ele>605.099976</ele>
        <time>2011-12-18T10:25:46Z</time>
      </trkpt>
      <trkpt lat="43.60217" lon="6.27902">
        <ele>605.400024</ele>
        <time>2011-12-18T10:25:54Z</time>
      </trkpt>
      <trkpt lat="43.60224" lon="6.27895">
        <ele>606.200012</ele>
        <time>2011-12-18T10:26:04Z</time>
      </trkpt>
      <trkpt lat="43.60227" lon="6.27885">
        <ele>606.799988</ele>
        <time>2011-12-18T10:26:23Z</time>
      </trkpt>
      <trkpt lat="43.60228" lon="6.27884">
        <ele>606.700012</ele>
        <time>2011-12-18T10:26:24Z</time>
      </trkpt>
      <trkpt lat="43.60231" lon="6.27862">
        <ele>610</ele>
        <time>2011-12-18T10:26:52Z</time>
      </trkpt>
      <trkpt lat="43.60231" lon="6.27849">
        <ele>610.299988</ele>
        <time>2011-12-18T10:27:09Z</time>
      </trkpt>
      <trkpt lat="43.60231" lon="6.27837">
        <ele>611.799988</ele>
        <time>2011-12-18T10:27:25Z</time>
      </trkpt>
      <trkpt lat="43.60231" lon="6.27836">
        <ele>612.200012</ele>
        <time>2011-12-18T10:27:26Z</time>
      </trkpt>
      <trkpt lat="43.60235" lon="6.27814">
        <ele>613.200012</ele>
        <time>2011-12-18T10:27:47Z</time>
      </trkpt>
      <trkpt lat="43.6024" lon="6.27804">
        <ele>615.200012</ele>
        <time>2011-12-18T10:28:00Z</time>
      </trkpt>
      <trkpt lat="43.60245" lon="6.27794">
        <ele>616.5</ele>
        <time>2011-12-18T10:28:11Z</time>
      </trkpt>
      <trkpt lat="43.6025" lon="6.27786">
        <ele>618.099976</ele>
        <time>2011-12-18T10:28:21Z</time>
      </trkpt>
      <trkpt lat="43.60257" lon="6.27777">
        <ele>618.599976</ele>
        <time>2011-12-18T10:28:31Z</time>
      </trkpt>
      <trkpt lat="43.60257" lon="6.27776">
        <ele>618.599976</ele>
        <time>2011-12-18T10:28:32Z</time>
      </trkpt>
      <trkpt lat="43.60269" lon="6.27762">
        <ele>619.900024</ele>
        <time>2011-12-18T10:28:53Z</time>
      </trkpt>
      <trkpt lat="43.60276" lon="6.27757">
        <ele>620.799988</ele>
        <time>2011-12-18T10:29:04Z</time>
      </trkpt>
      <trkpt lat="43.60284" lon="6.27751">
        <ele>621.900024</ele>
        <time>2011-12-18T10:29:18Z</time>
      </trkpt>
      <trkpt lat="43.60292" lon="6.27745">
        <ele>623</ele>
        <time>2011-12-18T10:29:30Z</time>
      </trkpt>
      <trkpt lat="43.603" lon="6.27739">
        <ele>623.900024</ele>
        <time>2011-12-18T10:29:40Z</time>
      </trkpt>
      <trkpt lat="43.603" lon="6.27738">
        <ele>623.900024</ele>
        <time>2011-12-18T10:29:41Z</time>
      </trkpt>
      <trkpt lat="43.60315" lon="6.2773">
        <ele>626</ele>
        <time>2011-12-18T10:30:00Z</time>
      </trkpt>
      <trkpt lat="43.60323" lon="6.27726">
        <ele>627.099976</ele>
        <time>2011-12-18T10:30:09Z</time>
      </trkpt>
      <trkpt lat="43.60331" lon="6.27723">
        <ele>627.200012</ele>
        <time>2011-12-18T10:30:18Z</time>
      </trkpt>
      <trkpt lat="43.60339" lon="6.27719">
        <ele>628.099976</ele>
        <time>2011-12-18T10:30:27Z</time>
      </trkpt>
      <trkpt lat="43.60346" lon="6.27712">
        <ele>630</ele>
        <time>2011-12-18T10:31:02Z</time>
      </trkpt>
      <trkpt lat="43.60347" lon="6.27713">
        <ele>629.900024</ele>
        <time>2011-12-18T10:31:03Z</time>
      </trkpt>
      <trkpt lat="43.60363" lon="6.27709">
        <ele>629.599976</ele>
        <time>2011-12-18T10:32:22Z</time>
      </trkpt>
      <trkpt lat="43.60364" lon="6.27709">
        <ele>630</ele>
        <time>2011-12-18T10:32:23Z</time>
      </trkpt>
      <trkpt lat="43.60379" lon="6.27703">
        <ele>630.799988</ele>
        <time>2011-12-18T10:32:36Z</time>
      </trkpt>
      <trkpt lat="43.60387" lon="6.27701">
        <ele>631</ele>
        <time>2011-12-18T10:32:43Z</time>
      </trkpt>
      <trkpt lat="43.60395" lon="6.27697">
        <ele>631.200012</ele>
        <time>2011-12-18T10:32:50Z</time>
      </trkpt>
      <trkpt lat="43.60403" lon="6.27694">
        <ele>631.700012</ele>
        <time>2011-12-18T10:32:56Z</time>
      </trkpt>
      <trkpt lat="43.60411" lon="6.27691">
        <ele>631.299988</ele>
        <time>2011-12-18T10:33:02Z</time>
      </trkpt>
      <trkpt lat="43.60419" lon="6.2769">
        <ele>631.099976</ele>
        <time>2011-12-18T10:33:09Z</time>
      </trkpt>
      <trkpt lat="43.60426" lon="6.27685">
        <ele>631.5</ele>
        <time>2011-12-18T10:33:17Z</time>
      </trkpt>
      <trkpt lat="43.60434" lon="6.27682">
        <ele>632.200012</ele>
        <time>2011-12-18T10:33:25Z</time>
      </trkpt>
      <trkpt lat="43.60436" lon="6.27682">
        <ele>632.299988</ele>
        <time>2011-12-18T10:33:26Z</time>
      </trkpt>
      <trkpt lat="43.60449" lon="6.27676">
        <ele>631.599976</ele>
        <time>2011-12-18T10:33:37Z</time>
      </trkpt>
      <trkpt lat="43.60457" lon="6.27674">
        <ele>631.599976</ele>
        <time>2011-12-18T10:33:44Z</time>
      </trkpt>
      <trkpt lat="43.60465" lon="6.27671">
        <ele>631.400024</ele>
        <time>2011-12-18T10:33:51Z</time>
      </trkpt>
      <trkpt lat="43.60474" lon="6.2767">
        <ele>632</ele>
        <time>2011-12-18T10:33:57Z</time>
      </trkpt>
      <trkpt lat="43.60482" lon="6.27666">
        <ele>632.599976</ele>
        <time>2011-12-18T10:34:05Z</time>
      </trkpt>
      <trkpt lat="43.6049" lon="6.27662">
        <ele>631.700012</ele>
        <time>2011-12-18T10:34:12Z</time>
      </trkpt>
      <trkpt lat="43.60498" lon="6.2766">
        <ele>633.099976</ele>
        <time>2011-12-18T10:34:19Z</time>
      </trkpt>
      <trkpt lat="43.60506" lon="6.27657">
        <ele>632.900024</ele>
        <time>2011-12-18T10:34:25Z</time>
      </trkpt>
      <trkpt lat="43.60514" lon="6.27656">
        <ele>634.200012</ele>
        <time>2011-12-18T10:34:33Z</time>
      </trkpt>
      <trkpt lat="43.60516" lon="6.27656">
        <ele>634.299988</ele>
        <time>2011-12-18T10:34:34Z</time>
      </trkpt>
      <trkpt lat="43.60529" lon="6.27663">
        <ele>635.099976</ele>
        <time>2011-12-18T10:34:47Z</time>
      </trkpt>
      <trkpt lat="43.60535" lon="6.27672">
        <ele>635.599976</ele>
        <time>2011-12-18T10:34:55Z</time>
      </trkpt>
      <trkpt lat="43.6054" lon="6.2768">
        <ele>635.900024</ele>
        <time>2011-12-18T10:35:05Z</time>
      </trkpt>
      <trkpt lat="43.60547" lon="6.27688">
        <ele>636.599976</ele>
        <time>2011-12-18T10:35:14Z</time>
      </trkpt>
      <trkpt lat="43.60553" lon="6.27695">
        <ele>637.200012</ele>
        <time>2011-12-18T10:35:22Z</time>
      </trkpt>
      <trkpt lat="43.60559" lon="6.27705">
        <ele>636.900024</ele>
        <time>2011-12-18T10:35:30Z</time>
      </trkpt>
      <trkpt lat="43.60561" lon="6.27716">
        <ele>637.099976</ele>
        <time>2011-12-18T10:35:38Z</time>
      </trkpt>
      <trkpt lat="43.60561" lon="6.27718">
        <ele>636.900024</ele>
        <time>2011-12-18T10:35:39Z</time>
      </trkpt>
      <trkpt lat="43.60559" lon="6.2774">
        <ele>637.299988</ele>
        <time>2011-12-18T10:35:55Z</time>
      </trkpt>
      <trkpt lat="43.60559" lon="6.27752">
        <ele>637.900024</ele>
        <time>2011-12-18T10:36:04Z</time>
      </trkpt>
      <trkpt lat="43.60559" lon="6.27764">
        <ele>637.299988</ele>
        <time>2011-12-18T10:36:13Z</time>
      </trkpt>
      <trkpt lat="43.6056" lon="6.27775">
        <ele>638.599976</ele>
        <time>2011-12-18T10:36:33Z</time>
      </trkpt>
      <trkpt lat="43.60561" lon="6.27786">
        <ele>638.5</ele>
        <time>2011-12-18T10:36:39Z</time>
      </trkpt>
      <trkpt lat="43.60563" lon="6.27798">
        <ele>638.599976</ele>
        <time>2011-12-18T10:36:46Z</time>
      </trkpt>
      <trkpt lat="43.60563" lon="6.278">
        <ele>638.599976</ele>
        <time>2011-12-18T10:36:47Z</time>
      </trkpt>
      <trkpt lat="43.60565" lon="6.27821">
        <ele>640.200012</ele>
        <time>2011-12-18T10:37:00Z</time>
      </trkpt>
      <trkpt lat="43.60566" lon="6.27833">
        <ele>641.200012</ele>
        <time>2011-12-18T10:37:07Z</time>
      </trkpt>
      <trkpt lat="43.60569" lon="6.27844">
        <ele>641.200012</ele>
        <time>2011-12-18T10:37:13Z</time>
      </trkpt>
      <trkpt lat="43.60571" lon="6.27856">
        <ele>641.200012</ele>
        <time>2011-12-18T10:37:20Z</time>
      </trkpt>
      <trkpt lat="43.60572" lon="6.27868">
        <ele>640</ele>
        <time>2011-12-18T10:37:27Z</time>
      </trkpt>
      <trkpt lat="43.60569" lon="6.27878">
        <ele>637.900024</ele>
        <time>2011-12-18T10:37:35Z</time>
      </trkpt>
      <trkpt lat="43.60565" lon="6.27888">
        <ele>636.5</ele>
        <time>2011-12-18T10:37:43Z</time>
      </trkpt>
      <trkpt lat="43.6056" lon="6.27898">
        <ele>635.299988</ele>
        <time>2011-12-18T10:37:50Z</time>
      </trkpt>
      <trkpt lat="43.60558" lon="6.27899">
        <ele>635.200012</ele>
        <time>2011-12-18T10:37:51Z</time>
      </trkpt>
      <trkpt lat="43.60551" lon="6.27917">
        <ele>635.099976</ele>
        <time>2011-12-18T10:38:04Z</time>
      </trkpt>
      <trkpt lat="43.60546" lon="6.27926">
        <ele>634.400024</ele>
        <time>2011-12-18T10:38:11Z</time>
      </trkpt>
      <trkpt lat="43.60541" lon="6.27934">
        <ele>634.200012</ele>
        <time>2011-12-18T10:38:17Z</time>
      </trkpt>
      <trkpt lat="43.60535" lon="6.27943">
        <ele>633.599976</ele>
        <time>2011-12-18T10:38:25Z</time>
      </trkpt>
      <trkpt lat="43.60527" lon="6.27948">
        <ele>633.099976</ele>
        <time>2011-12-18T10:38:32Z</time>
      </trkpt>
      <trkpt lat="43.60521" lon="6.27957">
        <ele>632.299988</ele>
        <time>2011-12-18T10:38:41Z</time>
      </trkpt>
      <trkpt lat="43.60515" lon="6.27965">
        <ele>632.299988</ele>
        <time>2011-12-18T10:38:50Z</time>
      </trkpt>
      <trkpt lat="43.60511" lon="6.27975">
        <ele>631.700012</ele>
        <time>2011-12-18T10:38:56Z</time>
      </trkpt>
      <trkpt lat="43.6051" lon="6.27977">
        <ele>631.5</ele>
        <time>2011-12-18T10:38:57Z</time>
      </trkpt>
      <trkpt lat="43.60508" lon="6.27998">
        <ele>631.599976</ele>
        <time>2011-12-18T10:39:11Z</time>
      </trkpt>
      <trkpt lat="43.60508" lon="6.2801">
        <ele>631.900024</ele>
        <time>2011-12-18T10:39:19Z</time>
      </trkpt>
      <trkpt lat="43.60503" lon="6.2802">
        <ele>628.900024</ele>
        <time>2011-12-18T10:39:34Z</time>
      </trkpt>
      <trkpt lat="43.60511" lon="6.28017">
        <ele>629.799988</ele>
        <time>2011-12-18T10:44:31Z</time>
      </trkpt>
      <trkpt lat="43.60512" lon="6.28017">
        <ele>629.799988</ele>
        <time>2011-12-18T10:44:32Z</time>
      </trkpt>
      <trkpt lat="43.60506" lon="6.28028">
        <ele>630</ele>
        <time>2011-12-18T10:48:02Z</time>
      </trkpt>
      <trkpt lat="43.60502" lon="6.28016">
        <ele>635.299988</ele>
        <time>2011-12-18T10:50:08Z</time>
      </trkpt>
      <trkpt lat="43.60486" lon="6.28006">
        <ele>642.900024</ele>
        <time>2011-12-18T10:51:03Z</time>
      </trkpt>
      <trkpt lat="43.6048" lon="6.27998">
        <ele>645.5</ele>
        <time>2011-12-18T10:51:25Z</time>
      </trkpt>
      <trkpt lat="43.6048" lon="6.27997">
        <ele>646</ele>
        <time>2011-12-18T10:51:26Z</time>
      </trkpt>
      <trkpt lat="43.60465" lon="6.27987">
        <ele>653.099976</ele>
        <time>2011-12-18T10:52:03Z</time>
      </trkpt>
      <trkpt lat="43.60457" lon="6.27984">
        <ele>655</ele>
        <time>2011-12-18T10:52:13Z</time>
      </trkpt>
      <trkpt lat="43.60448" lon="6.27982">
        <ele>656.799988</ele>
        <time>2011-12-18T10:52:24Z</time>
      </trkpt>
      <trkpt lat="43.60441" lon="6.27988">
        <ele>657.299988</ele>
        <time>2011-12-18T10:52:32Z</time>
      </trkpt>
      <trkpt lat="43.6044" lon="6.27989">
        <ele>657.299988</ele>
        <time>2011-12-18T10:52:33Z</time>
      </trkpt>
      <trkpt lat="43.60429" lon="6.28003">
        <ele>659.700012</ele>
        <time>2011-12-18T10:52:48Z</time>
      </trkpt>
      <trkpt lat="43.60423" lon="6.28012">
        <ele>659.5</ele>
        <time>2011-12-18T10:52:57Z</time>
      </trkpt>
      <trkpt lat="43.60416" lon="6.28018">
        <ele>661.200012</ele>
        <time>2011-12-18T10:53:05Z</time>
      </trkpt>
      <trkpt lat="43.60411" lon="6.28026">
        <ele>661</ele>
        <time>2011-12-18T10:53:12Z</time>
      </trkpt>
      <trkpt lat="43.60403" lon="6.28032">
        <ele>661.200012</ele>
        <time>2011-12-18T10:53:19Z</time>
      </trkpt>
      <trkpt lat="43.60396" lon="6.28038">
        <ele>659.200012</ele>
        <time>2011-12-18T10:53:27Z</time>
      </trkpt>
      <trkpt lat="43.60395" lon="6.2805">
        <ele>659.299988</ele>
        <time>2011-12-18T10:53:36Z</time>
      </trkpt>
      <trkpt lat="43.60394" lon="6.28052">
        <ele>659.299988</ele>
        <time>2011-12-18T10:53:37Z</time>
      </trkpt>
      <trkpt lat="43.60386" lon="6.28067">
        <ele>658.299988</ele>
        <time>2011-12-18T10:53:53Z</time>
      </trkpt>
      <trkpt lat="43.60379" lon="6.28073">
        <ele>660.299988</ele>
        <time>2011-12-18T10:54:05Z</time>
      </trkpt>
      <trkpt lat="43.60372" lon="6.2808">
        <ele>660.599976</ele>
        <time>2011-12-18T10:54:14Z</time>
      </trkpt>
      <trkpt lat="43.60366" lon="6.28088">
        <ele>659.400024</ele>
        <time>2011-12-18T10:54:23Z</time>
      </trkpt>
      <trkpt lat="43.60362" lon="6.28098">
        <ele>658.200012</ele>
        <time>2011-12-18T10:54:32Z</time>
      </trkpt>
      <trkpt lat="43.60359" lon="6.28109">
        <ele>657.599976</ele>
        <time>2011-12-18T10:54:41Z</time>
      </trkpt>
      <trkpt lat="43.60359" lon="6.2811">
        <ele>657.400024</ele>
        <time>2011-12-18T10:54:42Z</time>
      </trkpt>
      <trkpt lat="43.60347" lon="6.28125">
        <ele>656.900024</ele>
        <time>2011-12-18T10:55:00Z</time>
      </trkpt>
      <trkpt lat="43.60342" lon="6.28135">
        <ele>656.599976</ele>
        <time>2011-12-18T10:55:09Z</time>
      </trkpt>
      <trkpt lat="43.60336" lon="6.28143">
        <ele>658.200012</ele>
        <time>2011-12-18T10:55:17Z</time>
      </trkpt>
      <trkpt lat="43.60328" lon="6.28149">
        <ele>659.400024</ele>
        <time>2011-12-18T10:55:36Z</time>
      </trkpt>
      <trkpt lat="43.60324" lon="6.28159">
        <ele>659.5</ele>
        <time>2011-12-18T10:55:44Z</time>
      </trkpt>
      <trkpt lat="43.60323" lon="6.2816">
        <ele>659.599976</ele>
        <time>2011-12-18T10:55:45Z</time>
      </trkpt>
      <trkpt lat="43.60316" lon="6.2818">
        <ele>658.700012</ele>
        <time>2011-12-18T10:56:00Z</time>
      </trkpt>
      <trkpt lat="43.60314" lon="6.28192">
        <ele>657.799988</ele>
        <time>2011-12-18T10:56:08Z</time>
      </trkpt>
      <trkpt lat="43.60311" lon="6.28203">
        <ele>658</ele>
        <time>2011-12-18T10:56:15Z</time>
      </trkpt>
      <trkpt lat="43.60312" lon="6.28214">
        <ele>658.5</ele>
        <time>2011-12-18T10:56:23Z</time>
      </trkpt>
      <trkpt lat="43.60311" lon="6.28227">
        <ele>658.599976</ele>
        <time>2011-12-18T10:56:32Z</time>
      </trkpt>
      <trkpt lat="43.60309" lon="6.28238">
        <ele>658.200012</ele>
        <time>2011-12-18T10:56:44Z</time>
      </trkpt>
      <trkpt lat="43.60308" lon="6.28249">
        <ele>658.099976</ele>
        <time>2011-12-18T10:56:52Z</time>
      </trkpt>
      <trkpt lat="43.60308" lon="6.28251">
        <ele>658.099976</ele>
        <time>2011-12-18T10:56:53Z</time>
      </trkpt>
      <trkpt lat="43.60303" lon="6.28273">
        <ele>657.900024</ele>
        <time>2011-12-18T10:57:08Z</time>
      </trkpt>
      <trkpt lat="43.60298" lon="6.28283">
        <ele>658.200012</ele>
        <time>2011-12-18T10:57:19Z</time>
      </trkpt>
      <trkpt lat="43.60296" lon="6.28294">
        <ele>657.900024</ele>
        <time>2011-12-18T10:57:39Z</time>
      </trkpt>
      <trkpt lat="43.60296" lon="6.28306">
        <ele>655.700012</ele>
        <time>2011-12-18T10:57:55Z</time>
      </trkpt>
      <trkpt lat="43.60296" lon="6.28307">
        <ele>656.200012</ele>
        <time>2011-12-18T10:57:56Z</time>
      </trkpt>
      <trkpt lat="43.60292" lon="6.28328">
        <ele>655.900024</ele>
        <time>2011-12-18T10:58:10Z</time>
      </trkpt>
      <trkpt lat="43.60291" lon="6.2834">
        <ele>655.599976</ele>
        <time>2011-12-18T10:58:20Z</time>
      </trkpt>
      <trkpt lat="43.60291" lon="6.28352">
        <ele>655.700012</ele>
        <time>2011-12-18T10:58:28Z</time>
      </trkpt>
      <trkpt lat="43.60293" lon="6.28364">
        <ele>654.5</ele>
        <time>2011-12-18T10:58:35Z</time>
      </trkpt>
      <trkpt lat="43.60295" lon="6.28375">
        <ele>654.5</ele>
        <time>2011-12-18T10:58:44Z</time>
      </trkpt>
      <trkpt lat="43.60297" lon="6.28386">
        <ele>656.299988</ele>
        <time>2011-12-18T10:58:53Z</time>
      </trkpt>
      <trkpt lat="43.60301" lon="6.28396">
        <ele>656.400024</ele>
        <time>2011-12-18T10:59:00Z</time>
      </trkpt>
      <trkpt lat="43.60302" lon="6.28397">
        <ele>656.5</ele>
        <time>2011-12-18T10:59:01Z</time>
      </trkpt>
      <trkpt lat="43.60311" lon="6.28414">
        <ele>654.799988</ele>
        <time>2011-12-18T10:59:15Z</time>
      </trkpt>
      <trkpt lat="43.60318" lon="6.28421">
        <ele>654.599976</ele>
        <time>2011-12-18T10:59:21Z</time>
      </trkpt>
      <trkpt lat="43.60325" lon="6.28428">
        <ele>655.799988</ele>
        <time>2011-12-18T10:59:29Z</time>
      </trkpt>
      <trkpt lat="43.60331" lon="6.28433">
        <ele>656.099976</ele>
        <time>2011-12-18T10:59:36Z</time>
      </trkpt>
      <trkpt lat="43.60339" lon="6.28438">
        <ele>657.299988</ele>
        <time>2011-12-18T10:59:43Z</time>
      </trkpt>
      <trkpt lat="43.60346" lon="6.28444">
        <ele>659.700012</ele>
        <time>2011-12-18T10:59:52Z</time>
      </trkpt>
      <trkpt lat="43.60352" lon="6.28453">
        <ele>661.099976</ele>
        <time>2011-12-18T11:00:01Z</time>
      </trkpt>
      <trkpt lat="43.60352" lon="6.28454">
        <ele>661.200012</ele>
        <time>2011-12-18T11:00:02Z</time>
      </trkpt>
      <trkpt lat="43.60357" lon="6.28476">
        <ele>662.700012</ele>
        <time>2011-12-18T11:00:17Z</time>
      </trkpt>
      <trkpt lat="43.60359" lon="6.28487">
        <ele>663.900024</ele>
        <time>2011-12-18T11:00:24Z</time>
      </trkpt>
      <trkpt lat="43.6036" lon="6.28498">
        <ele>662.799988</ele>
        <time>2011-12-18T11:00:31Z</time>
      </trkpt>
      <trkpt lat="43.60362" lon="6.28509">
        <ele>662.5</ele>
        <time>2011-12-18T11:00:39Z</time>
      </trkpt>
      <trkpt lat="43.60364" lon="6.2852">
        <ele>662.299988</ele>
        <time>2011-12-18T11:00:47Z</time>
      </trkpt>
      <trkpt lat="43.60368" lon="6.28531">
        <ele>661.400024</ele>
        <time>2011-12-18T11:00:56Z</time>
      </trkpt>
      <trkpt lat="43.60373" lon="6.28541">
        <ele>661.099976</ele>
        <time>2011-12-18T11:01:04Z</time>
      </trkpt>
      <trkpt lat="43.60374" lon="6.28542">
        <ele>660.900024</ele>
        <time>2011-12-18T11:01:05Z</time>
      </trkpt>
      <trkpt lat="43.60381" lon="6.28563">
        <ele>661.099976</ele>
        <time>2011-12-18T11:01:43Z</time>
      </trkpt>
      <trkpt lat="43.60375" lon="6.28572">
        <ele>661.099976</ele>
        <time>2011-12-18T11:04:16Z</time>
      </trkpt>
      <trkpt lat="43.60374" lon="6.28573">
        <ele>661.299988</ele>
        <time>2011-12-18T11:04:17Z</time>
      </trkpt>
      <trkpt lat="43.60365" lon="6.28591">
        <ele>660.599976</ele>
        <time>2011-12-18T11:05:27Z</time>
      </trkpt>
      <trkpt lat="43.60365" lon="6.28592">
        <ele>660.5</ele>
        <time>2011-12-18T11:05:28Z</time>
      </trkpt>
      <trkpt lat="43.60351" lon="6.28602">
        <ele>662</ele>
        <time>2011-12-18T11:05:44Z</time>
      </trkpt>
      <trkpt lat="43.60345" lon="6.2861">
        <ele>662.299988</ele>
        <time>2011-12-18T11:05:53Z</time>
      </trkpt>
      <trkpt lat="43.60337" lon="6.28616">
        <ele>663.200012</ele>
        <time>2011-12-18T11:06:01Z</time>
      </trkpt>
      <trkpt lat="43.60329" lon="6.28622">
        <ele>664.400024</ele>
        <time>2011-12-18T11:06:09Z</time>
      </trkpt>
      <trkpt lat="43.60322" lon="6.28628">
        <ele>664.099976</ele>
        <time>2011-12-18T11:06:16Z</time>
      </trkpt>
      <trkpt lat="43.60315" lon="6.28635">
        <ele>663</ele>
        <time>2011-12-18T11:06:23Z</time>
      </trkpt>
      <trkpt lat="43.6031" lon="6.28644">
        <ele>663.099976</ele>
        <time>2011-12-18T11:06:29Z</time>
      </trkpt>
      <trkpt lat="43.6031" lon="6.28646">
        <ele>663</ele>
        <time>2011-12-18T11:06:30Z</time>
      </trkpt>
      <trkpt lat="43.60298" lon="6.28659">
        <ele>663.900024</ele>
        <time>2011-12-18T11:06:45Z</time>
      </trkpt>
      <trkpt lat="43.60293" lon="6.28669">
        <ele>664.299988</ele>
        <time>2011-12-18T11:06:53Z</time>
      </trkpt>
      <trkpt lat="43.60288" lon="6.28678">
        <ele>665.5</ele>
        <time>2011-12-18T11:07:03Z</time>
      </trkpt>
      <trkpt lat="43.60282" lon="6.28686">
        <ele>665.5</ele>
        <time>2011-12-18T11:07:10Z</time>
      </trkpt>
      <trkpt lat="43.60277" lon="6.28696">
        <ele>665.599976</ele>
        <time>2011-12-18T11:07:18Z</time>
      </trkpt>
      <trkpt lat="43.60274" lon="6.28708">
        <ele>666.200012</ele>
        <time>2011-12-18T11:07:26Z</time>
      </trkpt>
      <trkpt lat="43.60272" lon="6.28719">
        <ele>667.900024</ele>
        <time>2011-12-18T11:07:34Z</time>
      </trkpt>
      <trkpt lat="43.60272" lon="6.2872">
        <ele>668.299988</ele>
        <time>2011-12-18T11:07:35Z</time>
      </trkpt>
      <trkpt lat="43.60269" lon="6.28742">
        <ele>669.299988</ele>
        <time>2011-12-18T11:07:50Z</time>
      </trkpt>
      <trkpt lat="43.60268" lon="6.28753">
        <ele>668.799988</ele>
        <time>2011-12-18T11:07:57Z</time>
      </trkpt>
      <trkpt lat="43.60268" lon="6.28765">
        <ele>667.599976</ele>
        <time>2011-12-18T11:08:04Z</time>
      </trkpt>
      <trkpt lat="43.6027" lon="6.28777">
        <ele>667.599976</ele>
        <time>2011-12-18T11:08:11Z</time>
      </trkpt>
      <trkpt lat="43.60271" lon="6.28788">
        <ele>668</ele>
        <time>2011-12-18T11:08:18Z</time>
      </trkpt>
      <trkpt lat="43.60273" lon="6.28798">
        <ele>666.799988</ele>
        <time>2011-12-18T11:08:25Z</time>
      </trkpt>
      <trkpt lat="43.60275" lon="6.2881">
        <ele>666.700012</ele>
        <time>2011-12-18T11:08:32Z</time>
      </trkpt>
      <trkpt lat="43.60277" lon="6.28822">
        <ele>666</ele>
        <time>2011-12-18T11:08:40Z</time>
      </trkpt>
      <trkpt lat="43.60277" lon="6.28824">
        <ele>666.200012</ele>
        <time>2011-12-18T11:08:41Z</time>
      </trkpt>
      <trkpt lat="43.60279" lon="6.28846">
        <ele>665.400024</ele>
        <time>2011-12-18T11:08:53Z</time>
      </trkpt>
      <trkpt lat="43.6028" lon="6.28856">
        <ele>664.599976</ele>
        <time>2011-12-18T11:08:59Z</time>
      </trkpt>
      <trkpt lat="43.60283" lon="6.28867">
        <ele>664.200012</ele>
        <time>2011-12-18T11:09:05Z</time>
      </trkpt>
      <trkpt lat="43.60284" lon="6.28879">
        <ele>664.599976</ele>
        <time>2011-12-18T11:09:12Z</time>
      </trkpt>
      <trkpt lat="43.60285" lon="6.28891">
        <ele>664.400024</ele>
        <time>2011-12-18T11:09:19Z</time>
      </trkpt>
      <trkpt lat="43.60289" lon="6.28902">
        <ele>662.700012</ele>
        <time>2011-12-18T11:09:25Z</time>
      </trkpt>
      <trkpt lat="43.6029" lon="6.28913">
        <ele>661.099976</ele>
        <time>2011-12-18T11:09:33Z</time>
      </trkpt>
      <trkpt lat="43.60292" lon="6.28924">
        <ele>659.799988</ele>
        <time>2011-12-18T11:09:40Z</time>
      </trkpt>
      <trkpt lat="43.60296" lon="6.28934">
        <ele>660</ele>
        <time>2011-12-18T11:09:46Z</time>
      </trkpt>
      <trkpt lat="43.60296" lon="6.28935">
        <ele>659.700012</ele>
        <time>2011-12-18T11:09:47Z</time>
      </trkpt>
      <trkpt lat="43.60298" lon="6.28957">
        <ele>660.299988</ele>
        <time>2011-12-18T11:10:02Z</time>
      </trkpt>
      <trkpt lat="43.60299" lon="6.28968">
        <ele>660</ele>
        <time>2011-12-18T11:10:09Z</time>
      </trkpt>
      <trkpt lat="43.60301" lon="6.2898">
        <ele>660.099976</ele>
        <time>2011-12-18T11:10:17Z</time>
      </trkpt>
      <trkpt lat="43.60301" lon="6.28992">
        <ele>659.5</ele>
        <time>2011-12-18T11:10:25Z</time>
      </trkpt>
      <trkpt lat="43.603" lon="6.29004">
        <ele>659.700012</ele>
        <time>2011-12-18T11:10:33Z</time>
      </trkpt>
      <trkpt lat="43.60299" lon="6.29016">
        <ele>659.200012</ele>
        <time>2011-12-18T11:10:41Z</time>
      </trkpt>
      <trkpt lat="43.60299" lon="6.29028">
        <ele>659.099976</ele>
        <time>2011-12-18T11:10:49Z</time>
      </trkpt>
      <trkpt lat="43.60299" lon="6.2903">
        <ele>659.200012</ele>
        <time>2011-12-18T11:10:50Z</time>
      </trkpt>
      <trkpt lat="43.60297" lon="6.29051">
        <ele>658.599976</ele>
        <time>2011-12-18T11:11:04Z</time>
      </trkpt>
      <trkpt lat="43.60297" lon="6.29064">
        <ele>658.5</ele>
        <time>2011-12-18T11:11:12Z</time>
      </trkpt>
      <trkpt lat="43.60294" lon="6.29075">
        <ele>657.5</ele>
        <time>2011-12-18T11:11:19Z</time>
      </trkpt>
      <trkpt lat="43.60291" lon="6.29086">
        <ele>656.200012</ele>
        <time>2011-12-18T11:11:26Z</time>
      </trkpt>
      <trkpt lat="43.6029" lon="6.29098">
        <ele>655.700012</ele>
        <time>2011-12-18T11:11:34Z</time>
      </trkpt>
      <trkpt lat="43.60286" lon="6.29109">
        <ele>654.200012</ele>
        <time>2011-12-18T11:11:42Z</time>
      </trkpt>
      <trkpt lat="43.60283" lon="6.2912">
        <ele>652.900024</ele>
        <time>2011-12-18T11:11:50Z</time>
      </trkpt>
      <trkpt lat="43.60282" lon="6.29121">
        <ele>652.700012</ele>
        <time>2011-12-18T11:11:51Z</time>
      </trkpt>
      <trkpt lat="43.6027" lon="6.29136">
        <ele>650</ele>
        <time>2011-12-18T11:12:08Z</time>
      </trkpt>
      <trkpt lat="43.60263" lon="6.2914">
        <ele>649.5</ele>
        <time>2011-12-18T11:12:15Z</time>
      </trkpt>
      <trkpt lat="43.60256" lon="6.29146">
        <ele>649.299988</ele>
        <time>2011-12-18T11:12:22Z</time>
      </trkpt>
      <trkpt lat="43.60252" lon="6.29156">
        <ele>649.400024</ele>
        <time>2011-12-18T11:12:31Z</time>
      </trkpt>
      <trkpt lat="43.60254" lon="6.29167">
        <ele>648.400024</ele>
        <time>2011-12-18T11:12:37Z</time>
      </trkpt>
      <trkpt lat="43.60257" lon="6.29178">
        <ele>647.299988</ele>
        <time>2011-12-18T11:12:44Z</time>
      </trkpt>
      <trkpt lat="43.60257" lon="6.2919">
        <ele>646.700012</ele>
        <time>2011-12-18T11:12:51Z</time>
      </trkpt>
      <trkpt lat="43.60257" lon="6.29191">
        <ele>646.5</ele>
        <time>2011-12-18T11:12:52Z</time>
      </trkpt>
      <trkpt lat="43.60259" lon="6.29213">
        <ele>646.299988</ele>
        <time>2011-12-18T11:13:07Z</time>
      </trkpt>
      <trkpt lat="43.60259" lon="6.29224">
        <ele>646.299988</ele>
        <time>2011-12-18T11:13:14Z</time>
      </trkpt>
      <trkpt lat="43.60259" lon="6.29235">
        <ele>645.700012</ele>
        <time>2011-12-18T11:13:21Z</time>
      </trkpt>
      <trkpt lat="43.60259" lon="6.29246">
        <ele>645</ele>
        <time>2011-12-18T11:13:29Z</time>
      </trkpt>
      <trkpt lat="43.60257" lon="6.29257">
        <ele>644.900024</ele>
        <time>2011-12-18T11:13:36Z</time>
      </trkpt>
      <trkpt lat="43.60258" lon="6.29269">
        <ele>644.400024</ele>
        <time>2011-12-18T11:13:43Z</time>
      </trkpt>
      <trkpt lat="43.60262" lon="6.2928">
        <ele>644.200012</ele>
        <time>2011-12-18T11:13:48Z</time>
      </trkpt>
      <trkpt lat="43.60261" lon="6.29291">
        <ele>644.400024</ele>
        <time>2011-12-18T11:13:56Z</time>
      </trkpt>
      <trkpt lat="43.60261" lon="6.29293">
        <ele>644.200012</ele>
        <time>2011-12-18T11:13:57Z</time>
      </trkpt>
      <trkpt lat="43.60252" lon="6.29311">
        <ele>643</ele>
        <time>2011-12-18T11:14:12Z</time>
      </trkpt>
      <trkpt lat="43.60245" lon="6.29317">
        <ele>643.099976</ele>
        <time>2011-12-18T11:14:19Z</time>
      </trkpt>
      <trkpt lat="43.60238" lon="6.29322">
        <ele>643.599976</ele>
        <time>2011-12-18T11:14:26Z</time>
      </trkpt>
      <trkpt lat="43.60231" lon="6.29328">
        <ele>643.599976</ele>
        <time>2011-12-18T11:14:32Z</time>
      </trkpt>
      <trkpt lat="43.60224" lon="6.29334">
        <ele>643.700012</ele>
        <time>2011-12-18T11:14:38Z</time>
      </trkpt>
      <trkpt lat="43.60219" lon="6.29345">
        <ele>642.599976</ele>
        <time>2011-12-18T11:14:46Z</time>
      </trkpt>
      <trkpt lat="43.60214" lon="6.29354">
        <ele>643.299988</ele>
        <time>2011-12-18T11:14:53Z</time>
      </trkpt>
      <trkpt lat="43.60211" lon="6.29365">
        <ele>642.900024</ele>
        <time>2011-12-18T11:15:01Z</time>
      </trkpt>
      <trkpt lat="43.6021" lon="6.29366">
        <ele>642.900024</ele>
        <time>2011-12-18T11:15:02Z</time>
      </trkpt>
      <trkpt lat="43.60206" lon="6.29387">
        <ele>642.900024</ele>
        <time>2011-12-18T11:15:16Z</time>
      </trkpt>
      <trkpt lat="43.60203" lon="6.29398">
        <ele>642.799988</ele>
        <time>2011-12-18T11:15:24Z</time>
      </trkpt>
      <trkpt lat="43.60199" lon="6.2941">
        <ele>642.700012</ele>
        <time>2011-12-18T11:15:32Z</time>
      </trkpt>
      <trkpt lat="43.60197" lon="6.29422">
        <ele>642.599976</ele>
        <time>2011-12-18T11:15:47Z</time>
      </trkpt>
      <trkpt lat="43.60194" lon="6.29411">
        <ele>640.900024</ele>
        <time>2011-12-18T11:16:17Z</time>
      </trkpt>
      <trkpt lat="43.60194" lon="6.2941">
        <ele>640.700012</ele>
        <time>2011-12-18T11:16:18Z</time>
      </trkpt>
      <trkpt lat="43.60179" lon="6.294">
        <ele>639.799988</ele>
        <time>2011-12-18T11:16:35Z</time>
      </trkpt>
      <trkpt lat="43.60171" lon="6.29396">
        <ele>639.099976</ele>
        <time>2011-12-18T11:16:42Z</time>
      </trkpt>
      <trkpt lat="43.60163" lon="6.29392">
        <ele>639.099976</ele>
        <time>2011-12-18T11:16:50Z</time>
      </trkpt>
      <trkpt lat="43.60154" lon="6.29389">
        <ele>638.400024</ele>
        <time>2011-12-18T11:16:58Z</time>
      </trkpt>
      <trkpt lat="43.60146" lon="6.29386">
        <ele>637.799988</ele>
        <time>2011-12-18T11:17:06Z</time>
      </trkpt>
      <trkpt lat="43.60138" lon="6.29382">
        <ele>637.599976</ele>
        <time>2011-12-18T11:17:14Z</time>
      </trkpt>
      <trkpt lat="43.6013" lon="6.29379">
        <ele>637.5</ele>
        <time>2011-12-18T11:17:21Z</time>
      </trkpt>
      <trkpt lat="43.60129" lon="6.29379">
        <ele>637.799988</ele>
        <time>2011-12-18T11:17:22Z</time>
      </trkpt>
      <trkpt lat="43.60112" lon="6.29377">
        <ele>636</ele>
        <time>2011-12-18T11:17:37Z</time>
      </trkpt>
      <trkpt lat="43.60104" lon="6.29377">
        <ele>635.900024</ele>
        <time>2011-12-18T11:17:48Z</time>
      </trkpt>
      <trkpt lat="43.60099" lon="6.29367">
        <ele>635.099976</ele>
        <time>2011-12-18T11:18:10Z</time>
      </trkpt>
      <trkpt lat="43.60099" lon="6.29355">
        <ele>634.700012</ele>
        <time>2011-12-18T11:18:18Z</time>
      </trkpt>
      <trkpt lat="43.60093" lon="6.29347">
        <ele>634.799988</ele>
        <time>2011-12-18T11:18:25Z</time>
      </trkpt>
      <trkpt lat="43.60091" lon="6.29347">
        <ele>635</ele>
        <time>2011-12-18T11:18:26Z</time>
      </trkpt>
      <trkpt lat="43.6008" lon="6.2933">
        <ele>633.799988</ele>
        <time>2011-12-18T11:18:39Z</time>
      </trkpt>
      <trkpt lat="43.60076" lon="6.2932">
        <ele>633.5</ele>
        <time>2011-12-18T11:18:47Z</time>
      </trkpt>
      <trkpt lat="43.60073" lon="6.29309">
        <ele>632.799988</ele>
        <time>2011-12-18T11:18:53Z</time>
      </trkpt>
      <trkpt lat="43.60065" lon="6.29304">
        <ele>632.299988</ele>
        <time>2011-12-18T11:19:01Z</time>
      </trkpt>
      <trkpt lat="43.60058" lon="6.29298">
        <ele>631</ele>
        <time>2011-12-18T11:19:09Z</time>
      </trkpt>
      <trkpt lat="43.60053" lon="6.2929">
        <ele>632</ele>
        <time>2011-12-18T11:19:16Z</time>
      </trkpt>
      <trkpt lat="43.60048" lon="6.29281">
        <ele>631.5</ele>
        <time>2011-12-18T11:19:24Z</time>
      </trkpt>
      <trkpt lat="43.60043" lon="6.29273">
        <ele>631.400024</ele>
        <time>2011-12-18T11:19:34Z</time>
      </trkpt>
      <trkpt lat="43.60042" lon="6.29271">
        <ele>631.5</ele>
        <time>2011-12-18T11:19:35Z</time>
      </trkpt>
      <trkpt lat="43.60037" lon="6.29251">
        <ele>631</ele>
        <time>2011-12-18T11:19:55Z</time>
      </trkpt>
      <trkpt lat="43.60035" lon="6.29239">
        <ele>629.900024</ele>
        <time>2011-12-18T11:20:13Z</time>
      </trkpt>
      <trkpt lat="43.60032" lon="6.29227">
        <ele>628.700012</ele>
        <time>2011-12-18T11:20:28Z</time>
      </trkpt>
      <trkpt lat="43.60033" lon="6.29217">
        <ele>628.099976</ele>
        <time>2011-12-18T11:20:36Z</time>
      </trkpt>
      <trkpt lat="43.60033" lon="6.29215">
        <ele>628</ele>
        <time>2011-12-18T11:20:37Z</time>
      </trkpt>
      <trkpt lat="43.60033" lon="6.29193">
        <ele>625.799988</ele>
        <time>2011-12-18T11:20:50Z</time>
      </trkpt>
      <trkpt lat="43.60033" lon="6.29182">
        <ele>625.200012</ele>
        <time>2011-12-18T11:20:58Z</time>
      </trkpt>
      <trkpt lat="43.60034" lon="6.2917">
        <ele>624.200012</ele>
        <time>2011-12-18T11:21:05Z</time>
      </trkpt>
      <trkpt lat="43.60035" lon="6.29158">
        <ele>622.900024</ele>
        <time>2011-12-18T11:21:12Z</time>
      </trkpt>
      <trkpt lat="43.60037" lon="6.29147">
        <ele>621.599976</ele>
        <time>2011-12-18T11:21:19Z</time>
      </trkpt>
      <trkpt lat="43.60039" lon="6.29136">
        <ele>618.900024</ele>
        <time>2011-12-18T11:21:27Z</time>
      </trkpt>
      <trkpt lat="43.60039" lon="6.29124">
        <ele>617.400024</ele>
        <time>2011-12-18T11:21:35Z</time>
      </trkpt>
      <trkpt lat="43.60037" lon="6.29112">
        <ele>615</ele>
        <time>2011-12-18T11:21:44Z</time>
      </trkpt>
      <trkpt lat="43.60037" lon="6.29111">
        <ele>614.799988</ele>
        <time>2011-12-18T11:21:45Z</time>
      </trkpt>
      <trkpt lat="43.60037" lon="6.29089">
        <ele>612.700012</ele>
        <time>2011-12-18T11:22:02Z</time>
      </trkpt>
      <trkpt lat="43.60033" lon="6.29079">
        <ele>611.799988</ele>
        <time>2011-12-18T11:22:09Z</time>
      </trkpt>
      <trkpt lat="43.60026" lon="6.29073">
        <ele>611</ele>
        <time>2011-12-18T11:22:17Z</time>
      </trkpt>
      <trkpt lat="43.6002" lon="6.29065">
        <ele>610.799988</ele>
        <time>2011-12-18T11:22:23Z</time>
      </trkpt>
      <trkpt lat="43.60014" lon="6.29056">
        <ele>610.900024</ele>
        <time>2011-12-18T11:22:31Z</time>
      </trkpt>
      <trkpt lat="43.60006" lon="6.29054">
        <ele>608.200012</ele>
        <time>2011-12-18T11:22:58Z</time>
      </trkpt>
      <trkpt lat="43.60005" lon="6.29054">
        <ele>608.099976</ele>
        <time>2011-12-18T11:22:59Z</time>
      </trkpt>
      <trkpt lat="43.60001" lon="6.29043">
        <ele>608</ele>
        <time>2011-12-18T11:24:24Z</time>
      </trkpt>
      <trkpt lat="43.59987" lon="6.29056">
        <ele>608.299988</ele>
        <time>2011-12-18T11:25:01Z</time>
      </trkpt>
      <trkpt lat="43.5998" lon="6.29064">
        <ele>609.900024</ele>
        <time>2011-12-18T11:25:13Z</time>
      </trkpt>
      <trkpt lat="43.59979" lon="6.29075">
        <ele>611</ele>
        <time>2011-12-18T11:25:26Z</time>
      </trkpt>
      <trkpt lat="43.59978" lon="6.29076">
        <ele>611.099976</ele>
        <time>2011-12-18T11:25:27Z</time>
      </trkpt>
      <trkpt lat="43.59971" lon="6.29088">
        <ele>612.900024</ele>
        <time>2011-12-18T11:26:53Z</time>
      </trkpt>
      <trkpt lat="43.59971" lon="6.29088">
        <ele>613.099976</ele>
        <time>2011-12-18T11:26:54Z</time>
      </trkpt>
      <trkpt lat="43.59967" lon="6.29109">
        <ele>622.099976</ele>
        <time>2011-12-18T11:29:17Z</time>
      </trkpt>
      <trkpt lat="43.59966" lon="6.29109">
        <ele>622.099976</ele>
        <time>2011-12-18T11:29:18Z</time>
      </trkpt>
      <trkpt lat="43.59958" lon="6.2911">
        <ele>620.799988</ele>
        <time>2011-12-18T11:30:24Z</time>
      </trkpt>
      <trkpt lat="43.59949" lon="6.29114">
        <ele>625.700012</ele>
        <time>2011-12-18T11:31:33Z</time>
      </trkpt>
      <trkpt lat="43.59938" lon="6.29125">
        <ele>625.599976</ele>
        <time>2011-12-18T11:31:52Z</time>
      </trkpt>
      <trkpt lat="43.59929" lon="6.29123">
        <ele>629.599976</ele>
        <time>2011-12-18T11:32:09Z</time>
      </trkpt>
      <trkpt lat="43.59922" lon="6.29131">
        <ele>629.400024</ele>
        <time>2011-12-18T11:32:46Z</time>
      </trkpt>
      <trkpt lat="43.59922" lon="6.29132">
        <ele>629.5</ele>
        <time>2011-12-18T11:32:47Z</time>
      </trkpt>
      <trkpt lat="43.59915" lon="6.29152">
        <ele>634</ele>
        <time>2011-12-18T11:33:10Z</time>
      </trkpt>
      <trkpt lat="43.59913" lon="6.29164">
        <ele>634.5</ele>
        <time>2011-12-18T11:33:20Z</time>
      </trkpt>
      <trkpt lat="43.59911" lon="6.29175">
        <ele>637.200012</ele>
        <time>2011-12-18T11:33:30Z</time>
      </trkpt>
      <trkpt lat="43.59908" lon="6.29186">
        <ele>638.200012</ele>
        <time>2011-12-18T11:33:39Z</time>
      </trkpt>
      <trkpt lat="43.59905" lon="6.29197">
        <ele>639.5</ele>
        <time>2011-12-18T11:33:48Z</time>
      </trkpt>
      <trkpt lat="43.59905" lon="6.29197">
        <ele>639.700012</ele>
        <time>2011-12-18T11:33:49Z</time>
      </trkpt>
      <trkpt lat="43.59899" lon="6.29217">
        <ele>641</ele>
        <time>2011-12-18T11:34:07Z</time>
      </trkpt>
      <trkpt lat="43.59895" lon="6.29227">
        <ele>642.200012</ele>
        <time>2011-12-18T11:34:15Z</time>
      </trkpt>
      <trkpt lat="43.59891" lon="6.29237">
        <ele>643.200012</ele>
        <time>2011-12-18T11:34:22Z</time>
      </trkpt>
      <trkpt lat="43.59887" lon="6.29248">
        <ele>645.400024</ele>
        <time>2011-12-18T11:34:33Z</time>
      </trkpt>
      <trkpt lat="43.59878" lon="6.29251">
        <ele>647.799988</ele>
        <time>2011-12-18T11:34:44Z</time>
      </trkpt>
      <trkpt lat="43.59871" lon="6.29257">
        <ele>649.299988</ele>
        <time>2011-12-18T11:34:51Z</time>
      </trkpt>
      <trkpt lat="43.5987" lon="6.29258">
        <ele>649.200012</ele>
        <time>2011-12-18T11:34:52Z</time>
      </trkpt>
      <trkpt lat="43.59861" lon="6.29276">
        <ele>650.099976</ele>
        <time>2011-12-18T11:35:08Z</time>
      </trkpt>
      <trkpt lat="43.59857" lon="6.29285">
        <ele>650.400024</ele>
        <time>2011-12-18T11:35:15Z</time>
      </trkpt>
      <trkpt lat="43.59853" lon="6.29295">
        <ele>650.099976</ele>
        <time>2011-12-18T11:35:22Z</time>
      </trkpt>
      <trkpt lat="43.59845" lon="6.29298">
        <ele>651</ele>
        <time>2011-12-18T11:35:40Z</time>
      </trkpt>
      <trkpt lat="43.59836" lon="6.29298">
        <ele>650.5</ele>
        <time>2011-12-18T11:36:16Z</time>
      </trkpt>
      <trkpt lat="43.59836" lon="6.29298">
        <ele>650.599976</ele>
        <time>2011-12-18T11:36:17Z</time>
      </trkpt>
      <trkpt lat="43.59845" lon="6.29278">
        <ele>651.299988</ele>
        <time>2011-12-18T11:36:39Z</time>
      </trkpt>
      <trkpt lat="43.59848" lon="6.29267">
        <ele>651.400024</ele>
        <time>2011-12-18T11:36:48Z</time>
      </trkpt>
      <trkpt lat="43.59851" lon="6.29256">
        <ele>652.400024</ele>
        <time>2011-12-18T11:36:56Z</time>
      </trkpt>
      <trkpt lat="43.59853" lon="6.29245">
        <ele>652.900024</ele>
        <time>2011-12-18T11:37:04Z</time>
      </trkpt>
      <trkpt lat="43.59856" lon="6.29234">
        <ele>653</ele>
        <time>2011-12-18T11:37:11Z</time>
      </trkpt>
      <trkpt lat="43.59858" lon="6.29223">
        <ele>653.5</ele>
        <time>2011-12-18T11:37:18Z</time>
      </trkpt>
      <trkpt lat="43.59858" lon="6.29221">
        <ele>653.400024</ele>
        <time>2011-12-18T11:37:19Z</time>
      </trkpt>
      <trkpt lat="43.59862" lon="6.29202">
        <ele>651.400024</ele>
        <time>2011-12-18T11:37:32Z</time>
      </trkpt>
      <trkpt lat="43.59864" lon="6.2919">
        <ele>650.5</ele>
        <time>2011-12-18T11:37:39Z</time>
      </trkpt>
      <trkpt lat="43.59863" lon="6.29179">
        <ele>652</ele>
        <time>2011-12-18T11:37:46Z</time>
      </trkpt>
      <trkpt lat="43.59863" lon="6.29167">
        <ele>652.400024</ele>
        <time>2011-12-18T11:37:54Z</time>
      </trkpt>
      <trkpt lat="43.59863" lon="6.29156">
        <ele>652.5</ele>
        <time>2011-12-18T11:38:01Z</time>
      </trkpt>
      <trkpt lat="43.59862" lon="6.29145">
        <ele>652.799988</ele>
        <time>2011-12-18T11:38:09Z</time>
      </trkpt>
      <trkpt lat="43.59861" lon="6.29133">
        <ele>653.299988</ele>
        <time>2011-12-18T11:38:16Z</time>
      </trkpt>
      <trkpt lat="43.5986" lon="6.29122">
        <ele>651.799988</ele>
        <time>2011-12-18T11:38:24Z</time>
      </trkpt>
      <trkpt lat="43.5986" lon="6.2912">
        <ele>651.700012</ele>
        <time>2011-12-18T11:38:25Z</time>
      </trkpt>
      <trkpt lat="43.59851" lon="6.29105">
        <ele>652.599976</ele>
        <time>2011-12-18T11:38:42Z</time>
      </trkpt>
      <trkpt lat="43.59844" lon="6.29098">
        <ele>653.299988</ele>
        <time>2011-12-18T11:39:01Z</time>
      </trkpt>
      <trkpt lat="43.59835" lon="6.29097">
        <ele>653.599976</ele>
        <time>2011-12-18T11:39:14Z</time>
      </trkpt>
      <trkpt lat="43.59827" lon="6.29094">
        <ele>652.900024</ele>
        <time>2011-12-18T11:39:26Z</time>
      </trkpt>
      <trkpt lat="43.59826" lon="6.29094">
        <ele>652.799988</ele>
        <time>2011-12-18T11:39:27Z</time>
      </trkpt>
      <trkpt lat="43.59811" lon="6.29103">
        <ele>652</ele>
        <time>2011-12-18T11:40:01Z</time>
      </trkpt>
      <trkpt lat="43.59812" lon="6.29116">
        <ele>652.900024</ele>
        <time>2011-12-18T11:40:43Z</time>
      </trkpt>
      <trkpt lat="43.59812" lon="6.29116">
        <ele>653</ele>
        <time>2011-12-18T11:40:44Z</time>
      </trkpt>
      <trkpt lat="43.59813" lon="6.29111">
        <ele>656.799988</ele>
        <time>2011-12-18T11:42:47Z</time>
      </trkpt>
      <trkpt lat="43.59802" lon="6.2911">
        <ele>632.034668</ele>
        <time>2011-12-14T12:50:58Z</time>
      </trkpt>
      <trkpt lat="43.5979" lon="6.29111">
        <ele>633.63562</ele>
        <time>2011-12-14T12:50:58Z</time>
      </trkpt>
      <trkpt lat="43.59783" lon="6.29118">
        <ele>635.278015</ele>
        <time>2011-12-14T12:50:58Z</time>
      </trkpt>
      <trkpt lat="43.59771" lon="6.29115">
        <ele>636.410706</ele>
        <time>2011-12-14T12:50:58Z</time>
      </trkpt>
      <trkpt lat="43.59759" lon="6.29114">
        <ele>637.842102</ele>
        <time>2011-12-14T12:50:58Z</time>
      </trkpt>
      <trkpt lat="43.59747" lon="6.29112">
        <ele>638.796692</ele>
        <time>2011-12-14T12:50:58Z</time>
      </trkpt>
      <trkpt lat="43.59736" lon="6.29109">
        <ele>638.793945</ele>
        <time>2011-12-14T12:50:58Z</time>
      </trkpt>
      <trkpt lat="43.59726" lon="6.29104">
        <ele>638.594238</ele>
        <time>2011-12-14T12:50:58Z</time>
      </trkpt>
      <trkpt lat="43.59715" lon="6.29101">
        <ele>638.590881</ele>
        <time>2011-12-14T12:50:58Z</time>
      </trkpt>
      <trkpt lat="43.59703" lon="6.291">
        <ele>638.967529</ele>
        <time>2011-12-14T12:50:58Z</time>
      </trkpt>
      <trkpt lat="43.59691" lon="6.291">
        <ele>639.406555</ele>
        <time>2011-12-14T12:50:58Z</time>
      </trkpt>
      <trkpt lat="43.59679" lon="6.291">
        <ele>639.877991</ele>
        <time>2011-12-14T12:50:58Z</time>
      </trkpt>
      <trkpt lat="43.59668" lon="6.29103">
        <ele>640.530701</ele>
        <time>2011-12-14T12:50:58Z</time>
      </trkpt>
      <trkpt lat="43.59658" lon="6.29107">
        <ele>641.066589</ele>
        <time>2011-12-14T12:50:58Z</time>
      </trkpt>
      <trkpt lat="43.59647" lon="6.29109">
        <ele>641.282776</ele>
        <time>2011-12-14T12:50:58Z</time>
      </trkpt>
      <trkpt lat="43.59634" lon="6.29108">
        <ele>641.349365</ele>
        <time>2011-12-14T12:50:58Z</time>
      </trkpt>
      <trkpt lat="43.59624" lon="6.29104">
        <ele>641.215149</ele>
        <time>2011-12-14T12:50:58Z</time>
      </trkpt>
      <trkpt lat="43.59615" lon="6.29099">
        <ele>641.087646</ele>
        <time>2011-12-14T12:50:58Z</time>
      </trkpt>
      <trkpt lat="43.59595" lon="6.29095">
        <ele>641.199097</ele>
        <time>2011-12-14T20:15:59Z</time>
      </trkpt>
      <trkpt lat="43.59577" lon="6.29102">
        <ele>640.989929</ele>
        <time>2011-12-15T02:50:48Z</time>
      </trkpt>
      <trkpt lat="43.59563" lon="6.29116">
        <ele>640.07312</ele>
        <time>2011-12-15T09:10:26Z</time>
      </trkpt>
      <trkpt lat="43.59551" lon="6.29136">
        <ele>639.644592</ele>
        <time>2011-12-15T15:55:01Z</time>
      </trkpt>
      <trkpt lat="43.59538" lon="6.29153">
        <ele>639.081604</ele>
        <time>2011-12-15T16:59:32Z</time>
      </trkpt>
      <trkpt lat="43.59525" lon="6.29169">
        <ele>638.481934</ele>
        <time>2011-12-15T18:04:02Z</time>
      </trkpt>
      <trkpt lat="43.59512" lon="6.29182">
        <ele>638.087158</ele>
        <time>2011-12-15T19:04:57Z</time>
      </trkpt>
      <trkpt lat="43.59499" lon="6.29197">
        <ele>638.077026</ele>
        <time>2011-12-15T20:05:32Z</time>
      </trkpt>
      <trkpt lat="43.59484" lon="6.29209">
        <ele>637.912354</ele>
        <time>2011-12-15T21:09:07Z</time>
      </trkpt>
      <trkpt lat="43.5947" lon="6.29224">
        <ele>638.074097</ele>
        <time>2011-12-15T22:13:54Z</time>
      </trkpt>
      <trkpt lat="43.59461" lon="6.29244">
        <ele>639.134399</ele>
        <time>2011-12-15T23:16:59Z</time>
      </trkpt>
      <trkpt lat="43.59454" lon="6.29266">
        <ele>639.724365</ele>
        <time>2011-12-16T00:22:37Z</time>
      </trkpt>
      <trkpt lat="43.59443" lon="6.29286">
        <ele>639.897217</ele>
        <time>2011-12-16T01:28:27Z</time>
      </trkpt>
      <trkpt lat="43.59433" lon="6.29305">
        <ele>640.204834</ele>
        <time>2011-12-16T02:32:00Z</time>
      </trkpt>
      <trkpt lat="43.59423" lon="6.29328">
        <ele>640.897583</ele>
        <time>2011-12-16T03:43:37Z</time>
      </trkpt>
      <trkpt lat="43.59417" lon="6.29355">
        <ele>641.243896</ele>
        <time>2011-12-16T04:57:55Z</time>
      </trkpt>
      <trkpt lat="43.59412" lon="6.29383">
        <ele>641.291199</ele>
        <time>2011-12-16T06:15:52Z</time>
      </trkpt>
      <trkpt lat="43.59416" lon="6.29413">
        <ele>641.905945</ele>
        <time>2011-12-16T07:34:50Z</time>
      </trkpt>
      <trkpt lat="43.59396" lon="6.29407">
        <ele>640.545044</ele>
        <time>2011-12-16T08:50:27Z</time>
      </trkpt>
      <trkpt lat="43.59385" lon="6.2939">
        <ele>639.416016</ele>
        <time>2011-12-16T09:51:10Z</time>
      </trkpt>
      <trkpt lat="43.59371" lon="6.29405">
        <ele>638.899597</ele>
        <time>2011-12-16T10:57:42Z</time>
      </trkpt>
      <trkpt lat="43.59366" lon="6.29433">
        <ele>638.450562</ele>
        <time>2011-12-16T12:13:26Z</time>
      </trkpt>
      <trkpt lat="43.59367" lon="6.29463">
        <ele>637.463135</ele>
        <time>2011-12-16T13:33:38Z</time>
      </trkpt>
      <trkpt lat="43.59372" lon="6.29488">
        <ele>636.814026</ele>
        <time>2011-12-16T14:43:27Z</time>
      </trkpt>
      <trkpt lat="43.59379" lon="6.29513">
        <ele>634.802795</ele>
        <time>2011-12-16T15:54:03Z</time>
      </trkpt>
      <trkpt lat="43.5938" lon="6.29543">
        <ele>630.24762</ele>
        <time>2011-12-16T17:15:52Z</time>
      </trkpt>
      <trkpt lat="43.59384" lon="6.29569">
        <ele>626.522949</ele>
        <time>2011-12-16T18:27:49Z</time>
      </trkpt>
      <trkpt lat="43.59395" lon="6.29585">
        <ele>625.211853</ele>
        <time>2011-12-16T19:28:34Z</time>
      </trkpt>
      <trkpt lat="43.59405" lon="6.29603">
        <ele>626.010925</ele>
        <time>2011-12-16T20:29:26Z</time>
      </trkpt>
      <trkpt lat="43.5941" lon="6.29628">
        <ele>626.359741</ele>
        <time>2011-12-16T21:38:21Z</time>
      </trkpt>
      <trkpt lat="43.59402" lon="6.29651">
        <ele>625.628418</ele>
        <time>2011-12-16T22:43:57Z</time>
      </trkpt>
      <trkpt lat="43.59391" lon="6.29672">
        <ele>625.164856</ele>
        <time>2011-12-16T23:52:11Z</time>
      </trkpt>
      <trkpt lat="43.59375" lon="6.29681">
        <ele>625.262756</ele>
        <time>2011-12-17T00:56:29Z</time>
      </trkpt>
      <trkpt lat="43.59359" lon="6.29671">
        <ele>622.154663</ele>
        <time>2011-12-17T02:02:59Z</time>
      </trkpt>
      <trkpt lat="43.59343" lon="6.29678">
        <ele>622.380371</ele>
        <time>2011-12-17T02:25:13Z</time>
      </trkpt>
      <trkpt lat="43.5933" lon="6.29692">
        <ele>624.826172</ele>
        <time>2011-12-17T02:47:04Z</time>
      </trkpt>
      <trkpt lat="43.59316" lon="6.29705">
        <ele>625.120117</ele>
        <time>2011-12-17T03:09:50Z</time>
      </trkpt>
      <trkpt lat="43.59302" lon="6.29717">
        <ele>625.570312</ele>
        <time>2011-12-17T03:31:47Z</time>
      </trkpt>
      <trkpt lat="43.59288" lon="6.29734">
        <ele>627.211914</ele>
        <time>2011-12-17T03:55:36Z</time>
      </trkpt>
      <trkpt lat="43.59276" lon="6.2975">
        <ele>628.888672</ele>
        <time>2011-12-17T04:17:22Z</time>
      </trkpt>
      <trkpt lat="43.59265" lon="6.29768">
        <ele>630.136658</ele>
        <time>2011-12-17T04:39:55Z</time>
      </trkpt>
      <trkpt lat="43.59255" lon="6.29789">
        <ele>632.480713</ele>
        <time>2011-12-17T05:04:26Z</time>
      </trkpt>
      <trkpt lat="43.59245" lon="6.29809">
        <ele>634.40033</ele>
        <time>2011-12-17T05:27:35Z</time>
      </trkpt>
      <trkpt lat="43.59233" lon="6.29825">
        <ele>634.260803</ele>
        <time>2011-12-17T05:49:58Z</time>
      </trkpt>
      <trkpt lat="43.59221" lon="6.29843">
        <ele>633.701599</ele>
        <time>2011-12-17T06:13:06Z</time>
      </trkpt>
      <trkpt lat="43.59206" lon="6.29858">
        <ele>631.674011</ele>
        <time>2011-12-17T06:37:10Z</time>
      </trkpt>
      <trkpt lat="43.59194" lon="6.29873">
        <ele>630.99231</ele>
        <time>2011-12-17T06:58:49Z</time>
      </trkpt>
      <trkpt lat="43.59184" lon="6.29894">
        <ele>631.918396</ele>
        <time>2011-12-17T07:23:13Z</time>
      </trkpt>
      <trkpt lat="43.59174" lon="6.29915">
        <ele>633.389954</ele>
        <time>2011-12-17T07:47:10Z</time>
      </trkpt>
      <trkpt lat="43.59161" lon="6.29933">
        <ele>633.765503</ele>
        <time>2011-12-17T08:10:57Z</time>
      </trkpt>
      <trkpt lat="43.59149" lon="6.29952">
        <ele>634.952881</ele>
        <time>2011-12-17T08:35:31Z</time>
      </trkpt>
      <trkpt lat="43.59137" lon="6.2997">
        <ele>636.454224</ele>
        <time>2011-12-17T08:58:43Z</time>
      </trkpt>
      <trkpt lat="43.59123" lon="6.29988">
        <ele>638.235229</ele>
        <time>2011-12-17T09:24:39Z</time>
      </trkpt>
      <trkpt lat="43.59111" lon="6.30006">
        <ele>640.56897</ele>
        <time>2011-12-17T09:47:20Z</time>
      </trkpt>
      <trkpt lat="43.59102" lon="6.30025">
        <ele>643.630737</ele>
        <time>2011-12-17T10:09:49Z</time>
      </trkpt>
      <trkpt lat="43.59087" lon="6.30039">
        <ele>645.451599</ele>
        <time>2011-12-17T10:33:14Z</time>
      </trkpt>
      <trkpt lat="43.5907" lon="6.30049">
        <ele>645.725159</ele>
        <time>2011-12-17T10:57:33Z</time>
      </trkpt>
      <trkpt lat="43.59054" lon="6.3006">
        <ele>646.357605</ele>
        <time>2011-12-17T11:20:36Z</time>
      </trkpt>
      <trkpt lat="43.5904" lon="6.30072">
        <ele>647.190735</ele>
        <time>2011-12-17T11:42:51Z</time>
      </trkpt>
      <trkpt lat="43.59022" lon="6.3008">
        <ele>646.88446</ele>
        <time>2011-12-17T12:07:17Z</time>
      </trkpt>
      <trkpt lat="43.59004" lon="6.30086">
        <ele>645.539062</ele>
        <time>2011-12-17T12:32:04Z</time>
      </trkpt>
      <trkpt lat="43.5899" lon="6.30098">
        <ele>643.828857</ele>
        <time>2011-12-17T12:54:06Z</time>
      </trkpt>
      <trkpt lat="43.58975" lon="6.30111">
        <ele>642.506042</ele>
        <time>2011-12-17T13:16:53Z</time>
      </trkpt>
      <trkpt lat="43.58956" lon="6.30119">
        <ele>640.987061</ele>
        <time>2011-12-17T13:31:14Z</time>
      </trkpt>
      <trkpt lat="43.58945" lon="6.30137">
        <ele>641.737122</ele>
        <time>2011-12-17T13:43:54Z</time>
      </trkpt>
      <trkpt lat="43.58929" lon="6.30127">
        <ele>639.287292</ele>
        <time>2011-12-17T13:56:48Z</time>
      </trkpt>
      <trkpt lat="43.58938" lon="6.30103">
        <ele>637.414978</ele>
        <time>2011-12-17T14:11:01Z</time>
      </trkpt>
      <trkpt lat="43.58917" lon="6.30106">
        <ele>635.138794</ele>
        <time>2011-12-17T14:26:19Z</time>
      </trkpt>
      <trkpt lat="43.58895" lon="6.30106">
        <ele>631.583679</ele>
        <time>2011-12-17T14:42:08Z</time>
      </trkpt>
      <trkpt lat="43.58898" lon="6.30077">
        <ele>626.944336</ele>
        <time>2011-12-17T14:57:31Z</time>
      </trkpt>
      <trkpt lat="43.58906" lon="6.30055">
        <ele>623.101929</ele>
        <time>2011-12-17T15:10:31Z</time>
      </trkpt>
      <trkpt lat="43.58915" lon="6.30031">
        <ele>619.002625</ele>
        <time>2011-12-17T15:24:56Z</time>
      </trkpt>
      <trkpt lat="43.58923" lon="6.30003">
        <ele>613.522827</ele>
        <time>2011-12-17T15:40:36Z</time>
      </trkpt>
      <trkpt lat="43.58927" lon="6.29976">
        <ele>607.568604</ele>
        <time>2011-12-17T15:55:49Z</time>
      </trkpt>
      <trkpt lat="43.58931" lon="6.29947">
        <ele>601.28717</ele>
        <time>2011-12-17T16:11:32Z</time>
      </trkpt>
      <trkpt lat="43.58934" lon="6.29915">
        <ele>594.282959</ele>
        <time>2011-12-17T16:28:48Z</time>
      </trkpt>
      <trkpt lat="43.5893" lon="6.29889">
        <ele>590.283386</ele>
        <time>2011-12-17T16:42:57Z</time>
      </trkpt>
      <trkpt lat="43.58919" lon="6.29871">
        <ele>586.731567</ele>
        <time>2011-12-17T16:55:20Z</time>
      </trkpt>
      <trkpt lat="43.58906" lon="6.29855">
        <ele>583.913086</ele>
        <time>2011-12-17T17:07:44Z</time>
      </trkpt>
      <trkpt lat="43.58899" lon="6.29833">
        <ele>580.919922</ele>
        <time>2011-12-17T17:20:22Z</time>
      </trkpt>
      <trkpt lat="43.58895" lon="6.29808">
        <ele>578.24707</ele>
        <time>2011-12-17T17:33:53Z</time>
      </trkpt>
      <trkpt lat="43.58895" lon="6.29776">
        <ele>575.141602</ele>
        <time>2011-12-17T17:50:40Z</time>
      </trkpt>
      <trkpt lat="43.58897" lon="6.29746">
        <ele>572.478333</ele>
        <time>2011-12-17T18:06:21Z</time>
      </trkpt>
      <trkpt lat="43.58891" lon="6.29723">
        <ele>570.032288</ele>
        <time>2011-12-17T18:19:24Z</time>
      </trkpt>
      <trkpt lat="43.58878" lon="6.29703">
        <ele>567.460388</ele>
        <time>2011-12-17T18:33:11Z</time>
      </trkpt>
      <trkpt lat="43.5887" lon="6.29682">
        <ele>564.983887</ele>
        <time>2011-12-17T18:45:48Z</time>
      </trkpt>
      <trkpt lat="43.5886" lon="6.29659">
        <ele>562.180481</ele>
        <time>2011-12-17T18:59:55Z</time>
      </trkpt>
      <trkpt lat="43.58851" lon="6.29637">
        <ele>559.576721</ele>
        <time>2011-12-17T19:12:50Z</time>
      </trkpt>
      <trkpt lat="43.58838" lon="6.29621">
        <ele>556.979065</ele>
        <time>2011-12-17T19:25:32Z</time>
      </trkpt>
      <trkpt lat="43.58824" lon="6.29605">
        <ele>554.522888</ele>
        <time>2011-12-17T19:38:45Z</time>
      </trkpt>
      <trkpt lat="43.58804" lon="6.29595">
        <ele>552.698547</ele>
        <time>2011-12-17T19:53:36Z</time>
      </trkpt>
      <trkpt lat="43.58788" lon="6.29584">
        <ele>551.377869</ele>
        <time>2011-12-17T20:06:55Z</time>
      </trkpt>
      <trkpt lat="43.58777" lon="6.29564">
        <ele>551.058899</ele>
        <time>2011-12-17T20:19:55Z</time>
      </trkpt>
      <trkpt lat="43.58764" lon="6.29546">
        <ele>550.805664</ele>
        <time>2011-12-17T20:32:51Z</time>
      </trkpt>
      <trkpt lat="43.58755" lon="6.29527">
        <ele>550.779785</ele>
        <time>2011-12-17T20:44:46Z</time>
      </trkpt>
      <trkpt lat="43.58748" lon="6.29503">
        <ele>550.952881</ele>
        <time>2011-12-17T20:58:13Z</time>
      </trkpt>
      <trkpt lat="43.58746" lon="6.29476">
        <ele>549.768555</ele>
        <time>2011-12-17T21:12:27Z</time>
      </trkpt>
      <trkpt lat="43.58744" lon="6.29447">
        <ele>548.360352</ele>
        <time>2011-12-17T21:27:35Z</time>
      </trkpt>
      <trkpt lat="43.58742" lon="6.29419">
        <ele>546.984375</ele>
        <time>2011-12-17T21:42:15Z</time>
      </trkpt>
      <trkpt lat="43.58728" lon="6.29403">
        <ele>545.647644</ele>
        <time>2011-12-17T21:55:24Z</time>
      </trkpt>
      <trkpt lat="43.58711" lon="6.29394">
        <ele>544.589905</ele>
        <time>2011-12-17T22:08:31Z</time>
      </trkpt>
      <trkpt lat="43.58693" lon="6.29383">
        <ele>543.325134</ele>
        <time>2011-12-17T22:22:19Z</time>
      </trkpt>
      <trkpt lat="43.58674" lon="6.29369">
        <ele>541.628479</ele>
        <time>2011-12-17T22:37:46Z</time>
      </trkpt>
      <trkpt lat="43.58661" lon="6.29354">
        <ele>539.966858</ele>
        <time>2011-12-17T22:50:30Z</time>
      </trkpt>
      <trkpt lat="43.58656" lon="6.29326">
        <ele>537.383301</ele>
        <time>2011-12-17T23:05:33Z</time>
      </trkpt>
      <trkpt lat="43.58652" lon="6.29301">
        <ele>534.930847</ele>
        <time>2011-12-17T23:19:03Z</time>
      </trkpt>
      <trkpt lat="43.58645" lon="6.29276">
        <ele>533.02887</ele>
        <time>2011-12-17T23:27:28Z</time>
      </trkpt>
      <trkpt lat="43.58638" lon="6.2925">
        <ele>531.40332</ele>
        <time>2011-12-17T23:36:37Z</time>
      </trkpt>
      <trkpt lat="43.58639" lon="6.29217">
        <ele>530.077148</ele>
        <time>2011-12-17T23:47:18Z</time>
      </trkpt>
      <trkpt lat="43.58637" lon="6.29188">
        <ele>529.262695</ele>
        <time>2011-12-17T23:56:45Z</time>
      </trkpt>
      <trkpt lat="43.58631" lon="6.29166">
        <ele>529.294006</ele>
        <time>2011-12-18T00:04:31Z</time>
      </trkpt>
      <trkpt lat="43.58624" lon="6.29143">
        <ele>529.84729</ele>
        <time>2011-12-18T00:12:17Z</time>
      </trkpt>
      <trkpt lat="43.58617" lon="6.2912">
        <ele>530.562012</ele>
        <time>2011-12-18T00:20:22Z</time>
      </trkpt>
      <trkpt lat="43.58614" lon="6.29094">
        <ele>530.943909</ele>
        <time>2011-12-18T00:28:57Z</time>
      </trkpt>
      <trkpt lat="43.58606" lon="6.29072">
        <ele>531.884155</ele>
        <time>2011-12-18T00:36:52Z</time>
      </trkpt>
      <trkpt lat="43.58598" lon="6.29049">
        <ele>532.863403</ele>
        <time>2011-12-18T00:45:15Z</time>
      </trkpt>
      <trkpt lat="43.58591" lon="6.29025">
        <ele>533.726196</ele>
        <time>2011-12-18T00:53:20Z</time>
      </trkpt>
      <trkpt lat="43.58587" lon="6.29">
        <ele>534.215942</ele>
        <time>2011-12-18T01:01:41Z</time>
      </trkpt>
      <trkpt lat="43.5858" lon="6.28978">
        <ele>533.096436</ele>
        <time>2011-12-18T01:09:36Z</time>
      </trkpt>
      <trkpt lat="43.58578" lon="6.28949">
        <ele>530.781555</ele>
        <time>2011-12-18T01:19:06Z</time>
      </trkpt>
      <trkpt lat="43.58573" lon="6.28923">
        <ele>528.893921</ele>
        <time>2011-12-18T01:27:48Z</time>
      </trkpt>
      <trkpt lat="43.58571" lon="6.28895">
        <ele>526.733765</ele>
        <time>2011-12-18T01:37:00Z</time>
      </trkpt>
      <trkpt lat="43.58573" lon="6.28864">
        <ele>523.887146</ele>
        <time>2011-12-18T01:47:06Z</time>
      </trkpt>
      <trkpt lat="43.58574" lon="6.28833">
        <ele>521.102173</ele>
        <time>2011-12-18T01:57:11Z</time>
      </trkpt>
      <trkpt lat="43.58561" lon="6.28818">
        <ele>520.635498</ele>
        <time>2011-12-18T02:04:37Z</time>
      </trkpt>
      <trkpt lat="43.58547" lon="6.28805">
        <ele>520.469604</ele>
        <time>2011-12-18T02:12:07Z</time>
      </trkpt>
      <trkpt lat="43.58533" lon="6.28791">
        <ele>520.187073</ele>
        <time>2011-12-18T02:19:50Z</time>
      </trkpt>
      <trkpt lat="43.58526" lon="6.28768">
        <ele>517.849243</ele>
        <time>2011-12-18T02:27:39Z</time>
      </trkpt>
      <trkpt lat="43.5853" lon="6.28741">
        <ele>512.539429</ele>
        <time>2011-12-18T02:37:01Z</time>
      </trkpt>
      <trkpt lat="43.58537" lon="6.28717">
        <ele>506.520447</ele>
        <time>2011-12-18T02:45:30Z</time>
      </trkpt>
      <trkpt lat="43.58527" lon="6.287">
        <ele>504.505524</ele>
        <time>2011-12-18T02:52:52Z</time>
      </trkpt>
      <trkpt lat="43.5851" lon="6.2869">
        <ele>505.017731</ele>
        <time>2011-12-18T03:01:09Z</time>
      </trkpt>
      <trkpt lat="43.58524" lon="6.28597">
        <ele>484.6763</ele>
        <time>2011-12-18T03:46:19Z</time>
      </trkpt>
      <trkpt lat="43.58523" lon="6.28506">
        <ele>469.256836</ele>
        <time>2011-12-18T04:29:15Z</time>
      </trkpt>
      <trkpt lat="43.58553" lon="6.28448">
        <ele>460.368134</ele>
        <time>2011-12-18T05:02:11Z</time>
      </trkpt>
      <trkpt lat="43.58591" lon="6.284">
        <ele>460.045044</ele>
        <time>2011-12-18T05:34:57Z</time>
      </trkpt>
      <trkpt lat="43.58645" lon="6.28426">
        <ele>466.001007</ele>
        <time>2011-12-18T06:11:23Z</time>
      </trkpt>
      <trkpt lat="43.58703" lon="6.28449">
        <ele>472.150146</ele>
        <time>2011-12-18T06:50:14Z</time>
      </trkpt>
      <trkpt lat="43.58711" lon="6.28358">
        <ele>480.495087</ele>
        <time>2011-12-18T07:32:32Z</time>
      </trkpt>
      <trkpt lat="43.58698" lon="6.28282">
        <ele>484.16626</ele>
        <time>2011-12-18T08:08:45Z</time>
      </trkpt>
      <trkpt lat="43.58728" lon="6.28224">
        <ele>491.651276</ele>
        <time>2011-12-18T08:41:33Z</time>
      </trkpt>
      <trkpt lat="43.58779" lon="6.28253">
        <ele>500.861664</ele>
        <time>2011-12-18T09:17:15Z</time>
      </trkpt>
      <trkpt lat="43.58771" lon="6.28168">
        <ele>498.263702</ele>
        <time>2011-12-18T09:56:59Z</time>
      </trkpt>
      <trkpt lat="43.58727" lon="6.2813">
        <ele>492.803711</ele>
        <time>2011-12-18T10:30:12Z</time>
      </trkpt>
      <trkpt lat="43.58752" lon="6.28062">
        <ele>496.358002</ele>
        <time>2011-12-18T11:05:13Z</time>
      </trkpt>
      <trkpt lat="43.58777" lon="6.27995">
        <ele>489.891632</ele>
        <time>2011-12-18T11:40:23Z</time>
      </trkpt>
      <trkpt lat="43.588" lon="6.27924">
        <ele>478.242584</ele>
        <time>2011-12-18T12:16:43Z</time>
      </trkpt>
      <trkpt lat="43.58806" lon="6.2783">
        <ele>472.75174</ele>
        <time>2011-12-18T13:00:14Z</time>
      </trkpt>
      <trkpt lat="43.58759" lon="6.27796">
        <ele>468.483093</ele>
        <time>2011-12-18T13:34:02Z</time>
      </trkpt>
      <trkpt lat="43.5874" lon="6.27817">
        <ele>438.899994</ele>
        <time>2011-12-18T13:57:11Z</time>
      </trkpt>
      <trkpt lat="43.58745" lon="6.27807">
        <ele>438.700012</ele>
        <time>2011-12-18T13:57:43Z</time>
      </trkpt>
      <trkpt lat="43.58744" lon="6.27805">
        <ele>438.600006</ele>
        <time>2011-12-18T13:57:44Z</time>
      </trkpt>
      <trkpt lat="43.58732" lon="6.27794">
        <ele>436</ele>
        <time>2011-12-18T13:58:10Z</time>
      </trkpt>
      <trkpt lat="43.58728" lon="6.27805">
        <ele>434.899994</ele>
        <time>2011-12-18T13:58:15Z</time>
      </trkpt>
      <trkpt lat="43.5872" lon="6.27811">
        <ele>432.799988</ele>
        <time>2011-12-18T13:58:28Z</time>
      </trkpt>
      <trkpt lat="43.58714" lon="6.27803">
        <ele>432.100006</ele>
        <time>2011-12-18T13:58:47Z</time>
      </trkpt>
      <trkpt lat="43.58713" lon="6.27803">
        <ele>432</ele>
        <time>2011-12-18T13:58:48Z</time>
      </trkpt>
      <trkpt lat="43.58705" lon="6.27824">
        <ele>430.600006</ele>
        <time>2011-12-18T13:59:28Z</time>
      </trkpt>
      <trkpt lat="43.58702" lon="6.27813">
        <ele>429</ele>
        <time>2011-12-18T13:59:55Z</time>
      </trkpt>
      <trkpt lat="43.58701" lon="6.27812">
        <ele>428.799988</ele>
        <time>2011-12-18T13:59:56Z</time>
      </trkpt>
      <trkpt lat="43.58703" lon="6.27791">
        <ele>427.399994</ele>
        <time>2011-12-18T14:00:14Z</time>
      </trkpt>
      <trkpt lat="43.58703" lon="6.27779">
        <ele>428</ele>
        <time>2011-12-18T14:00:22Z</time>
      </trkpt>
      <trkpt lat="43.5871" lon="6.27771">
        <ele>428.299988</ele>
        <time>2011-12-18T14:01:04Z</time>
      </trkpt>
      <trkpt lat="43.58711" lon="6.27771">
        <ele>428.5</ele>
        <time>2011-12-18T14:01:05Z</time>
      </trkpt>
      <trkpt lat="43.5872" lon="6.27753">
        <ele>421.299988</ele>
        <time>2011-12-18T14:01:52Z</time>
      </trkpt>
      <trkpt lat="43.58717" lon="6.27741">
        <ele>420.200012</ele>
        <time>2011-12-18T14:02:12Z</time>
      </trkpt>
      <trkpt lat="43.58717" lon="6.2774">
        <ele>420.200012</ele>
        <time>2011-12-18T14:02:13Z</time>
      </trkpt>
      <trkpt lat="43.5871" lon="6.27745">
        <ele>415.200012</ele>
        <time>2011-12-18T14:02:44Z</time>
      </trkpt>
      <trkpt lat="43.58708" lon="6.27756">
        <ele>412.399994</ele>
        <time>2011-12-18T14:02:59Z</time>
      </trkpt>
      <trkpt lat="43.587" lon="6.2775">
        <ele>410.200012</ele>
        <time>2011-12-18T14:03:10Z</time>
      </trkpt>
      <trkpt lat="43.58698" lon="6.2774">
        <ele>409.899994</ele>
        <time>2011-12-18T14:03:16Z</time>
      </trkpt>
      <trkpt lat="43.58697" lon="6.27738">
        <ele>409.799988</ele>
        <time>2011-12-18T14:03:17Z</time>
      </trkpt>
      <trkpt lat="43.58685" lon="6.27727">
        <ele>407.299988</ele>
        <time>2011-12-18T14:03:29Z</time>
      </trkpt>
      <trkpt lat="43.58677" lon="6.27728">
        <ele>406.5</ele>
        <time>2011-12-18T14:03:41Z</time>
      </trkpt>
      <trkpt lat="43.5867" lon="6.27735">
        <ele>405.200012</ele>
        <time>2011-12-18T14:03:47Z</time>
      </trkpt>
      <trkpt lat="43.58662" lon="6.27736">
        <ele>402.600006</ele>
        <time>2011-12-18T14:03:54Z</time>
      </trkpt>
      <trkpt lat="43.58656" lon="6.2774">
        <ele>401.600006</ele>
        <time>2011-12-18T14:03:57Z</time>
      </trkpt>
      <trkpt lat="43.5865" lon="6.27749">
        <ele>401.200012</ele>
        <time>2011-12-18T14:04:01Z</time>
      </trkpt>
      <trkpt lat="43.58651" lon="6.2776">
        <ele>401</ele>
        <time>2011-12-18T14:04:06Z</time>
      </trkpt>
      <trkpt lat="43.58659" lon="6.27766">
        <ele>401</ele>
        <time>2011-12-18T14:04:11Z</time>
      </trkpt>
      <trkpt lat="43.58668" lon="6.27764">
        <ele>400.600006</ele>
        <time>2011-12-18T14:04:18Z</time>
      </trkpt>
      <trkpt lat="43.58668" lon="6.27763">
        <ele>400.600006</ele>
        <time>2011-12-18T14:04:19Z</time>
      </trkpt>
      <trkpt lat="43.58677" lon="6.27783">
        <ele>400.399994</ele>
        <time>2011-12-18T14:04:40Z</time>
      </trkpt>
      <trkpt lat="43.58675" lon="6.27794">
        <ele>400.600006</ele>
        <time>2011-12-18T14:04:47Z</time>
      </trkpt>
      <trkpt lat="43.58667" lon="6.27789">
        <ele>400.899994</ele>
        <time>2011-12-18T14:05:10Z</time>
      </trkpt>
      <trkpt lat="43.58664" lon="6.27782">
        <ele>400.700012</ele>
        <time>2011-12-18T14:05:41Z</time>
      </trkpt>
      <trkpt lat="43.58661" lon="6.27778">
        <ele>400.600006</ele>
        <time>2011-12-18T14:05:42Z</time>
      </trkpt>
      <trkpt lat="43.58666" lon="6.27782">
        <ele>401.100006</ele>
        <time>2011-12-18T14:06:58Z</time>
      </trkpt>
      <trkpt lat="43.58665" lon="6.2778">
        <ele>401.200012</ele>
        <time>2011-12-18T14:06:59Z</time>
      </trkpt>
      <trkpt lat="43.58668" lon="6.27767">
        <ele>400.700012</ele>
        <time>2011-12-18T14:07:36Z</time>
      </trkpt>
      <trkpt lat="43.58673" lon="6.27758">
        <ele>400.799988</ele>
        <time>2011-12-18T14:07:45Z</time>
      </trkpt>
      <trkpt lat="43.58674" lon="6.27746">
        <ele>400.5</ele>
        <time>2011-12-18T14:07:54Z</time>
      </trkpt>
      <trkpt lat="43.5867" lon="6.27736">
        <ele>400.600006</ele>
        <time>2011-12-18T14:08:05Z</time>
      </trkpt>
      <trkpt lat="43.58668" lon="6.27736">
        <ele>400.600006</ele>
        <time>2011-12-18T14:08:06Z</time>
      </trkpt>
      <trkpt lat="43.58655" lon="6.2773">
        <ele>399.5</ele>
        <time>2011-12-18T14:08:19Z</time>
      </trkpt>
      <trkpt lat="43.58647" lon="6.27725">
        <ele>398.899994</ele>
        <time>2011-12-18T14:08:29Z</time>
      </trkpt>
      <trkpt lat="43.58638" lon="6.27725">
        <ele>395.899994</ele>
        <time>2011-12-18T14:09:13Z</time>
      </trkpt>
      <trkpt lat="43.58637" lon="6.27724">
        <ele>396</ele>
        <time>2011-12-18T14:09:14Z</time>
      </trkpt>
      <trkpt lat="43.58621" lon="6.2773">
        <ele>393.600006</ele>
        <time>2011-12-18T14:09:35Z</time>
      </trkpt>
      <trkpt lat="43.58627" lon="6.2774">
        <ele>393.200012</ele>
        <time>2011-12-18T14:10:09Z</time>
      </trkpt>
      <trkpt lat="43.58635" lon="6.27736">
        <ele>394.899994</ele>
        <time>2011-12-18T14:13:00Z</time>
      </trkpt>
      <trkpt lat="43.58635" lon="6.27736">
        <ele>394.799988</ele>
        <time>2011-12-18T14:13:01Z</time>
      </trkpt>
      <trkpt lat="43.58652" lon="6.27735">
        <ele>398</ele>
        <time>2011-12-18T14:13:41Z</time>
      </trkpt>
      <trkpt lat="43.58653" lon="6.27724">
        <ele>399.899994</ele>
        <time>2011-12-18T14:14:05Z</time>
      </trkpt>
      <trkpt lat="43.58654" lon="6.27722">
        <ele>400</ele>
        <time>2011-12-18T14:14:06Z</time>
      </trkpt>
      <trkpt lat="43.5865" lon="6.27702">
        <ele>402.899994</ele>
        <time>2011-12-18T14:14:29Z</time>
      </trkpt>
      <trkpt lat="43.58648" lon="6.2769">
        <ele>405.100006</ele>
        <time>2011-12-18T14:14:53Z</time>
      </trkpt>
      <trkpt lat="43.58642" lon="6.27697">
        <ele>407.799988</ele>
        <time>2011-12-18T14:15:33Z</time>
      </trkpt>
      <trkpt lat="43.5864" lon="6.27696">
        <ele>408</ele>
        <time>2011-12-18T14:15:34Z</time>
      </trkpt>
      <trkpt lat="43.58642" lon="6.27682">
        <ele>407.799988</ele>
        <time>2011-12-18T14:17:04Z</time>
      </trkpt>
      <trkpt lat="43.58642" lon="6.27682">
        <ele>407.600006</ele>
        <time>2011-12-18T14:17:05Z</time>
      </trkpt>
      <trkpt lat="43.5865" lon="6.27677">
        <ele>408.600006</ele>
        <time>2011-12-18T14:21:07Z</time>
      </trkpt>
      <trkpt lat="43.5864" lon="6.2768">
        <ele>409</ele>
        <time>2011-12-18T14:22:19Z</time>
      </trkpt>
      <trkpt lat="43.58658" lon="6.27686">
        <ele>406.399994</ele>
        <time>2011-12-18T14:24:06Z</time>
      </trkpt>
      <trkpt lat="43.58658" lon="6.27686">
        <ele>406.200012</ele>
        <time>2011-12-18T14:24:07Z</time>
      </trkpt>
      <trkpt lat="43.58648" lon="6.27685">
        <ele>406.600006</ele>
        <time>2011-12-18T14:25:13Z</time>
      </trkpt>
      <trkpt lat="43.58635" lon="6.27694">
        <ele>409.200012</ele>
        <time>2011-12-18T14:28:08Z</time>
      </trkpt>
      <trkpt lat="43.58635" lon="6.27694">
        <ele>409</ele>
        <time>2011-12-18T14:28:09Z</time>
      </trkpt>
      <trkpt lat="43.58649" lon="6.27699">
        <ele>407</ele>
        <time>2011-12-18T14:29:01Z</time>
      </trkpt>
      <trkpt lat="43.58658" lon="6.27694">
        <ele>407.299988</ele>
        <time>2011-12-18T14:29:08Z</time>
      </trkpt>
      <trkpt lat="43.58665" lon="6.27691">
        <ele>409</ele>
        <time>2011-12-18T14:29:16Z</time>
      </trkpt>
      <trkpt lat="43.58666" lon="6.27691">
        <ele>408.600006</ele>
        <time>2011-12-18T14:29:17Z</time>
      </trkpt>
      <trkpt lat="43.58679" lon="6.27678">
        <ele>411.100006</ele>
        <time>2011-12-18T14:29:37Z</time>
      </trkpt>
      <trkpt lat="43.58681" lon="6.27667">
        <ele>413</ele>
        <time>2011-12-18T14:29:45Z</time>
      </trkpt>
      <trkpt lat="43.58679" lon="6.27656">
        <ele>413.799988</ele>
        <time>2011-12-18T14:29:54Z</time>
      </trkpt>
      <trkpt lat="43.5867" lon="6.27653">
        <ele>414.399994</ele>
        <time>2011-12-18T14:30:04Z</time>
      </trkpt>
      <trkpt lat="43.58678" lon="6.27647">
        <ele>417.899994</ele>
        <time>2011-12-18T14:30:36Z</time>
      </trkpt>
      <trkpt lat="43.58679" lon="6.27648">
        <ele>418</ele>
        <time>2011-12-18T14:30:37Z</time>
      </trkpt>
      <trkpt lat="43.58693" lon="6.2765">
        <ele>419.299988</ele>
        <time>2011-12-18T14:30:55Z</time>
      </trkpt>
      <trkpt lat="43.587" lon="6.27643">
        <ele>420.100006</ele>
        <time>2011-12-18T14:31:02Z</time>
      </trkpt>
      <trkpt lat="43.58704" lon="6.27633">
        <ele>421.100006</ele>
        <time>2011-12-18T14:31:09Z</time>
      </trkpt>
      <trkpt lat="43.58708" lon="6.27622">
        <ele>421.899994</ele>
        <time>2011-12-18T14:31:16Z</time>
      </trkpt>
      <trkpt lat="43.58712" lon="6.27612">
        <ele>423.100006</ele>
        <time>2011-12-18T14:31:23Z</time>
      </trkpt>
      <trkpt lat="43.58716" lon="6.27602">
        <ele>425.700012</ele>
        <time>2011-12-18T14:31:29Z</time>
      </trkpt>
      <trkpt lat="43.58718" lon="6.27591">
        <ele>426</ele>
        <time>2011-12-18T14:31:37Z</time>
      </trkpt>
      <trkpt lat="43.58718" lon="6.27588">
        <ele>425.899994</ele>
        <time>2011-12-18T14:31:38Z</time>
      </trkpt>
      <trkpt lat="43.58717" lon="6.27568">
        <ele>423.799988</ele>
        <time>2011-12-18T14:31:50Z</time>
      </trkpt>
      <trkpt lat="43.58716" lon="6.27556">
        <ele>423.200012</ele>
        <time>2011-12-18T14:31:56Z</time>
      </trkpt>
      <trkpt lat="43.58715" lon="6.27546">
        <ele>422.5</ele>
        <time>2011-12-18T14:32:02Z</time>
      </trkpt>
      <trkpt lat="43.58715" lon="6.27534">
        <ele>421.100006</ele>
        <time>2011-12-18T14:32:10Z</time>
      </trkpt>
      <trkpt lat="43.58712" lon="6.27522">
        <ele>422.299988</ele>
        <time>2011-12-18T14:32:19Z</time>
      </trkpt>
      <trkpt lat="43.58705" lon="6.27528">
        <ele>422.799988</ele>
        <time>2011-12-18T14:32:49Z</time>
      </trkpt>
      <trkpt lat="43.58705" lon="6.27529">
        <ele>423</ele>
        <time>2011-12-18T14:32:50Z</time>
      </trkpt>
      <trkpt lat="43.58693" lon="6.27545">
        <ele>422.399994</ele>
        <time>2011-12-18T14:33:14Z</time>
      </trkpt>
      <trkpt lat="43.58688" lon="6.27554">
        <ele>423.5</ele>
        <time>2011-12-18T14:33:26Z</time>
      </trkpt>
      <trkpt lat="43.5868" lon="6.2756">
        <ele>424.200012</ele>
        <time>2011-12-18T14:33:37Z</time>
      </trkpt>
      <trkpt lat="43.58672" lon="6.2756">
        <ele>424.100006</ele>
        <time>2011-12-18T14:33:49Z</time>
      </trkpt>
      <trkpt lat="43.58663" lon="6.27561">
        <ele>423.799988</ele>
        <time>2011-12-18T14:34:00Z</time>
      </trkpt>
      <trkpt lat="43.58662" lon="6.27561">
        <ele>423.700012</ele>
        <time>2011-12-18T14:34:01Z</time>
      </trkpt>
      <trkpt lat="43.58646" lon="6.27564">
        <ele>423.5</ele>
        <time>2011-12-18T14:34:17Z</time>
      </trkpt>
      <trkpt lat="43.5864" lon="6.2757">
        <ele>424.100006</ele>
        <time>2011-12-18T14:34:26Z</time>
      </trkpt>
      <trkpt lat="43.58631" lon="6.27569">
        <ele>426.200012</ele>
        <time>2011-12-18T14:37:15Z</time>
      </trkpt>
      <trkpt lat="43.58631" lon="6.27568">
        <ele>426.5</ele>
        <time>2011-12-18T14:37:16Z</time>
      </trkpt>
      <trkpt lat="43.58629" lon="6.27579">
        <ele>423.100006</ele>
        <time>2011-12-18T14:38:16Z</time>
      </trkpt>
      <trkpt lat="43.5863" lon="6.27579">
        <ele>423.200012</ele>
        <time>2011-12-18T14:38:17Z</time>
      </trkpt>
      <trkpt lat="43.58645" lon="6.27574">
        <ele>424</ele>
        <time>2011-12-18T14:38:36Z</time>
      </trkpt>
      <trkpt lat="43.58654" lon="6.27574">
        <ele>424</ele>
        <time>2011-12-18T14:38:44Z</time>
      </trkpt>
      <trkpt lat="43.58662" lon="6.27572">
        <ele>423.299988</ele>
        <time>2011-12-18T14:38:50Z</time>
      </trkpt>
      <trkpt lat="43.5867" lon="6.2757">
        <ele>424</ele>
        <time>2011-12-18T14:38:56Z</time>
      </trkpt>
      <trkpt lat="43.58677" lon="6.2757">
        <ele>424.5</ele>
        <time>2011-12-18T14:39:00Z</time>
      </trkpt>
      <trkpt lat="43.58686" lon="6.27565">
        <ele>424.299988</ele>
        <time>2011-12-18T14:39:08Z</time>
      </trkpt>
      <trkpt lat="43.58692" lon="6.27557">
        <ele>423.700012</ele>
        <time>2011-12-18T14:39:17Z</time>
      </trkpt>
      <trkpt lat="43.58693" lon="6.27556">
        <ele>423.5</ele>
        <time>2011-12-18T14:39:18Z</time>
      </trkpt>
      <trkpt lat="43.58703" lon="6.27541">
        <ele>423.700012</ele>
        <time>2011-12-18T14:39:26Z</time>
      </trkpt>
      <trkpt lat="43.58707" lon="6.27531">
        <ele>423.700012</ele>
        <time>2011-12-18T14:39:34Z</time>
      </trkpt>
      <trkpt lat="43.5871" lon="6.27521">
        <ele>422.799988</ele>
        <time>2011-12-18T14:39:39Z</time>
      </trkpt>
      <trkpt lat="43.58713" lon="6.2751">
        <ele>422.100006</ele>
        <time>2011-12-18T14:39:45Z</time>
      </trkpt>
      <trkpt lat="43.58715" lon="6.27499">
        <ele>421.200012</ele>
        <time>2011-12-18T14:39:53Z</time>
      </trkpt>
      <trkpt lat="43.58718" lon="6.27487">
        <ele>419.899994</ele>
        <time>2011-12-18T14:39:58Z</time>
      </trkpt>
      <trkpt lat="43.5872" lon="6.27475">
        <ele>419.5</ele>
        <time>2011-12-18T14:40:08Z</time>
      </trkpt>
      <trkpt lat="43.58722" lon="6.27464">
        <ele>418.700012</ele>
        <time>2011-12-18T14:40:13Z</time>
      </trkpt>
      <trkpt lat="43.58721" lon="6.27453">
        <ele>418</ele>
        <time>2011-12-18T14:40:23Z</time>
      </trkpt>
      <trkpt lat="43.58721" lon="6.27452">
        <ele>417.799988</ele>
        <time>2011-12-18T14:40:24Z</time>
      </trkpt>
      <trkpt lat="43.58715" lon="6.27438">
        <ele>417.299988</ele>
        <time>2011-12-18T14:41:03Z</time>
      </trkpt>
      <trkpt lat="43.58718" lon="6.27426">
        <ele>416.899994</ele>
        <time>2011-12-18T14:43:38Z</time>
      </trkpt>
      <trkpt lat="43.58719" lon="6.27426">
        <ele>416.700012</ele>
        <time>2011-12-18T14:43:39Z</time>
      </trkpt>
      <trkpt lat="43.58713" lon="6.27405">
        <ele>416.5</ele>
        <time>2011-12-18T14:44:07Z</time>
      </trkpt>
      <trkpt lat="43.58707" lon="6.27397">
        <ele>415.5</ele>
        <time>2011-12-18T14:44:22Z</time>
      </trkpt>
      <trkpt lat="43.58705" lon="6.27385">
        <ele>413</ele>
        <time>2011-12-18T14:45:04Z</time>
      </trkpt>
      <trkpt lat="43.58705" lon="6.27384">
        <ele>413</ele>
        <time>2011-12-18T14:45:05Z</time>
      </trkpt>
      <trkpt lat="43.58695" lon="6.27366">
        <ele>411.700012</ele>
        <time>2011-12-18T14:45:28Z</time>
      </trkpt>
      <trkpt lat="43.58688" lon="6.27362">
        <ele>411</ele>
        <time>2011-12-18T14:45:34Z</time>
      </trkpt>
      <trkpt lat="43.5868" lon="6.27357">
        <ele>408.700012</ele>
        <time>2011-12-18T14:45:44Z</time>
      </trkpt>
      <trkpt lat="43.58672" lon="6.27351">
        <ele>407.799988</ele>
        <time>2011-12-18T14:45:53Z</time>
      </trkpt>
      <trkpt lat="43.58666" lon="6.27344">
        <ele>408.200012</ele>
        <time>2011-12-18T14:46:00Z</time>
      </trkpt>
      <trkpt lat="43.58658" lon="6.27339">
        <ele>407.799988</ele>
        <time>2011-12-18T14:46:08Z</time>
      </trkpt>
      <trkpt lat="43.58657" lon="6.27339">
        <ele>407.899994</ele>
        <time>2011-12-18T14:46:09Z</time>
      </trkpt>
      <trkpt lat="43.58643" lon="6.2733">
        <ele>407.5</ele>
        <time>2011-12-18T14:46:27Z</time>
      </trkpt>
      <trkpt lat="43.58636" lon="6.27323">
        <ele>407</ele>
        <time>2011-12-18T14:46:40Z</time>
      </trkpt>
      <trkpt lat="43.58632" lon="6.27312">
        <ele>406.100006</ele>
        <time>2011-12-18T14:46:52Z</time>
      </trkpt>
      <trkpt lat="43.58625" lon="6.27306">
        <ele>404.5</ele>
        <time>2011-12-18T14:47:00Z</time>
      </trkpt>
      <trkpt lat="43.58619" lon="6.27299">
        <ele>403.600006</ele>
        <time>2011-12-18T14:47:11Z</time>
      </trkpt>
      <trkpt lat="43.58618" lon="6.27298">
        <ele>403.5</ele>
        <time>2011-12-18T14:47:12Z</time>
      </trkpt>
      <trkpt lat="43.58607" lon="6.27283">
        <ele>403.399994</ele>
        <time>2011-12-18T14:47:28Z</time>
      </trkpt>
      <trkpt lat="43.58602" lon="6.27273">
        <ele>402.600006</ele>
        <time>2011-12-18T14:47:36Z</time>
      </trkpt>
      <trkpt lat="43.58603" lon="6.27263">
        <ele>401.5</ele>
        <time>2011-12-18T14:47:41Z</time>
      </trkpt>
      <trkpt lat="43.58599" lon="6.27252">
        <ele>401.399994</ele>
        <time>2011-12-18T14:47:48Z</time>
      </trkpt>
      <trkpt lat="43.586" lon="6.27241">
        <ele>401.399994</ele>
        <time>2011-12-18T14:47:54Z</time>
      </trkpt>
      <trkpt lat="43.58594" lon="6.27231">
        <ele>400.100006</ele>
        <time>2011-12-18T14:48:01Z</time>
      </trkpt>
      <trkpt lat="43.58588" lon="6.27225">
        <ele>400.100006</ele>
        <time>2011-12-18T14:48:09Z</time>
      </trkpt>
      <trkpt lat="43.58579" lon="6.27222">
        <ele>399.399994</ele>
        <time>2011-12-18T14:48:18Z</time>
      </trkpt>
      <trkpt lat="43.58578" lon="6.27222">
        <ele>399.5</ele>
        <time>2011-12-18T14:48:19Z</time>
      </trkpt>
      <trkpt lat="43.58563" lon="6.27222">
        <ele>401.100006</ele>
        <time>2011-12-18T14:48:29Z</time>
      </trkpt>
      <trkpt lat="43.58555" lon="6.27228">
        <ele>401.5</ele>
        <time>2011-12-18T14:48:37Z</time>
      </trkpt>
      <trkpt lat="43.5855" lon="6.27237">
        <ele>401.700012</ele>
        <time>2011-12-18T14:48:45Z</time>
      </trkpt>
      <trkpt lat="43.58547" lon="6.27247">
        <ele>402.600006</ele>
        <time>2011-12-18T14:48:57Z</time>
      </trkpt>
      <trkpt lat="43.58545" lon="6.27259">
        <ele>403</ele>
        <time>2011-12-18T14:49:04Z</time>
      </trkpt>
      <trkpt lat="43.58548" lon="6.27269">
        <ele>402.700012</ele>
        <time>2011-12-18T14:49:11Z</time>
      </trkpt>
      <trkpt lat="43.58543" lon="6.2728">
        <ele>406.200012</ele>
        <time>2011-12-18T14:49:36Z</time>
      </trkpt>
      <trkpt lat="43.58542" lon="6.27281">
        <ele>406.600006</ele>
        <time>2011-12-18T14:49:37Z</time>
      </trkpt>
      <trkpt lat="43.58538" lon="6.27296">
        <ele>409.700012</ele>
        <time>2011-12-18T14:53:48Z</time>
      </trkpt>
      <trkpt lat="43.58538" lon="6.27296">
        <ele>409.399994</ele>
        <time>2011-12-18T14:53:49Z</time>
      </trkpt>
      <trkpt lat="43.5852" lon="6.27297">
        <ele>401.299988</ele>
        <time>2011-12-18T14:55:06Z</time>
      </trkpt>
      <trkpt lat="43.5852" lon="6.27298">
        <ele>401.299988</ele>
        <time>2011-12-18T14:55:07Z</time>
      </trkpt>
      <trkpt lat="43.58522" lon="6.2732">
        <ele>397.700012</ele>
        <time>2011-12-18T14:55:27Z</time>
      </trkpt>
      <trkpt lat="43.58524" lon="6.27331">
        <ele>396.700012</ele>
        <time>2011-12-18T14:55:35Z</time>
      </trkpt>
      <trkpt lat="43.58525" lon="6.27343">
        <ele>395.799988</ele>
        <time>2011-12-18T14:55:43Z</time>
      </trkpt>
      <trkpt lat="43.58528" lon="6.27354">
        <ele>395.700012</ele>
        <time>2011-12-18T14:55:50Z</time>
      </trkpt>
      <trkpt lat="43.58526" lon="6.27366">
        <ele>394.200012</ele>
        <time>2011-12-18T14:55:58Z</time>
      </trkpt>
      <trkpt lat="43.58525" lon="6.27377">
        <ele>393</ele>
        <time>2011-12-18T14:56:08Z</time>
      </trkpt>
      <trkpt lat="43.58525" lon="6.27378">
        <ele>392.799988</ele>
        <time>2011-12-18T14:56:09Z</time>
      </trkpt>
      <trkpt lat="43.58529" lon="6.274">
        <ele>389.700012</ele>
        <time>2011-12-18T14:56:29Z</time>
      </trkpt>
      <trkpt lat="43.58529" lon="6.27411">
        <ele>389.600006</ele>
        <time>2011-12-18T14:56:38Z</time>
      </trkpt>
      <trkpt lat="43.58523" lon="6.2742">
        <ele>389.600006</ele>
        <time>2011-12-18T14:56:50Z</time>
      </trkpt>
      <trkpt lat="43.58515" lon="6.27427">
        <ele>385.899994</ele>
        <time>2011-12-18T14:57:16Z</time>
      </trkpt>
      <trkpt lat="43.58515" lon="6.27427">
        <ele>385.600006</ele>
        <time>2011-12-18T14:57:17Z</time>
      </trkpt>
      <trkpt lat="43.585" lon="6.27433">
        <ele>379.200012</ele>
        <time>2011-12-18T14:58:09Z</time>
      </trkpt>
      <trkpt lat="43.58498" lon="6.27445">
        <ele>379.5</ele>
        <time>2011-12-18T14:58:19Z</time>
      </trkpt>
      <trkpt lat="43.58498" lon="6.27445">
        <ele>379.399994</ele>
        <time>2011-12-18T14:58:20Z</time>
      </trkpt>
      <trkpt lat="43.58501" lon="6.27468">
        <ele>373.700012</ele>
        <time>2011-12-18T14:59:04Z</time>
      </trkpt>
      <trkpt lat="43.585" lon="6.2748">
        <ele>372.799988</ele>
        <time>2011-12-18T14:59:14Z</time>
      </trkpt>
      <trkpt lat="43.58501" lon="6.27492">
        <ele>370.299988</ele>
        <time>2011-12-18T14:59:28Z</time>
      </trkpt>
      <trkpt lat="43.58502" lon="6.27493">
        <ele>370.200012</ele>
        <time>2011-12-18T14:59:29Z</time>
      </trkpt>
      <trkpt lat="43.58494" lon="6.27512">
        <ele>361.899994</ele>
        <time>2011-12-18T15:02:07Z</time>
      </trkpt>
      <trkpt lat="43.58494" lon="6.27512">
        <ele>362</ele>
        <time>2011-12-18T15:02:08Z</time>
      </trkpt>
      <trkpt lat="43.58476" lon="6.27512">
        <ele>356.700012</ele>
        <time>2011-12-18T15:02:48Z</time>
      </trkpt>
      <trkpt lat="43.58468" lon="6.27516">
        <ele>354.200012</ele>
        <time>2011-12-18T15:03:00Z</time>
      </trkpt>
      <trkpt lat="43.58473" lon="6.27526">
        <ele>352.700012</ele>
        <time>2011-12-18T15:03:46Z</time>
      </trkpt>
      <trkpt lat="43.58473" lon="6.27526">
        <ele>352.700012</ele>
        <time>2011-12-18T15:03:47Z</time>
      </trkpt>
      <trkpt lat="43.5847" lon="6.27548">
        <ele>352.399994</ele>
        <time>2011-12-18T15:04:04Z</time>
      </trkpt>
      <trkpt lat="43.58474" lon="6.27559">
        <ele>351.799988</ele>
        <time>2011-12-18T15:04:35Z</time>
      </trkpt>
      <trkpt lat="43.58466" lon="6.27562">
        <ele>350.299988</ele>
        <time>2011-12-18T15:05:05Z</time>
      </trkpt>
      <trkpt lat="43.58465" lon="6.27562">
        <ele>350.299988</ele>
        <time>2011-12-18T15:05:06Z</time>
      </trkpt>
      <trkpt lat="43.5845" lon="6.27573">
        <ele>345.399994</ele>
        <time>2011-12-18T15:06:03Z</time>
      </trkpt>
      <trkpt lat="43.58442" lon="6.27577">
        <ele>343.200012</ele>
        <time>2011-12-18T15:06:20Z</time>
      </trkpt>
      <trkpt lat="43.58441" lon="6.27578">
        <ele>342.799988</ele>
        <time>2011-12-18T15:06:21Z</time>
      </trkpt>
      <trkpt lat="43.58426" lon="6.27586">
        <ele>340.100006</ele>
        <time>2011-12-18T15:06:42Z</time>
      </trkpt>
      <trkpt lat="43.58419" lon="6.27581">
        <ele>338.5</ele>
        <time>2011-12-18T15:06:58Z</time>
      </trkpt>
      <trkpt lat="43.58413" lon="6.27572">
        <ele>337.299988</ele>
        <time>2011-12-18T15:07:06Z</time>
      </trkpt>
      <trkpt lat="43.58407" lon="6.27563">
        <ele>336.899994</ele>
        <time>2011-12-18T15:07:13Z</time>
      </trkpt>
      <trkpt lat="43.58403" lon="6.27554">
        <ele>337.299988</ele>
        <time>2011-12-18T15:07:21Z</time>
      </trkpt>
      <trkpt lat="43.58402" lon="6.27553">
        <ele>337.200012</ele>
        <time>2011-12-18T15:07:22Z</time>
      </trkpt>
      <trkpt lat="43.58394" lon="6.27534">
        <ele>337</ele>
        <time>2011-12-18T15:07:37Z</time>
      </trkpt>
      <trkpt lat="43.58389" lon="6.27526">
        <ele>336.700012</ele>
        <time>2011-12-18T15:07:43Z</time>
      </trkpt>
      <trkpt lat="43.58381" lon="6.2752">
        <ele>336.600006</ele>
        <time>2011-12-18T15:07:51Z</time>
      </trkpt>
      <trkpt lat="43.58372" lon="6.27522">
        <ele>335.200012</ele>
        <time>2011-12-18T15:08:02Z</time>
      </trkpt>
      <trkpt lat="43.58364" lon="6.27526">
        <ele>334.299988</ele>
        <time>2011-12-18T15:08:11Z</time>
      </trkpt>
      <trkpt lat="43.58356" lon="6.27529">
        <ele>333.600006</ele>
        <time>2011-12-18T15:08:21Z</time>
      </trkpt>
      <trkpt lat="43.58356" lon="6.27541">
        <ele>333.299988</ele>
        <time>2011-12-18T15:09:00Z</time>
      </trkpt>
      <trkpt lat="43.58356" lon="6.27542">
        <ele>333.299988</ele>
        <time>2011-12-18T15:09:01Z</time>
      </trkpt>
      <trkpt lat="43.58357" lon="6.27554">
        <ele>331.5</ele>
        <time>2011-12-18T15:11:26Z</time>
      </trkpt>
      <trkpt lat="43.58366" lon="6.27547">
        <ele>331.399994</ele>
        <time>2011-12-18T15:12:34Z</time>
      </trkpt>
      <trkpt lat="43.58358" lon="6.27557">
        <ele>331.5</ele>
        <time>2011-12-18T15:14:40Z</time>
      </trkpt>
      <trkpt lat="43.58357" lon="6.27578">
        <ele>330.799988</ele>
        <time>2011-12-18T15:15:04Z</time>
      </trkpt>
      <trkpt lat="43.58356" lon="6.2759">
        <ele>330.299988</ele>
        <time>2011-12-18T15:15:16Z</time>
      </trkpt>
      <trkpt lat="43.58352" lon="6.27601">
        <ele>330.600006</ele>
        <time>2011-12-18T15:15:26Z</time>
      </trkpt>
      <trkpt lat="43.58345" lon="6.27608">
        <ele>329.399994</ele>
        <time>2011-12-18T15:15:44Z</time>
      </trkpt>
      <trkpt lat="43.58344" lon="6.27609">
        <ele>329.5</ele>
        <time>2011-12-18T15:15:45Z</time>
      </trkpt>
      <trkpt lat="43.5833" lon="6.27617">
        <ele>329.399994</ele>
        <time>2011-12-18T15:16:04Z</time>
      </trkpt>
      <trkpt lat="43.58323" lon="6.27623">
        <ele>329.100006</ele>
        <time>2011-12-18T15:16:12Z</time>
      </trkpt>
      <trkpt lat="43.58317" lon="6.2762">
        <ele>328.399994</ele>
        <time>2011-12-18T15:16:20Z</time>
      </trkpt>
      <trkpt lat="43.58309" lon="6.2762">
        <ele>328.100006</ele>
        <time>2011-12-18T15:16:24Z</time>
      </trkpt>
      <trkpt lat="43.583" lon="6.27617">
        <ele>328.200012</ele>
        <time>2011-12-18T15:16:33Z</time>
      </trkpt>
      <trkpt lat="43.58344" lon="6.27584">
        <ele>329</ele>
        <time>2011-12-18T15:41:33Z</time>
      </trkpt>
    </trkseg>
  </trk>
</gpx>